Provisional Data: Bowman Creek near Noxen, PA


Please select a monitoring station.
Please select start date.
Please select start date.

Toggle Unit: C/F Toggle Unit: C/F
Sample Time Temperature (C) Temperature (F) Specific Conductivity (mS/cm) pH   Turbidity (NTU+) DO (mg/L)
4/13/2022 12:00:00 AM 9.02 48.236 0.039 6.65 2.61 11.06
4/13/2022 12:15:00 AM 8.92 48.056 0.039 6.64 2.53 11.09
4/13/2022 12:30:00 AM 8.82 47.876 0.039 6.64 2.5 11.12
4/13/2022 12:45:00 AM 8.73 47.714 0.039 6.64 2.46 11.14
4/13/2022 1:00:00 AM 8.65 47.57 0.039 6.64 2.45 11.16
4/13/2022 1:15:00 AM 8.56 47.408 0.039 6.64 2.45 11.18
4/13/2022 1:30:00 AM 8.48 47.264 0.039 6.64 2.5 11.2
4/13/2022 1:45:00 AM 8.4 47.12 0.039 6.64 2.43 11.23
4/13/2022 2:00:00 AM 8.32 46.976 0.039 6.64 2.48 11.25
4/13/2022 2:15:00 AM 8.24 46.832 0.039 6.64 2.42 11.28
4/13/2022 2:30:00 AM 8.17 46.706 0.039 6.63 2.48 11.3
4/13/2022 2:45:00 AM 8.1 46.58 0.039 6.64 2.42 11.32
4/13/2022 3:00:00 AM 8.04 46.472 0.039 6.63 2.48 11.33
4/13/2022 3:15:00 AM 7.98 46.364 0.039 6.64 2.46 11.35
4/13/2022 3:30:00 AM 7.93 46.274 0.039 6.63 2.4 11.37
4/13/2022 3:45:00 AM 7.87 46.166 0.039 6.64 2.54 11.38
4/13/2022 4:00:00 AM 7.82 46.076 0.039 6.64 2.67 11.39
4/13/2022 4:15:00 AM 7.78 46.004 0.039 6.64 2.38 11.41
4/13/2022 4:30:00 AM 7.73 45.914 0.039 6.63 2.41 11.42
4/13/2022 4:45:00 AM 7.7 45.86 0.039 6.64 2.46 11.45
4/13/2022 5:00:00 AM 7.67 45.806 0.039 6.64 2.39 11.44
4/13/2022 5:15:00 AM 7.65 45.77 0.039 6.64 2.36 11.45
4/13/2022 5:30:00 AM 7.63 45.734 0.039 6.64 2.35 11.47
4/13/2022 5:45:00 AM 7.61 45.698 0.039 6.64 2.33 11.47
4/13/2022 6:00:00 AM 7.59 45.662 0.039 6.64 2.35 11.48
4/13/2022 6:15:00 AM 7.58 45.644 0.039 6.64 2.41 11.48
4/13/2022 6:30:00 AM 7.56 45.608 0.039 6.63 2.32 11.49
4/13/2022 6:45:00 AM 7.55 45.59 0.039 6.64 2.35 11.5
4/13/2022 7:00:00 AM 7.54 45.572 0.039 6.64 2.37 11.52
4/13/2022 7:15:00 AM 7.53 45.554 0.039 6.65 2.34 11.54
4/13/2022 7:30:00 AM 7.54 45.572 0.039 6.65 2.33 11.57
4/13/2022 7:45:00 AM 7.54 45.572 0.039 6.67 2.29 11.6
4/13/2022 8:00:00 AM 7.56 45.608 0.039 6.67 2.29 11.64
4/13/2022 8:15:00 AM 7.58 45.644 0.039 6.69 2.32 11.66
4/13/2022 8:30:00 AM 7.6 45.68 0.039 6.69 2.27 11.68
4/13/2022 8:45:00 AM 7.65 45.77 0.039 6.7 2.34 11.7
4/13/2022 9:00:00 AM 7.73 45.914 0.039 6.7 2.36 11.69
4/13/2022 9:15:00 AM 7.79 46.022 0.039 6.71 2.37 11.69
4/13/2022 9:30:00 AM 7.87 46.166 0.039 6.72 2.2 11.67
4/13/2022 9:45:00 AM 7.97 46.346 0.039 6.72 2.32 11.66
4/13/2022 10:00:00 AM 8.13 46.634 0.039 6.73 2.26 11.64
4/13/2022 10:15:00 AM 8.31 46.958 0.039 6.73 2.17 11.6
4/13/2022 10:30:00 AM 8.52 47.336 0.039 6.74 2.25 11.56
4/13/2022 10:45:00 AM 8.75 47.75 0.039 6.75 2.18 11.52
4/13/2022 11:00:00 AM 9 48.2 0.039 6.75 2.29 11.46
4/13/2022 11:15:00 AM 9.27 48.686 0.039 6.76 2.26 11.4
4/13/2022 11:30:00 AM 9.47 49.046 0.039 6.77 2.13 11.34
4/13/2022 11:45:00 AM 9.72 49.496 0.039 6.77 2.32 11.29
4/13/2022 12:00:00 PM 9.83 49.694 0.039 6.77 2.28 11.24
4/13/2022 12:15:00 PM 9.96 49.928 0.039 6.78 2.18 11.21
4/13/2022 12:30:00 PM 10.05 50.09 0.039 6.79 2.27 11.18
4/13/2022 12:45:00 PM 10.21 50.378 0.039 6.79 2.16 11.16
4/13/2022 1:00:00 PM 10.38 50.684 0.039 6.79 2.18 11.11
4/13/2022 1:15:00 PM 10.47 50.846 0.039 6.8 2.15 11.08
4/13/2022 1:30:00 PM 10.67 51.206 0.039 6.8 2.16 11.04
4/13/2022 1:45:00 PM 10.84 51.512 0.039 6.8 2.17 10.98
4/13/2022 2:00:00 PM 10.91 51.638 0.039 6.81 2.28 10.93
4/13/2022 2:15:00 PM 11 51.8 0.039 6.8 2.21 10.91
4/13/2022 2:30:00 PM 11.11 51.998 0.039 6.8 2.17 10.86
4/13/2022 2:45:00 PM 11.21 52.178 0.039 6.8 2.2 10.82
4/13/2022 3:00:00 PM 11.28 52.304 0.039 6.8 2.29 10.8
4/13/2022 3:15:00 PM 11.33 52.394 0.039 6.8 2.2 10.75
4/13/2022 3:30:00 PM 11.42 52.556 0.039 6.81 2.14 10.74
4/13/2022 3:45:00 PM 11.49 52.682 0.039 6.8 2.23 10.73
4/13/2022 4:00:00 PM 11.56 52.808 0.039 6.81 2.19 10.7
4/13/2022 4:15:00 PM 11.62 52.916 0.039 6.81 2.12 10.68
4/13/2022 4:30:00 PM 11.71 53.078 0.039 6.81 2.18 10.66
4/13/2022 4:45:00 PM 11.77 53.186 0.039 6.82 2.14 10.64
4/13/2022 5:00:00 PM 11.83 53.294 0.039 6.81 2.11 10.62
4/13/2022 5:15:00 PM 11.83 53.294 0.039 6.81 2.19 10.6
4/13/2022 5:30:00 PM 11.83 53.294 0.039 6.81 2.18 10.59
4/13/2022 5:45:00 PM 11.83 53.294 0.039 6.81 2.11 10.57
4/13/2022 6:00:00 PM 11.82 53.276 0.04 6.79 2.19 10.54
4/13/2022 6:15:00 PM 11.79 53.222 0.04 6.78 2.26 10.51
4/13/2022 6:30:00 PM 11.73 53.114 0.04 6.77 2.1 10.49
4/13/2022 6:45:00 PM 11.68 53.024 0.04 6.77 2.24 10.47
4/13/2022 7:00:00 PM 11.63 52.934 0.04 6.75 2.18 10.45
4/13/2022 7:15:00 PM 11.57 52.826 0.04 6.74 2.18 10.43
4/13/2022 7:30:00 PM 11.5 52.7 0.04 6.73 2.24 10.42
4/13/2022 7:45:00 PM 11.44 52.592 0.04 6.72 2.27 10.42
4/13/2022 8:00:00 PM 11.37 52.466 0.04 6.69 2.34 10.41
4/13/2022 8:15:00 PM 11.3 52.34 0.04 6.7 2.35 10.41
4/13/2022 8:30:00 PM 11.24 52.232 0.04 6.68 2.34 10.42
4/13/2022 8:45:00 PM 11.19 52.142 0.04 6.68 2.3 10.42
4/13/2022 9:00:00 PM 11.13 52.034 0.04 6.68 2.28 10.42
4/13/2022 9:15:00 PM 11.07 51.926 0.04 6.67 2.32 10.44
4/13/2022 9:30:00 PM 11 51.8 0.04 6.67 2.39 10.45
4/13/2022 9:45:00 PM 10.93 51.674 0.04 6.67 2.4 10.46
4/13/2022 10:00:00 PM 10.87 51.566 0.04 6.66 2.37 10.48
4/13/2022 10:15:00 PM 10.8 51.44 0.04 6.66 2.27 10.51
4/13/2022 10:30:00 PM 10.73 51.314 0.04 6.66 2.36 10.52
4/13/2022 10:45:00 PM 10.67 51.206 0.04 6.66 2.4 10.53
4/13/2022 11:00:00 PM 10.62 51.116 0.04 6.66 2.23 10.54
4/13/2022 11:15:00 PM 10.55 50.99 0.04 6.66 2.3 10.56
4/13/2022 11:30:00 PM 10.49 50.882 0.04 6.66 2.3 10.56
4/13/2022 11:45:00 PM 10.43 50.774 0.04 6.66 2.27 10.58
4/14/2022 12:00:00 AM 10.37 50.666 0.04 6.65 2.37 10.59
4/14/2022 12:15:00 AM 10.31 50.558 0.04 6.66 2.39 10.6
4/14/2022 12:30:00 AM 10.25 50.45 0.04 6.66 2.23 10.62
4/14/2022 12:45:00 AM 10.2 50.36 0.04 6.65 2.35 10.63
4/14/2022 1:00:00 AM 10.14 50.252 0.04 6.65 2.26 10.64
4/14/2022 1:15:00 AM 10.08 50.144 0.04 6.66 2.37 10.67
4/14/2022 1:30:00 AM 10.03 50.054 0.04 6.65 2.4 10.68
4/14/2022 1:45:00 AM 9.98 49.964 0.04 6.65 2.37 10.69
4/14/2022 2:00:00 AM 9.94 49.892 0.04 6.65 2.33 10.69
4/14/2022 2:15:00 AM 9.91 49.838 0.04 6.65 2.28 10.7
4/14/2022 2:30:00 AM 9.88 49.784 0.041 6.65 2.28 10.7
4/14/2022 2:45:00 AM 9.84 49.712 0.041 6.65 2.45 10.73
4/14/2022 3:00:00 AM 9.81 49.658 0.04 6.66 2.52 10.73
4/14/2022 3:15:00 AM 9.79 49.622 0.04 6.65 2.43 10.73
4/14/2022 3:30:00 AM 9.76 49.568 0.04 6.65 2.38 10.75
4/14/2022 3:45:00 AM 9.74 49.532 0.04 6.65 2.34 10.74
4/14/2022 4:00:00 AM 9.71 49.478 0.04 6.65 2.4 10.75
4/14/2022 4:15:00 AM 9.68 49.424 0.04 6.64 2.27 10.76
4/14/2022 4:30:00 AM 9.66 49.388 0.04 6.65 2.38 10.77
4/14/2022 4:45:00 AM 9.62 49.316 0.04 6.64 2.37 10.78
4/14/2022 5:00:00 AM 9.58 49.244 0.04 6.64 2.33 10.79
4/14/2022 5:15:00 AM 9.54 49.172 0.041 6.64 2.35 10.8
4/14/2022 5:30:00 AM 9.51 49.118 0.04 6.63 2.33 10.81
4/14/2022 5:45:00 AM 9.47 49.046 0.041 6.64 2.39 10.82
4/14/2022 6:00:00 AM 9.43 48.974 0.041 6.64 2.38 10.83
4/14/2022 6:15:00 AM 9.39 48.902 0.041 6.63 2.28 10.83
4/14/2022 6:30:00 AM 9.36 48.848 0.041 6.65 2.24 10.85
4/14/2022 6:45:00 AM 9.33 48.794 0.041 6.64 2.34 10.87
4/14/2022 7:00:00 AM 9.3 48.74 0.041 6.65 2.38 10.9
4/14/2022 7:15:00 AM 9.27 48.686 0.041 6.66 2.28 10.94
4/14/2022 7:30:00 AM 9.26 48.668 0.041 6.66 2.34 10.97
4/14/2022 7:45:00 AM 9.24 48.632 0.041 6.68 2.24 11.01
4/14/2022 8:00:00 AM 9.24 48.632 0.041 6.69 2.28 11.04
4/14/2022 8:15:00 AM 9.26 48.668 0.041 6.71 2.33 11.07
4/14/2022 8:30:00 AM 9.29 48.722 0.041 6.7 2.2 11.09
4/14/2022 8:45:00 AM 9.33 48.794 0.041 6.72 2.28 11.11
4/14/2022 9:00:00 AM 9.39 48.902 0.04 6.72 2.23 11.12
4/14/2022 9:15:00 AM 9.47 49.046 0.04 6.74 2.16 11.12
4/14/2022 9:30:00 AM 9.59 49.262 0.04 6.76 2.15 11.12
4/14/2022 9:45:00 AM 9.74 49.532 0.04 6.77 2.18 11.1
4/14/2022 10:00:00 AM 9.91 49.838 0.04 6.78 2.16 11.09
4/14/2022 10:15:00 AM 10.12 50.216 0.04 6.79 2.17 11.07
4/14/2022 10:30:00 AM 10.35 50.63 0.04 6.8 2.15 11.03
4/14/2022 10:45:00 AM 10.63 51.134 0.04 6.8 2.15 11
4/14/2022 11:00:00 AM 10.88 51.584 0.04 6.81 2.12 10.95
4/14/2022 11:15:00 AM 11.13 52.034 0.04 6.82 2.18 10.89
4/14/2022 11:30:00 AM 11.39 52.502 0.04 6.82 2.06 10.84
4/14/2022 11:45:00 AM 11.58 52.844 0.04 6.82 2.25 10.77
4/14/2022 12:00:00 PM 11.78 53.204 0.04 6.84 2.12 10.73
4/14/2022 12:15:00 PM 11.81 53.258 0.04 6.83 2.13 10.68
4/14/2022 12:30:00 PM 11.82 53.276 0.04 6.82 2.1 10.64
4/14/2022 12:45:00 PM 11.78 53.204 0.04 6.82 2.21 10.6
4/14/2022 1:00:00 PM 11.84 53.312 0.04 6.82 2.14 10.62
4/14/2022 1:15:00 PM 11.8 53.24 0.04 6.82 2.2 10.59
4/14/2022 1:30:00 PM 11.78 53.204 0.04 6.82 2.09 10.6
4/14/2022 1:45:00 PM 11.76 53.168 0.04 6.83 2.09 10.63
4/14/2022 2:00:00 PM 11.78 53.204 0.04 6.83 2.04 10.63
4/14/2022 2:15:00 PM 11.79 53.222 0.04 6.83 2.05 10.61
4/14/2022 2:30:00 PM 11.81 53.258 0.04 6.84 2.17 10.6
4/14/2022 2:45:00 PM 11.83 53.294 0.04 6.83 2.09 10.58
4/14/2022 3:00:00 PM 11.88 53.384 0.04 6.84 2.13 10.59
4/14/2022 3:15:00 PM 11.94 53.492 0.04 6.84 2.15 10.57
4/14/2022 3:30:00 PM 11.94 53.492 0.04 6.81 2.09 10.51
4/14/2022 3:45:00 PM 11.93 53.474 0.04 6.82 2.07 10.51
4/14/2022 4:00:00 PM 11.92 53.456 0.04 6.82 2.14 10.5
4/14/2022 4:15:00 PM 11.9 53.42 0.04 6.8 2.14 10.47
4/14/2022 4:30:00 PM 11.85 53.33 0.04 6.8 2.14 10.46
4/14/2022 4:45:00 PM 11.8 53.24 0.04 6.8 2.22 10.46
4/14/2022 5:00:00 PM 11.76 53.168 0.04 6.8 2.21 10.47
4/14/2022 5:15:00 PM 11.73 53.114 0.04 6.79 2.26 10.46
4/14/2022 5:30:00 PM 11.69 53.042 0.041 6.79 2.16 10.46
4/14/2022 5:45:00 PM 11.66 52.988 0.04 6.79 2.31 10.5
4/14/2022 6:00:00 PM 11.62 52.916 0.04 6.8 2.54 10.52
4/14/2022 6:15:00 PM 11.58 52.844 0.041 6.8 2.49 10.52
4/14/2022 6:30:00 PM 11.52 52.736 0.041 6.79 2.85 10.52
4/14/2022 6:45:00 PM 11.47 52.646 0.041 6.79 2.36 10.51
4/14/2022 7:00:00 PM 11.41 52.538 0.041 6.78 2.28 10.5
4/14/2022 7:15:00 PM 11.36 52.448 0.041 6.77 2.19 10.49
4/14/2022 7:30:00 PM 11.29 52.322 0.041 6.77 2.28 10.49
4/14/2022 7:45:00 PM 11.23 52.214 0.041 6.76 2.19 10.49
4/14/2022 8:00:00 PM 11.14 52.052 0.041 6.74 2.31 10.49
4/14/2022 8:15:00 PM 11.05 51.89 0.041 6.74 2.25 10.48
4/14/2022 8:30:00 PM 10.95 51.71 0.041 6.74 2.35 10.49
4/14/2022 8:45:00 PM 10.85 51.53 0.041 6.73 2.31 10.52
4/14/2022 9:00:00 PM 10.74 51.332 0.041 6.72 2.34 10.55
4/14/2022 9:15:00 PM 10.63 51.134 0.041 6.72 2.33 10.57
4/14/2022 9:30:00 PM 10.53 50.954 0.041 6.72 2.28 10.6
4/14/2022 9:45:00 PM 10.42 50.756 0.041 6.71 2.32 10.62
4/14/2022 10:00:00 PM 10.32 50.576 0.041 6.71 2.27 10.65
4/14/2022 10:15:00 PM 10.21 50.378 0.041 6.71 2.3 10.68
4/14/2022 10:30:00 PM 10.1 50.18 0.041 6.71 2.26 10.71
4/14/2022 10:45:00 PM 10 50 0.041 6.71 2.27 10.74
4/14/2022 11:00:00 PM 9.9 49.82 0.041 6.7 2.35 10.76
4/14/2022 11:15:00 PM 9.8 49.64 0.041 6.7 2.35 10.79
4/14/2022 11:30:00 PM 9.7 49.46 0.041 6.7 2.32 10.82
4/14/2022 11:45:00 PM 9.6 49.28 0.041 6.7 2.21 10.85
4/15/2022 12:00:00 AM 9.51 49.118 0.041 6.7 2.26 10.88
4/15/2022 12:15:00 AM 9.41 48.938 0.041 6.69 2.22 10.91
4/15/2022 12:30:00 AM 9.31 48.758 0.041 6.7 2.29 10.94
4/15/2022 12:45:00 AM 9.21 48.578 0.041 6.69 2.26 10.96
4/15/2022 1:00:00 AM 9.12 48.416 0.041 6.7 2.24 10.98
4/15/2022 1:15:00 AM 9.03 48.254 0.041 6.69 2.17 11.01
4/15/2022 1:30:00 AM 8.94 48.092 0.041 6.7 2.23 11.04
4/15/2022 1:45:00 AM 8.85 47.93 0.041 6.69 2.27 11.07
4/15/2022 2:00:00 AM 8.76 47.768 0.041 6.69 2.34 11.1
4/15/2022 2:15:00 AM 8.68 47.624 0.041 6.69 2.26 11.12
4/15/2022 2:30:00 AM 8.59 47.462 0.041 6.69 2.37 11.13
4/15/2022 2:45:00 AM 8.51 47.318 0.041 6.69 2.13 11.15
4/15/2022 3:00:00 AM 8.42 47.156 0.041 6.68 2.23 11.18
4/15/2022 3:15:00 AM 8.34 47.012 0.041 6.69 2.2 11.21
4/15/2022 3:30:00 AM 8.26 46.868 0.041 6.68 2.2 11.24
4/15/2022 3:45:00 AM 8.18 46.724 0.041 6.68 2.29 11.26
4/15/2022 4:00:00 AM 8.1 46.58 0.041 6.69 2.18 11.29
4/15/2022 4:15:00 AM 8.02 46.436 0.041 6.68 2.2 11.31
4/15/2022 4:30:00 AM 7.95 46.31 0.041 6.68 2.16 11.33
4/15/2022 4:45:00 AM 7.88 46.184 0.041 6.69 2.27 11.35
4/15/2022 5:00:00 AM 7.8 46.04 0.041 6.68 2.2 11.37
4/15/2022 5:15:00 AM 7.72 45.896 0.041 6.68 2.02 11.4
4/15/2022 5:30:00 AM 7.65 45.77 0.041 6.69 2.13 11.43
4/15/2022 5:45:00 AM 7.58 45.644 0.041 6.68 2.17 11.45
4/15/2022 6:00:00 AM 7.5 45.5 0.041 6.69 2.16 11.48
4/15/2022 6:15:00 AM 7.43 45.374 0.041 6.67 2.1 11.5
4/15/2022 6:30:00 AM 7.36 45.248 0.041 6.68 2.19 11.53
4/15/2022 6:45:00 AM 7.3 45.14 0.041 6.69 2.14 11.57
4/15/2022 7:00:00 AM 7.24 45.032 0.041 6.7 2.17 11.61
4/15/2022 7:15:00 AM 7.19 44.942 0.041 6.7 2.05 11.65
4/15/2022 7:30:00 AM 7.13 44.834 0.041 6.71 2.11 11.7
4/15/2022 7:45:00 AM 7.09 44.762 0.041 6.71 2.17 11.75
4/15/2022 8:00:00 AM 7.07 44.726 0.041 6.72 2.16 11.8
4/15/2022 8:15:00 AM 7.06 44.708 0.041 6.74 2.11 11.84
4/15/2022 8:30:00 AM 7.08 44.744 0.041 6.74 2.14 11.86
4/15/2022 8:45:00 AM 7.1 44.78 0.041 6.74 2.11 11.88
4/15/2022 9:00:00 AM 7.14 44.852 0.041 6.76 2.15 11.89
4/15/2022 9:15:00 AM 7.21 44.978 0.041 6.77 2.07 11.89
4/15/2022 9:30:00 AM 7.3 45.14 0.041 6.77 2.1 11.88
4/15/2022 9:45:00 AM 7.41 45.338 0.041 6.78 2.05 11.89
4/15/2022 10:00:00 AM 7.56 45.608 0.041 6.78 2.25 11.86
4/15/2022 10:15:00 AM 7.75 45.95 0.041 6.79 2.05 11.83
4/15/2022 10:30:00 AM 7.94 46.292 0.041 6.8 2.09 11.79
4/15/2022 10:45:00 AM 8.15 46.67 0.041 6.79 1.97 11.75
4/15/2022 11:00:00 AM 8.38 47.084 0.041 6.8 2.02 11.7
4/15/2022 11:15:00 AM 8.62 47.516 0.041 6.81 2 11.64
4/15/2022 11:30:00 AM 8.87 47.966 0.041 6.82 1.98 11.59
4/15/2022 11:45:00 AM 9.12 48.416 0.041 6.82 2.01 11.52
4/15/2022 12:00:00 PM 9.36 48.848 0.041 6.82 1.93 11.47
4/15/2022 12:15:00 PM 9.61 49.298 0.041 6.83 2 11.42
4/15/2022 12:30:00 PM 9.83 49.694 0.041 6.83 2.09 11.35
4/15/2022 12:45:00 PM 10.04 50.072 0.041 6.83 1.98 11.31
4/15/2022 1:00:00 PM 10.25 50.45 0.041 6.84 2.02 11.25
4/15/2022 1:15:00 PM 10.44 50.792 0.041 6.84 1.98 11.2
4/15/2022 1:30:00 PM 10.64 51.152 0.041 6.84 1.97 11.16
4/15/2022 1:45:00 PM 10.72 51.296 0.041 6.85 1.96 11.11
4/15/2022 2:00:00 PM 10.91 51.638 0.041 6.85 1.97 11.06
4/15/2022 2:15:00 PM 11.06 51.908 0.041 6.85 1.96 11.02
4/15/2022 2:30:00 PM 11.19 52.142 0.041 6.85 1.98 10.98
4/15/2022 2:45:00 PM 11.3 52.34 0.041 6.86 1.95 10.95
4/15/2022 3:00:00 PM 11.41 52.538 0.041 6.85 1.97 10.91
4/15/2022 3:15:00 PM 11.49 52.682 0.041 6.85 1.92 10.88
4/15/2022 3:30:00 PM 11.6 52.88 0.041 6.86 2.03 10.84
4/15/2022 3:45:00 PM 11.66 52.988 0.041 6.86 1.94 10.8
4/15/2022 4:00:00 PM 11.75 53.15 0.041 6.86 2.11 10.77
4/15/2022 4:15:00 PM 11.81 53.258 0.041 6.86 1.98 10.75
4/15/2022 4:30:00 PM 11.77 53.186 0.041 6.86 2.05 10.71
4/15/2022 4:45:00 PM 11.77 53.186 0.041 6.86 1.96 10.7
4/15/2022 5:00:00 PM 11.75 53.15 0.041 6.86 1.96 10.68
4/15/2022 5:15:00 PM 11.69 53.042 0.041 6.85 1.91 10.66
4/15/2022 5:30:00 PM 11.64 52.952 0.041 6.86 1.92 10.65
4/15/2022 5:45:00 PM 11.58 52.844 0.041 6.85 2.06 10.64
4/15/2022 6:00:00 PM 11.54 52.772 0.041 6.85 2.01 10.65
4/15/2022 6:15:00 PM 11.47 52.646 0.041 6.85 2.1 10.63
4/15/2022 6:30:00 PM 11.43 52.574 0.042 6.84 1.96 10.62
4/15/2022 6:45:00 PM 11.38 52.484 0.042 6.84 1.95 10.59
4/15/2022 7:00:00 PM 11.32 52.376 0.042 6.82 2.03 10.57
4/15/2022 7:15:00 PM 11.25 52.25 0.042 6.81 2.06 10.55
4/15/2022 7:30:00 PM 11.18 52.124 0.042 6.8 2.12 10.53
4/15/2022 7:45:00 PM 11.11 51.998 0.042 6.79 2.03 10.51
4/15/2022 8:00:00 PM 11.03 51.854 0.042 6.78 2.08 10.5
4/15/2022 8:15:00 PM 10.95 51.71 0.042 6.76 2.1 10.5
4/15/2022 8:30:00 PM 10.86 51.548 0.042 6.76 2.12 10.52
4/15/2022 8:45:00 PM 10.76 51.368 0.042 6.76 2.02 10.53
4/15/2022 9:00:00 PM 10.67 51.206 0.042 6.76 2.08 10.55
4/15/2022 9:15:00 PM 10.58 51.044 0.042 6.75 2.15 10.57
4/15/2022 9:30:00 PM 10.48 50.864 0.042 6.75 2.14 10.59
4/15/2022 9:45:00 PM 10.39 50.702 0.042 6.76 2.15 10.61
4/15/2022 10:00:00 PM 10.3 50.54 0.042 6.75 2.16 10.63
4/15/2022 10:15:00 PM 10.21 50.378 0.042 6.75 2.06 10.66
4/15/2022 10:30:00 PM 10.13 50.234 0.042 6.74 2.1 10.7
4/15/2022 10:45:00 PM 10.05 50.09 0.042 6.74 2.11 10.72
4/15/2022 11:00:00 PM 9.97 49.946 0.042 6.74 2.07 10.74
4/15/2022 11:15:00 PM 9.89 49.802 0.042 6.74 2.04 10.74
4/15/2022 11:30:00 PM 9.81 49.658 0.042 6.73 2.05 10.77
4/15/2022 11:45:00 PM 9.74 49.532 0.042 6.74 2.13 10.78
4/16/2022 12:00:00 AM 9.66 49.388 0.042 6.72 2.15 10.8
4/16/2022 12:15:00 AM 9.59 49.262 0.042 6.73 2.08 10.83
4/16/2022 12:30:00 AM 9.52 49.136 0.042 6.73 2.12 10.85
4/16/2022 12:45:00 AM 9.45 49.01 0.042 6.73 2.21 10.87
4/16/2022 1:00:00 AM 9.38 48.884 0.042 6.73 2.09 10.89
4/16/2022 1:15:00 AM 9.31 48.758 0.042 6.73 2.1 10.9
4/16/2022 1:30:00 AM 9.25 48.65 0.042 6.73 2.07 10.92
4/16/2022 1:45:00 AM 9.19 48.542 0.042 6.73 2.15 10.93
4/16/2022 2:00:00 AM 9.14 48.452 0.042 6.73 2.09 10.95
4/16/2022 2:15:00 AM 9.09 48.362 0.042 6.73 2.16 10.96
4/16/2022 2:30:00 AM 9.04 48.272 0.042 6.73 2.08 10.97
4/16/2022 2:45:00 AM 8.99 48.182 0.042 6.72 2.14 10.99
4/16/2022 3:00:00 AM 8.95 48.11 0.042 6.73 2.04 11.01
4/16/2022 3:15:00 AM 8.92 48.056 0.042 6.72 2.06 11.02
4/16/2022 3:30:00 AM 8.89 48.002 0.042 6.72 1.97 11.02
4/16/2022 3:45:00 AM 8.85 47.93 0.042 6.72 1.98 11.04
4/16/2022 4:00:00 AM 8.82 47.876 0.042 6.72 2.01 11.04
4/16/2022 4:15:00 AM 8.79 47.822 0.042 6.72 2.03 11.05
4/16/2022 4:30:00 AM 8.75 47.75 0.042 6.72 2.15 11.07
4/16/2022 4:45:00 AM 8.71 47.678 0.042 6.71 2.06 11.07
4/16/2022 5:00:00 AM 8.67 47.606 0.042 6.72 2.03 11.08
4/16/2022 5:15:00 AM 8.63 47.534 0.042 6.7 2.07 11.09
4/16/2022 5:30:00 AM 8.59 47.462 0.042 6.71 1.97 11.1
4/16/2022 5:45:00 AM 8.56 47.408 0.042 6.7 2.03 11.11
4/16/2022 6:00:00 AM 8.53 47.354 0.042 6.7 2.03 11.12
4/16/2022 6:15:00 AM 8.49 47.282 0.042 6.7 2.03 11.13
4/16/2022 6:30:00 AM 8.47 47.246 0.042 6.71 2.09 11.14
4/16/2022 6:45:00 AM 8.45 47.21 0.042 6.7 1.98 11.16
4/16/2022 7:00:00 AM 8.43 47.174 0.042 6.71 2.01 11.17
4/16/2022 7:15:00 AM 8.42 47.156 0.042 6.71 2.01 11.2
4/16/2022 7:30:00 AM 8.41 47.138 0.042 6.72 2.09 11.22
4/16/2022 7:45:00 AM 8.4 47.12 0.042 6.72 2.04 11.24
4/16/2022 8:00:00 AM 8.39 47.102 0.042 6.74 2.07 11.26
4/16/2022 8:15:00 AM 8.4 47.12 0.042 6.73 1.97 11.28
4/16/2022 8:30:00 AM 8.4 47.12 0.042 6.75 2.03 11.32
4/16/2022 8:45:00 AM 8.41 47.138 0.042 6.76 1.94 11.34
4/16/2022 9:00:00 AM 8.45 47.21 0.042 6.78 1.92 11.4
4/16/2022 9:15:00 AM 8.49 47.282 0.042 6.79 2.03 11.42
4/16/2022 9:30:00 AM 8.53 47.354 0.042 6.8 1.97 11.45
4/16/2022 9:45:00 AM 8.61 47.498 0.042 6.81 1.97 11.47
4/16/2022 10:00:00 AM 8.67 47.606 0.042 6.82 1.91 11.48
4/16/2022 10:15:00 AM 8.74 47.732 0.042 6.82 1.94 11.46
4/16/2022 10:30:00 AM 8.88 47.984 0.042 6.83 1.92 11.47
4/16/2022 10:45:00 AM 8.99 48.182 0.042 6.84 1.92 11.44
4/16/2022 11:00:00 AM 9.15 48.47 0.042 6.85 1.86 11.42
4/16/2022 11:15:00 AM 9.38 48.884 0.042 6.85 1.92 11.4
4/16/2022 11:30:00 AM 9.63 49.334 0.042 6.86 1.98 11.35
4/16/2022 11:45:00 AM 9.77 49.586 0.042 6.86 1.93 11.28
4/16/2022 12:00:00 PM 9.77 49.586 0.042 6.86 1.87 11.23
4/16/2022 12:15:00 PM 9.87 49.766 0.042 6.85 2.06 11.21
4/16/2022 12:30:00 PM 9.99 49.982 0.041 6.86 1.9 11.17
4/16/2022 12:45:00 PM 10.05 50.09 0.041 6.85 1.91 11.12
4/16/2022 1:00:00 PM 10.04 50.072 0.041 6.85 1.92 11.08
4/16/2022 1:15:00 PM 10.02 50.036 0.041 6.85 1.93 11.08
4/16/2022 1:30:00 PM 10.05 50.09 0.041 6.85 1.87 11.1
4/16/2022 1:45:00 PM 10.12 50.216 0.041 6.86 1.93 11.09
4/16/2022 2:00:00 PM 10.14 50.252 0.041 6.86 1.87 11.09
4/16/2022 2:15:00 PM 10.11 50.198 0.041 6.86 1.93 11.05
4/16/2022 2:30:00 PM 10.05 50.09 0.041 6.84 1.89 11.01
4/16/2022 2:45:00 PM 9.98 49.964 0.041 6.83 1.96 10.99
4/16/2022 3:00:00 PM 9.94 49.892 0.041 6.83 1.96 11
4/16/2022 3:15:00 PM 9.87 49.766 0.041 6.82 1.97 10.96
4/16/2022 3:30:00 PM 9.8 49.64 0.041 6.81 2.05 10.95
4/16/2022 3:45:00 PM 9.72 49.496 0.041 6.81 1.96 10.97
4/16/2022 4:00:00 PM 9.64 49.352 0.041 6.81 2 10.99
4/16/2022 4:15:00 PM 9.59 49.262 0.042 6.81 1.98 11.01
4/16/2022 4:30:00 PM 9.55 49.19 0.042 6.82 2.01 11.05
4/16/2022 4:45:00 PM 9.51 49.118 0.042 6.81 2.09 11.05
4/16/2022 5:00:00 PM 9.47 49.046 0.042 6.82 2.24 11.04
4/16/2022 5:15:00 PM 9.43 48.974 0.042 6.81 2.46 11.06
4/16/2022 5:30:00 PM 9.39 48.902 0.042 6.81 2.6 11.04
4/16/2022 5:45:00 PM 9.34 48.812 0.043 6.8 2.84 11.03
4/16/2022 6:00:00 PM 9.29 48.722 0.043 6.81 2.97 11.06
4/16/2022 6:15:00 PM 9.25 48.65 0.043 6.81 3.05 11.05
4/16/2022 6:30:00 PM 9.2 48.56 0.043 6.81 2.94 11.05
4/16/2022 6:45:00 PM 9.14 48.452 0.043 6.81 2.91 11.05
4/16/2022 7:00:00 PM 9.09 48.362 0.044 6.81 2.91 11.06
4/16/2022 7:15:00 PM 9.04 48.272 0.044 6.81 2.97 11.05
4/16/2022 7:30:00 PM 8.99 48.182 0.044 6.82 2.86 11.06
4/16/2022 7:45:00 PM 8.93 48.074 0.044 6.81 3.04 11.06
4/16/2022 8:00:00 PM 8.87 47.966 0.045 6.82 3.29 11.07
4/16/2022 8:15:00 PM 8.82 47.876 0.045 6.81 3.54 11.08
4/16/2022 8:30:00 PM 8.76 47.768 0.045 6.81 4 11.09
4/16/2022 8:45:00 PM 8.71 47.678 0.045 6.82 3.92 11.1
4/16/2022 9:00:00 PM 8.66 47.588 0.045 6.81 3.82 11.12
4/16/2022 9:15:00 PM 8.6 47.48 0.045 6.81 3.75 11.13
4/16/2022 9:30:00 PM 8.53 47.354 0.045 6.81 3.62 11.14
4/16/2022 9:45:00 PM 8.46 47.228 0.045 6.8 3.44 11.16
4/16/2022 10:00:00 PM 8.4 47.12 0.045 6.81 3.17 11.19
4/16/2022 10:15:00 PM 8.34 47.012 0.045 6.79 3.13 11.21
4/16/2022 10:30:00 PM 8.29 46.922 0.045 6.8 3.05 11.23
4/16/2022 10:45:00 PM 8.24 46.832 0.045 6.8 3.05 11.25
4/16/2022 11:00:00 PM 8.18 46.724 0.045 6.79 2.96 11.26
4/16/2022 11:15:00 PM 8.11 46.598 0.045 6.79 3.03 11.28
4/16/2022 11:30:00 PM 8.05 46.49 0.044 6.78 2.94 11.3
4/16/2022 11:45:00 PM 7.99 46.382 0.044 6.79 2.71 11.32
4/17/2022 12:00:00 AM 7.94 46.292 0.044 6.78 2.8 11.33
4/17/2022 12:15:00 AM 7.9 46.22 0.044 6.78 2.77 11.34
4/17/2022 12:30:00 AM 7.84 46.112 0.044 6.78 2.71 11.36
4/17/2022 12:45:00 AM 7.79 46.022 0.044 6.78 2.76 11.37
4/17/2022 1:00:00 AM 7.76 45.968 0.044 6.77 2.66 11.39
4/17/2022 1:15:00 AM 7.71 45.878 0.044 6.78 2.52 11.42
4/17/2022 1:30:00 AM 7.65 45.77 0.043 6.78 2.64 11.43
4/17/2022 1:45:00 AM 7.6 45.68 0.043 6.77 2.55 11.45
4/17/2022 2:00:00 AM 7.55 45.59 0.043 6.77 2.45 11.48
4/17/2022 2:15:00 AM 7.5 45.5 0.043 6.77 2.5 11.48
4/17/2022 2:30:00 AM 7.44 45.392 0.043 6.77 2.42 11.51
4/17/2022 2:45:00 AM 7.36 45.248 0.043 6.76 2.45 11.52
4/17/2022 3:00:00 AM 7.29 45.122 0.043 6.76 2.44 11.54
4/17/2022 3:15:00 AM 7.23 45.014 0.043 6.77 2.28 11.55
4/17/2022 3:30:00 AM 7.17 44.906 0.043 6.76 2.36 11.57
4/17/2022 3:45:00 AM 7.08 44.744 0.043 6.75 2.36 11.6
4/17/2022 4:00:00 AM 7.01 44.618 0.043 6.77 2.44 11.63
4/17/2022 4:15:00 AM 6.95 44.51 0.043 6.75 2.4 11.65
4/17/2022 4:30:00 AM 6.89 44.402 0.043 6.75 2.34 11.67
4/17/2022 4:45:00 AM 6.84 44.312 0.043 6.75 2.31 11.69
4/17/2022 5:00:00 AM 6.8 44.24 0.043 6.75 2.28 11.7
4/17/2022 5:15:00 AM 6.74 44.132 0.042 6.75 2.3 11.72
4/17/2022 5:30:00 AM 6.7 44.06 0.042 6.74 2.28 11.74
4/17/2022 5:45:00 AM 6.66 43.988 0.042 6.74 2.23 11.74
4/17/2022 6:00:00 AM 6.62 43.916 0.042 6.75 2.28 11.76
4/17/2022 6:15:00 AM 6.59 43.862 0.042 6.75 2.18 11.77
4/17/2022 6:30:00 AM 6.55 43.79 0.042 6.74 2.3 11.79
4/17/2022 6:45:00 AM 6.51 43.718 0.042 6.75 2.21 11.82
4/17/2022 7:00:00 AM 6.47 43.646 0.042 6.75 2.29 11.86
4/17/2022 7:15:00 AM 6.44 43.592 0.042 6.76 2.17 11.9
4/17/2022 7:30:00 AM 6.42 43.556 0.042 6.76 2.14 11.95
4/17/2022 7:45:00 AM 6.39 43.502 0.042 6.77 2.16 11.98
4/17/2022 8:00:00 AM 6.38 43.484 0.042 6.77 2.16 12.02
4/17/2022 8:15:00 AM 6.38 43.484 0.042 6.78 2.13 12.06
4/17/2022 8:30:00 AM 6.36 43.448 0.042 6.8 2.14 12.1
4/17/2022 8:45:00 AM 6.35 43.43 0.042 6.81 2.16 12.13
4/17/2022 9:00:00 AM 6.36 43.448 0.042 6.81 2.1 12.16
4/17/2022 9:15:00 AM 6.34 43.412 0.042 6.81 2.08 12.18
4/17/2022 9:30:00 AM 6.38 43.484 0.042 6.82 1.98 12.2
4/17/2022 9:45:00 AM 6.41 43.538 0.041 6.83 2.11 12.2
4/17/2022 10:00:00 AM 6.44 43.592 0.041 6.83 2.06 12.2
4/17/2022 10:15:00 AM 6.46 43.628 0.041 6.84 2.02 12.21
4/17/2022 10:30:00 AM 6.5 43.7 0.041 6.83 2 12.2
4/17/2022 10:45:00 AM 6.55 43.79 0.041 6.84 2.03 12.19
4/17/2022 11:00:00 AM 6.64 43.952 0.041 6.84 1.98 12.19
4/17/2022 11:15:00 AM 6.83 44.294 0.041 6.85 2.02 12.19
4/17/2022 11:30:00 AM 6.98 44.564 0.041 6.85 1.94 12.16
4/17/2022 11:45:00 AM 7.13 44.834 0.041 6.84 1.95 12.12
4/17/2022 12:00:00 PM 7.23 45.014 0.041 6.85 1.96 12.07
4/17/2022 12:15:00 PM 7.46 45.428 0.041 6.85 1.95 12.04
4/17/2022 12:30:00 PM 7.68 45.824 0.041 6.85 1.92 11.98
4/17/2022 12:45:00 PM 7.89 46.202 0.041 6.85 1.89 11.92
4/17/2022 1:00:00 PM 7.87 46.166 0.041 6.86 1.9 11.88
4/17/2022 1:15:00 PM 7.93 46.274 0.041 6.86 1.95 11.86
4/17/2022 1:30:00 PM 8.04 46.472 0.041 6.86 1.89 11.82
4/17/2022 1:45:00 PM 8.1 46.58 0.041 6.87 1.89 11.79
4/17/2022 2:00:00 PM 8.22 46.796 0.041 6.86 1.97 11.78
4/17/2022 2:15:00 PM 8.35 47.03 0.041 6.86 1.89 11.76
4/17/2022 2:30:00 PM 8.62 47.516 0.041 6.87 1.93 11.73
4/17/2022 2:45:00 PM 8.84 47.912 0.041 6.87 1.9 11.69
4/17/2022 3:00:00 PM 8.9 48.02 0.041 6.87 1.93 11.64
4/17/2022 3:15:00 PM 8.97 48.146 0.041 6.86 1.93 11.6
4/17/2022 3:30:00 PM 8.97 48.146 0.041 6.87 1.9 11.59
4/17/2022 3:45:00 PM 8.91 48.038 0.041 6.86 1.85 11.54
4/17/2022 4:00:00 PM 8.97 48.146 0.041 6.87 1.92 11.54
4/17/2022 4:15:00 PM 9.02 48.236 0.041 6.87 1.93 11.53
4/17/2022 4:30:00 PM 9.05 48.29 0.041 6.88 1.86 11.49
4/17/2022 4:45:00 PM 9.12 48.416 0.041 6.87 1.92 11.48
4/17/2022 5:00:00 PM 9.08 48.344 0.041 6.88 1.88 11.45
4/17/2022 5:15:00 PM 9.02 48.236 0.041 6.88 1.97 11.47
4/17/2022 5:30:00 PM 8.98 48.164 0.042 6.86 1.9 11.46
4/17/2022 5:45:00 PM 8.87 47.966 0.042 6.86 1.95 11.44
4/17/2022 6:00:00 PM 8.79 47.822 0.042 6.85 1.89 11.44
4/17/2022 6:15:00 PM 8.66 47.588 0.042 6.84 2.02 11.44
4/17/2022 6:30:00 PM 8.58 47.444 0.042 6.84 2.05 11.46
4/17/2022 6:45:00 PM 8.47 47.246 0.042 6.83 1.95 11.48
4/17/2022 7:00:00 PM 8.35 47.03 0.042 6.82 1.97 11.49
4/17/2022 7:15:00 PM 8.23 46.814 0.042 6.82 1.92 11.5
4/17/2022 7:30:00 PM 8.11 46.598 0.042 6.81 1.97 11.5
4/17/2022 7:45:00 PM 8.01 46.418 0.042 6.79 1.98 11.49
4/17/2022 8:00:00 PM 7.93 46.274 0.042 6.79 2.01 11.48
4/17/2022 8:15:00 PM 7.85 46.13 0.042 6.77 2.05 11.47
4/17/2022 8:30:00 PM 7.76 45.968 0.042 6.77 2.13 11.49
4/17/2022 8:45:00 PM 7.66 45.788 0.042 6.76 2.09 11.52
4/17/2022 9:00:00 PM 7.57 45.626 0.042 6.76 1.96 11.54
4/17/2022 9:15:00 PM 7.48 45.464 0.042 6.76 1.94 11.56
4/17/2022 9:30:00 PM 7.38 45.284 0.042 6.75 1.99 11.58
4/17/2022 9:45:00 PM 7.28 45.104 0.042 6.75 1.95 11.61
4/17/2022 10:00:00 PM 7.18 44.924 0.043 6.74 2.01 11.64
4/17/2022 10:15:00 PM 7.07 44.726 0.042 6.74 1.98 11.68
4/17/2022 10:30:00 PM 6.97 44.546 0.043 6.74 1.94 11.72
4/17/2022 10:45:00 PM 6.86 44.348 0.043 6.73 2 11.75
4/17/2022 11:00:00 PM 6.77 44.186 0.043 6.73 1.95 11.78
4/17/2022 11:15:00 PM 6.67 44.006 0.043 6.74 1.92 11.81
4/17/2022 11:30:00 PM 6.58 43.844 0.043 6.73 1.93 11.83
4/17/2022 11:45:00 PM 6.48 43.664 0.043 6.73 1.88 11.86
4/18/2022 12:00:00 AM 6.39 43.502 0.043 6.73 2 11.9
4/18/2022 12:15:00 AM 6.3 43.34 0.043 6.72 1.89 11.93
4/18/2022 12:30:00 AM 6.21 43.178 0.043 6.73 1.95 11.95
4/18/2022 12:45:00 AM 6.13 43.034 0.043 6.73 1.97 11.98
4/18/2022 1:00:00 AM 6.04 42.872 0.043 6.73 2 12.01
4/18/2022 1:15:00 AM 5.95 42.71 0.043 6.71 1.88 12.04
4/18/2022 1:30:00 AM 5.87 42.566 0.043 6.72 1.95 12.07
4/18/2022 1:45:00 AM 5.78 42.404 0.043 6.72 1.81 12.11
4/18/2022 2:00:00 AM 5.7 42.26 0.043 6.72 1.89 12.13
4/18/2022 2:15:00 AM 5.62 42.116 0.043 6.72 1.88 12.16
4/18/2022 2:30:00 AM 5.55 41.99 0.043 6.72 1.84 12.18
4/18/2022 2:45:00 AM 5.47 41.846 0.043 6.72 1.86 12.2
4/18/2022 3:00:00 AM 5.4 41.72 0.043 6.72 1.9 12.23
4/18/2022 3:15:00 AM 5.33 41.594 0.043 6.72 1.87 12.25
4/18/2022 3:30:00 AM 5.26 41.468 0.043 6.71 1.88 12.27
4/18/2022 3:45:00 AM 5.19 41.342 0.043 6.71 1.89 12.3
4/18/2022 4:00:00 AM 5.12 41.216 0.043 6.71 1.84 12.33
4/18/2022 4:15:00 AM 5.06 41.108 0.043 6.72 1.88 12.35
4/18/2022 4:30:00 AM 5 41 0.043 6.71 1.81 12.38
4/18/2022 4:45:00 AM 4.93 40.874 0.043 6.71 1.89 12.39
4/18/2022 5:00:00 AM 4.87 40.766 0.043 6.72 1.78 12.41
4/18/2022 5:15:00 AM 4.81 40.658 0.043 6.7 1.78 12.43
4/18/2022 5:30:00 AM 4.75 40.55 0.043 6.71 1.8 12.45
4/18/2022 5:45:00 AM 4.7 40.46 0.043 6.71 1.84 12.46
4/18/2022 6:00:00 AM 4.64 40.352 0.043 6.72 1.87 12.47
4/18/2022 6:15:00 AM 4.58 40.244 0.043 6.71 1.89 12.49
4/18/2022 6:30:00 AM 4.53 40.154 0.043 6.71 1.84 12.53
4/18/2022 6:45:00 AM 4.48 40.064 0.043 6.71 1.82 12.57
4/18/2022 7:00:00 AM 4.44 39.992 0.043 6.72 1.85 12.62
4/18/2022 7:15:00 AM 4.41 39.938 0.043 6.73 1.77 12.67
4/18/2022 7:30:00 AM 4.38 39.884 0.043 6.73 1.82 12.71
4/18/2022 7:45:00 AM 4.37 39.866 0.043 6.74 1.88 12.76
4/18/2022 8:00:00 AM 4.38 39.884 0.042 6.76 1.85 12.8
4/18/2022 8:15:00 AM 4.41 39.938 0.042 6.76 1.76 12.83
4/18/2022 8:30:00 AM 4.45 40.01 0.042 6.77 1.84 12.85
4/18/2022 8:45:00 AM 4.51 40.118 0.042 6.78 1.88 12.86
4/18/2022 9:00:00 AM 4.61 40.298 0.042 6.79 1.86 12.85
4/18/2022 9:15:00 AM 4.68 40.424 0.042 6.79 1.85 12.84
4/18/2022 9:30:00 AM 4.79 40.622 0.042 6.8 1.79 12.82
4/18/2022 9:45:00 AM 4.92 40.856 0.042 6.8 1.75 12.8
4/18/2022 10:00:00 AM 5.03 41.054 0.042 6.81 1.79 12.78
4/18/2022 10:15:00 AM 5.18 41.324 0.042 6.82 1.76 12.74
4/18/2022 10:30:00 AM 5.31 41.558 0.042 6.82 1.76 12.69
4/18/2022 10:45:00 AM 5.47 41.846 0.042 6.83 1.73 12.65
4/18/2022 11:00:00 AM 5.63 42.134 0.042 6.83 1.72 12.61
4/18/2022 11:15:00 AM 5.79 42.422 0.042 6.83 1.77 12.56
4/18/2022 11:30:00 AM 5.89 42.602 0.042 6.84 1.76 12.51
4/18/2022 11:45:00 AM 5.96 42.728 0.042 6.84 1.7 12.47
4/18/2022 12:00:00 PM 6.02 42.836 0.042 6.84 1.75 12.45
4/18/2022 12:15:00 PM 6.12 43.016 0.042 6.85 1.7 12.43
4/18/2022 12:30:00 PM 6.18 43.124 0.042 6.85 1.68 12.4
4/18/2022 12:45:00 PM 6.22 43.196 0.042 6.84 1.71 12.38
4/18/2022 1:00:00 PM 6.25 43.25 0.042 6.85 1.68 12.37
4/18/2022 1:15:00 PM 6.28 43.304 0.042 6.85 1.73 12.35
4/18/2022 1:30:00 PM 6.33 43.394 0.042 6.85 1.68 12.33
4/18/2022 1:45:00 PM 6.35 43.43 0.042 6.85 1.66 12.32
4/18/2022 2:00:00 PM 6.37 43.466 0.042 6.85 1.7 12.3
4/18/2022 2:15:00 PM 6.41 43.538 0.042 6.85 1.76 12.28
4/18/2022 2:30:00 PM 6.43 43.574 0.042 6.85 1.77 12.25
4/18/2022 2:45:00 PM 6.45 43.61 0.042 6.85 1.74 12.24
4/18/2022 3:00:00 PM 6.46 43.628 0.042 6.85 1.72 12.22
4/18/2022 3:15:00 PM 6.46 43.628 0.042 6.85 1.71 12.21
4/18/2022 3:30:00 PM 6.47 43.646 0.042 6.85 1.78 12.18
4/18/2022 3:45:00 PM 6.47 43.646 0.042 6.84 1.75 12.16
4/18/2022 4:00:00 PM 6.44 43.592 0.042 6.84 1.77 12.14
4/18/2022 4:15:00 PM 6.41 43.538 0.042 6.83 1.76 12.13
4/18/2022 4:30:00 PM 6.39 43.502 0.042 6.83 1.85 12.11
4/18/2022 4:45:00 PM 6.36 43.448 0.042 6.82 1.86 12.11
4/18/2022 5:00:00 PM 6.32 43.376 0.042 6.82 1.79 12.09
4/18/2022 5:15:00 PM 6.24 43.232 0.042 6.8 1.85 12.08
4/18/2022 5:30:00 PM 6.16 43.088 0.042 6.8 1.88 12.07
4/18/2022 5:45:00 PM 6.08 42.944 0.042 6.8 1.86 12.08
4/18/2022 6:00:00 PM 5.97 42.746 0.042 6.79 1.78 12.07
4/18/2022 6:15:00 PM 5.86 42.548 0.042 6.79 1.79 12.08
4/18/2022 6:30:00 PM 5.78 42.404 0.042 6.79 1.88 12.1
4/18/2022 6:45:00 PM 5.67 42.206 0.042 6.78 1.84 12.12
4/18/2022 7:00:00 PM 5.59 42.062 0.043 6.78 1.87 12.13
4/18/2022 7:15:00 PM 5.5 41.9 0.043 6.78 1.96 12.15
4/18/2022 7:30:00 PM 5.44 41.792 0.043 6.78 2.06 12.16
4/18/2022 7:45:00 PM 5.4 41.72 0.043 6.77 2.24 12.16
4/18/2022 8:00:00 PM 5.34 41.612 0.044 6.78 2.53 12.17
4/18/2022 8:15:00 PM 5.28 41.504 0.044 6.77 2.72 12.19
4/18/2022 8:30:00 PM 5.23 41.414 0.045 6.77 2.83 12.21
4/18/2022 8:45:00 PM 5.19 41.342 0.045 6.76 2.85 12.23
4/18/2022 9:00:00 PM 5.08 41.144 0.044 6.76 2.57 12.24
4/18/2022 9:15:00 PM 4.99 40.982 0.044 6.76 2.52 12.26
4/18/2022 9:30:00 PM 4.88 40.784 0.044 6.76 2.58 12.28
4/18/2022 9:45:00 PM 4.76 40.568 0.044 6.76 2.68 12.3
4/18/2022 10:00:00 PM 4.68 40.424 0.045 6.76 2.5 12.32
4/18/2022 10:15:00 PM 4.59 40.262 0.046 6.77 2.51 12.34
4/18/2022 10:30:00 PM 4.49 40.082 0.047 6.74 2.42 12.37
4/18/2022 10:45:00 PM 4.3 39.74 0.046 6.75 2.49 12.41
4/18/2022 11:00:00 PM 4.06 39.308 0.046 6.75 2.68 12.45
4/18/2022 11:15:00 PM 3.89 39.002 0.046 6.75 2.51 12.5
4/18/2022 11:30:00 PM 3.64 38.552 0.046 6.76 2.54 12.53
4/18/2022 11:45:00 PM 3.37 38.066 0.046 6.76 2.64 12.59
4/19/2022 12:00:00 AM 3.24 37.832 0.046 6.76 2.72 12.66
4/19/2022 12:15:00 AM 3 37.4 0.048 6.75 2.77 12.73
4/19/2022 12:30:00 AM 2.7 36.86 0.048 6.75 2.83 12.79
4/19/2022 12:45:00 AM 2.47 36.446 0.047 6.76 2.85 12.87
4/19/2022 1:00:00 AM 2.25 36.05 0.047 6.75 2.82 12.97
4/19/2022 1:15:00 AM 2.18 35.924 0.047 6.76 2.78 13.04
4/19/2022 1:30:00 AM 2.14 35.852 0.047 6.76 2.76 13.1
4/19/2022 1:45:00 AM 2.08 35.744 0.046 6.74 2.68 13.16
4/19/2022 2:00:00 AM 2.09 35.762 0.046 6.75 2.69 13.2
4/19/2022 2:15:00 AM 2.07 35.726 0.046 6.75 2.75 13.21
4/19/2022 2:30:00 AM 2 35.6 0.046 6.75 2.62 13.23
4/19/2022 2:45:00 AM 1.92 35.456 0.046 6.75 2.61 13.26
4/19/2022 3:00:00 AM 1.88 35.384 0.045 6.75 2.62 13.29
4/19/2022 3:15:00 AM 1.86 35.348 0.046 6.76 2.53 13.31
4/19/2022 3:30:00 AM 1.87 35.366 0.046 6.76 2.48 13.31
4/19/2022 3:45:00 AM 1.88 35.384 0.046 6.76 2.53 13.31
4/19/2022 4:00:00 AM 1.93 35.474 0.046 6.77 2.54 13.3
4/19/2022 4:15:00 AM 1.98 35.564 0.046 6.77 2.68 13.27
4/19/2022 4:30:00 AM 2.03 35.654 0.047 6.77 2.8 13.26
4/19/2022 4:45:00 AM 2.1 35.78 0.047 6.78 2.68 13.23
4/19/2022 5:00:00 AM 2.17 35.906 0.047 6.77 2.67 13.22
4/19/2022 5:15:00 AM 2.24 36.032 0.047 6.78 2.6 13.2
4/19/2022 5:30:00 AM 2.29 36.122 0.047 6.78 2.65 13.19
4/19/2022 5:45:00 AM 2.33 36.194 0.048 6.78 2.77 13.18
4/19/2022 6:00:00 AM 2.36 36.248 0.048 6.78 2.77 13.17
4/19/2022 6:15:00 AM 2.4 36.32 0.048 6.79 2.74 13.14
4/19/2022 6:30:00 AM 2.43 36.374 0.048 6.79 2.69 13.14
4/19/2022 6:45:00 AM 2.43 36.374 0.049 6.8 2.78 13.14
4/19/2022 7:00:00 AM 2.42 36.356 0.049 6.8 2.8 13.15
4/19/2022 7:15:00 AM 2.44 36.392 0.049 6.8 2.75 13.16
4/19/2022 7:30:00 AM 2.48 36.464 0.05 6.81 2.88 13.18
4/19/2022 7:45:00 AM 2.52 36.536 0.05 6.82 3.29 13.23
4/19/2022 8:00:00 AM 2.55 36.59 0.05 6.83 3.1 13.24
4/19/2022 8:15:00 AM 2.58 36.644 0.05 6.84 3.23 13.25
4/19/2022 8:30:00 AM 2.6 36.68 0.05 6.84 3.02 13.26
4/19/2022 8:45:00 AM 2.63 36.734 0.05 6.85 3.1 13.25
4/19/2022 9:00:00 AM 2.68 36.824 0.05 6.85 3.12 13.25
4/19/2022 9:15:00 AM 2.74 36.932 0.05 6.86 3.03 13.24
4/19/2022 9:30:00 AM 2.82 37.076 0.05 6.86 3.07 13.24
4/19/2022 9:45:00 AM 2.88 37.184 0.051 6.87 3.09 13.22
4/19/2022 10:00:00 AM 2.93 37.274 0.052 6.88 3.11 13.2
4/19/2022 10:15:00 AM 2.99 37.382 0.052 6.88 3.13 13.18
4/19/2022 10:30:00 AM 3.06 37.508 0.052 6.88 3.35 13.16
4/19/2022 10:45:00 AM 3.12 37.616 0.052 6.89 3.26 13.14
4/19/2022 11:00:00 AM 3.18 37.724 0.053 6.89 3.3 13.12
4/19/2022 11:15:00 AM 3.3 37.94 0.053 6.9 3.42 13.1
4/19/2022 11:30:00 AM 3.43 38.174 0.053 6.9 3.5 13.07
4/19/2022 11:45:00 AM 3.53 38.354 0.053 6.91 3.61 13.05
4/19/2022 12:00:00 PM 3.64 38.552 0.053 6.91 3.87 13.03
4/19/2022 12:15:00 PM 3.86 38.948 0.053 6.91 3.88 12.99
4/19/2022 12:30:00 PM 3.93 39.074 0.053 6.92 4.33 12.92
4/19/2022 12:45:00 PM 4.03 39.254 0.054 6.91 4.21 12.89
4/19/2022 1:00:00 PM 4.25 39.65 0.054 6.93 4.82 12.84
4/19/2022 1:15:00 PM 4.36 39.848 0.054 6.93 4.77 12.78
4/19/2022 1:30:00 PM 4.38 39.884 0.055 6.93 5.09 12.77
4/19/2022 1:45:00 PM 4.51 40.118 0.055 6.94 5.4 12.74
4/19/2022 2:00:00 PM 4.68 40.424 0.056 6.94 5.7 12.69
4/19/2022 2:15:00 PM 4.83 40.694 0.056 6.94 6.16 12.67
4/19/2022 2:30:00 PM 4.94 40.892 0.056 6.95 6.58 12.64
4/19/2022 2:45:00 PM 5.08 41.144 0.057 6.96 6.64 12.6
4/19/2022 3:00:00 PM 5.3 41.54 0.057 6.96 6.93 12.53
4/19/2022 3:15:00 PM 5.35 41.63 0.057 6.96 8.53 12.48
4/19/2022 3:30:00 PM 5.49 41.882 0.057 6.97 7.71 12.45
4/19/2022 3:45:00 PM 5.63 42.134 0.057 6.97 8.02 12.41
4/19/2022 4:00:00 PM 5.7 42.26 0.057 6.97 8.33 12.36
4/19/2022 4:15:00 PM 5.76 42.368 0.057 6.98 8.92 12.33
4/19/2022 4:30:00 PM 5.74 42.332 0.057 6.97 9.09 12.31
4/19/2022 4:45:00 PM 5.74 42.332 0.057 6.97 9.52 12.3
4/19/2022 5:00:00 PM 5.75 42.35 0.057 6.97 10.1 12.29
4/19/2022 5:15:00 PM 5.74 42.332 0.057 6.97 9.8 12.28
4/19/2022 5:30:00 PM 5.73 42.314 0.057 6.98 10.08 12.28
4/19/2022 5:45:00 PM 5.7 42.26 0.057 6.98 10.07 12.26
4/19/2022 6:00:00 PM 5.66 42.188 0.057 6.96 9.71 12.24
4/19/2022 6:15:00 PM 5.63 42.134 0.057 6.96 9.28 12.24
4/19/2022 6:30:00 PM 5.57 42.026 0.057 6.95 8.9 12.25
4/19/2022 6:45:00 PM 5.51 41.918 0.057 6.95 8.75 12.25
4/19/2022 7:00:00 PM 5.45 41.81 0.057 6.94 8.43 12.25
4/19/2022 7:15:00 PM 5.4 41.72 0.057 6.94 8.5 12.25
4/19/2022 7:30:00 PM 5.35 41.63 0.057 6.93 7.83 12.24
4/19/2022 7:45:00 PM 5.3 41.54 0.057 6.92 7.77 12.24
4/19/2022 8:00:00 PM 5.24 41.432 0.056 6.91 7.19 12.24
4/19/2022 8:15:00 PM 5.2 41.36 0.056 6.9 6.86 12.25
4/19/2022 8:30:00 PM 5.15 41.27 0.056 6.91 6.39 12.25
4/19/2022 8:45:00 PM 5.11 41.198 0.056 6.88 6.04 12.27
4/19/2022 9:00:00 PM 5.06 41.108 0.056 6.88 5.97 12.28
4/19/2022 9:15:00 PM 5.03 41.054 0.056 6.88 5.61 12.28
4/19/2022 9:30:00 PM 5.01 41.018 0.055 6.88 5.4 12.3
4/19/2022 9:45:00 PM 4.98 40.964 0.055 6.88 5.32 12.31
4/19/2022 10:00:00 PM 4.95 40.91 0.055 6.88 4.96 12.32
4/19/2022 10:15:00 PM 4.93 40.874 0.055 6.87 4.89 12.33
4/19/2022 10:30:00 PM 4.91 40.838 0.055 6.87 4.71 12.34
4/19/2022 10:45:00 PM 4.89 40.802 0.055 6.86 4.65 12.35
4/19/2022 11:00:00 PM 4.86 40.748 0.055 6.86 4.54 12.36
4/19/2022 11:15:00 PM 4.84 40.712 0.055 6.86 4.41 12.37
4/19/2022 11:30:00 PM 4.82 40.676 0.055 6.86 4.26 12.38
4/19/2022 11:45:00 PM 4.8 40.64 0.055 6.86 4.41 12.39
4/20/2022 12:00:00 AM 4.79 40.622 0.055 6.85 4.26 12.39
4/20/2022 12:15:00 AM 4.77 40.586 0.055 6.85 4.19 12.4
4/20/2022 12:30:00 AM 4.75 40.55 0.055 6.85 4.01 12.41
4/20/2022 12:45:00 AM 4.73 40.514 0.055 6.85 3.88 12.42
4/20/2022 1:00:00 AM 4.71 40.478 0.055 6.85 3.94 12.43
4/20/2022 1:15:00 AM 4.7 40.46 0.055 6.84 3.71 12.43
4/20/2022 1:30:00 AM 4.69 40.442 0.055 6.84 3.58 12.44
4/20/2022 1:45:00 AM 4.67 40.406 0.055 6.84 3.57 12.45
4/20/2022 2:00:00 AM 4.66 40.388 0.055 6.84 3.57 12.45
4/20/2022 2:15:00 AM 4.64 40.352 0.055 6.83 3.31 12.46
4/20/2022 2:30:00 AM 4.63 40.334 0.054 6.83 3.47 12.47
4/20/2022 2:45:00 AM 4.61 40.298 0.054 6.83 3.29 12.48
4/20/2022 3:00:00 AM 4.6 40.28 0.054 6.83 3.29 12.49
4/20/2022 3:15:00 AM 4.58 40.244 0.054 6.83 3.18 12.49
4/20/2022 3:30:00 AM 4.56 40.208 0.054 6.82 3.12 12.51
4/20/2022 3:45:00 AM 4.52 40.136 0.054 6.82 3.18 12.52
4/20/2022 4:00:00 AM 4.49 40.082 0.053 6.82 3.19 12.53
4/20/2022 4:15:00 AM 4.47 40.046 0.053 6.81 3.04 12.54
4/20/2022 4:30:00 AM 4.44 39.992 0.053 6.81 2.95 12.56
4/20/2022 4:45:00 AM 4.4 39.92 0.053 6.81 2.86 12.57
4/20/2022 5:00:00 AM 4.36 39.848 0.053 6.81 2.94 12.58
4/20/2022 5:15:00 AM 4.32 39.776 0.053 6.81 3.11 12.59
4/20/2022 5:30:00 AM 4.29 39.722 0.052 6.81 3.22 12.61
4/20/2022 5:45:00 AM 4.25 39.65 0.052 6.81 3.33 12.63
4/20/2022 6:00:00 AM 4.23 39.614 0.052 6.81 3.07 12.64
4/20/2022 6:15:00 AM 4.22 39.596 0.052 6.8 3.07 12.65
4/20/2022 6:30:00 AM 4.21 39.578 0.052 6.79 3.1 12.66
4/20/2022 6:45:00 AM 4.2 39.56 0.052 6.8 2.94 12.68
4/20/2022 7:00:00 AM 4.2 39.56 0.051 6.8 2.92 12.71
4/20/2022 7:15:00 AM 4.21 39.578 0.051 6.81 2.99 12.75
4/20/2022 7:30:00 AM 4.2 39.56 0.051 6.82 2.83 12.78
4/20/2022 7:45:00 AM 4.21 39.578 0.051 6.82 2.77 12.81
4/20/2022 8:00:00 AM 4.21 39.578 0.051 6.83 2.63 12.83
4/20/2022 8:15:00 AM 4.25 39.65 0.051 6.84 2.72 12.86
4/20/2022 8:30:00 AM 4.28 39.704 0.051 6.84 2.72 12.88
4/20/2022 8:45:00 AM 4.31 39.758 0.05 6.85 2.61 12.9
4/20/2022 9:00:00 AM 4.38 39.884 0.05 6.85 2.54 12.9
4/20/2022 9:15:00 AM 4.46 40.028 0.05 6.85 2.56 12.91
4/20/2022 9:30:00 AM 4.55 40.19 0.05 6.86 2.55 12.89
4/20/2022 9:45:00 AM 4.73 40.514 0.05 6.86 2.6 12.87
4/20/2022 10:00:00 AM 4.88 40.784 0.05 6.86 2.6 12.84
4/20/2022 10:15:00 AM 4.95 40.91 0.05 6.86 2.45 12.8
4/20/2022 10:30:00 AM 5.13 41.234 0.05 6.86 2.44 12.78
4/20/2022 10:45:00 AM 5.34 41.612 0.05 6.87 2.45 12.72
4/20/2022 11:00:00 AM 5.55 41.99 0.049 6.87 2.33 12.68
4/20/2022 11:15:00 AM 5.77 42.386 0.049 6.87 2.5 12.62
4/20/2022 11:30:00 AM 6.05 42.89 0.05 6.88 2.41 12.54
4/20/2022 11:45:00 AM 6.27 43.286 0.05 6.88 2.42 12.49
4/20/2022 12:00:00 PM 6.48 43.664 0.05 6.89 2.48 12.44
4/20/2022 12:15:00 PM 6.7 44.06 0.05 6.9 2.44 12.38
4/20/2022 12:30:00 PM 6.94 44.492 0.05 6.91 2.65 12.31
4/20/2022 12:45:00 PM 7.19 44.942 0.051 6.92 2.8 12.22
4/20/2022 1:00:00 PM 7.44 45.392 0.051 6.93 3.32 12.16
4/20/2022 1:15:00 PM 7.68 45.824 0.052 6.95 3.68 12.09
4/20/2022 1:30:00 PM 7.91 46.238 0.053 6.96 4.51 12
4/20/2022 1:45:00 PM 8.11 46.598 0.053 6.98 5.95 11.95
4/20/2022 2:00:00 PM 8.3 46.94 0.054 6.99 8 11.89
4/20/2022 2:15:00 PM 8.47 47.246 0.054 7.01 9.7 11.82
4/20/2022 2:30:00 PM 8.62 47.516 0.054 7.02 11.63 11.76
4/20/2022 2:45:00 PM 8.75 47.75 0.053 7.01 12.63 11.72
4/20/2022 3:00:00 PM 8.86 47.948 0.052 7.02 12.62 11.68
4/20/2022 3:15:00 PM 8.96 48.128 0.052 7.02 12.05 11.64
4/20/2022 3:30:00 PM 9.05 48.29 0.051 7.01 11.85 11.6
4/20/2022 3:45:00 PM 9.12 48.416 0.051 7.01 11.03 11.56
4/20/2022 4:00:00 PM 9.18 48.524 0.05 7.01 9.82 11.54
4/20/2022 4:15:00 PM 9.22 48.596 0.05 7 8.68 11.51
4/20/2022 4:30:00 PM 9.26 48.668 0.049 6.99 7.64 11.49
4/20/2022 4:45:00 PM 9.27 48.686 0.049 6.98 6.97 11.47
4/20/2022 5:00:00 PM 9.26 48.668 0.048 6.98 6.44 11.46
4/20/2022 5:15:00 PM 9.23 48.614 0.048 6.96 6.15 11.44
4/20/2022 5:30:00 PM 9.2 48.56 0.047 6.96 5.81 11.43
4/20/2022 5:45:00 PM 9.15 48.47 0.047 6.94 5.52 11.42
4/20/2022 6:00:00 PM 9.1 48.38 0.046 6.94 5.48 11.41
4/20/2022 6:15:00 PM 9.04 48.272 0.046 6.92 5.38 11.41
4/20/2022 6:30:00 PM 8.96 48.128 0.045 6.9 4.85 11.41
4/20/2022 6:45:00 PM 8.89 48.002 0.045 6.89 4.86 11.42
4/20/2022 7:00:00 PM 8.8 47.84 0.045 6.88 4.64 11.42
4/20/2022 7:15:00 PM 8.71 47.678 0.044 6.87 4.74 11.43
4/20/2022 7:30:00 PM 8.6 47.48 0.044 6.85 5.05 11.44
4/20/2022 7:45:00 PM 8.49 47.282 0.044 6.84 7.23 11.44
4/20/2022 8:00:00 PM 8.37 47.066 0.044 6.83 6.58 11.47
4/20/2022 8:15:00 PM 8.25 46.85 0.044 6.82 5.55 11.49
4/20/2022 8:30:00 PM 8.14 46.652 0.044 6.81 5.52 11.52
4/20/2022 8:45:00 PM 8.02 46.436 0.043 6.79 6.18 11.54
4/20/2022 9:00:00 PM 7.91 46.238 0.043 6.79 6.09 11.57
4/20/2022 9:15:00 PM 7.81 46.058 0.043 6.79 5.6 11.6
4/20/2022 9:30:00 PM 7.71 45.878 0.043 6.78 5.01 11.64
4/20/2022 9:45:00 PM 7.6 45.68 0.043 6.78 5.13 11.67
4/20/2022 10:00:00 PM 7.49 45.482 0.042 6.76 4.81 11.71
4/20/2022 10:15:00 PM 7.39 45.302 0.042 6.76 4.68 11.74
4/20/2022 10:30:00 PM 7.28 45.104 0.042 6.76 4.4 11.76
4/20/2022 10:45:00 PM 7.18 44.924 0.042 6.75 4.33 11.79
4/20/2022 11:00:00 PM 7.07 44.726 0.042 6.76 4.24 11.83
4/20/2022 11:15:00 PM 6.97 44.546 0.042 6.75 4.29 11.86
4/20/2022 11:30:00 PM 6.87 44.366 0.042 6.75 4.14 11.89
4/20/2022 11:45:00 PM 6.78 44.204 0.042 6.75 3.87 11.92
4/21/2022 12:00:00 AM 6.69 44.042 0.042 6.74 4.05 11.94
4/21/2022 12:15:00 AM 6.6 43.88 0.042 6.73 3.93 11.97
4/21/2022 12:30:00 AM 6.51 43.718 0.042 6.74 3.76 11.99
4/21/2022 12:45:00 AM 6.43 43.574 0.042 6.74 3.76 12.02
4/21/2022 1:00:00 AM 6.35 43.43 0.042 6.73 3.66 12.06
4/21/2022 1:15:00 AM 6.29 43.322 0.042 6.73 3.57 12.08
4/21/2022 1:30:00 AM 6.23 43.214 0.042 6.73 3.64 12.09
4/21/2022 1:45:00 AM 6.18 43.124 0.042 6.73 3.59 12.11
4/21/2022 2:00:00 AM 6.13 43.034 0.042 6.73 3.45 12.13
4/21/2022 2:15:00 AM 6.09 42.962 0.042 6.72 3.42 12.14
4/21/2022 2:30:00 AM 6.04 42.872 0.042 6.73 3.41 12.14
4/21/2022 2:45:00 AM 6 42.8 0.042 6.72 3.29 12.16
4/21/2022 3:00:00 AM 5.95 42.71 0.042 6.73 3.31 12.17
4/21/2022 3:15:00 AM 5.9 42.62 0.042 6.72 3.34 12.18
4/21/2022 3:30:00 AM 5.86 42.548 0.042 6.72 3.18 12.2
4/21/2022 3:45:00 AM 5.82 42.476 0.042 6.73 3.17 12.21
4/21/2022 4:00:00 AM 5.77 42.386 0.042 6.72 3.16 12.23
4/21/2022 4:15:00 AM 5.72 42.296 0.042 6.72 3.29 12.25
4/21/2022 4:30:00 AM 5.68 42.224 0.042 6.71 3.12 12.26
4/21/2022 4:45:00 AM 5.64 42.152 0.042 6.71 3.09 12.27
4/21/2022 5:00:00 AM 5.6 42.08 0.042 6.71 2.89 12.28
4/21/2022 5:15:00 AM 5.57 42.026 0.042 6.71 2.84 12.29
4/21/2022 5:30:00 AM 5.55 41.99 0.042 6.72 2.77 12.31
4/21/2022 5:45:00 AM 5.52 41.936 0.042 6.71 2.73 12.31
4/21/2022 6:00:00 AM 5.49 41.882 0.042 6.72 2.76 12.32
4/21/2022 6:15:00 AM 5.47 41.846 0.042 6.71 2.76 12.33
4/21/2022 6:30:00 AM 5.44 41.792 0.042 6.71 2.73 12.34
4/21/2022 6:45:00 AM 5.43 41.774 0.042 6.72 2.74 12.36
4/21/2022 7:00:00 AM 5.41 41.738 0.042 6.72 2.69 12.39
4/21/2022 7:15:00 AM 5.4 41.72 0.042 6.74 2.95 12.43
4/21/2022 7:30:00 AM 5.41 41.738 0.042 6.75 2.65 12.46
4/21/2022 7:45:00 AM 5.42 41.756 0.042 6.75 2.59 12.5
4/21/2022 8:00:00 AM 5.46 41.828 0.042 6.76 2.56 12.53
4/21/2022 8:15:00 AM 5.51 41.918 0.042 6.77 2.52 12.54
4/21/2022 8:30:00 AM 5.56 42.008 0.042 6.77 2.54 12.54
4/21/2022 8:45:00 AM 5.63 42.134 0.042 6.79 2.45 12.54
4/21/2022 9:00:00 AM 5.7 42.26 0.042 6.78 2.44 12.53
4/21/2022 9:15:00 AM 5.79 42.422 0.042 6.8 2.4 12.52
4/21/2022 9:30:00 AM 5.87 42.566 0.042 6.8 2.43 12.49
4/21/2022 9:45:00 AM 5.92 42.656 0.042 6.8 2.35 12.46
4/21/2022 10:00:00 AM 5.99 42.782 0.042 6.81 2.39 12.44
4/21/2022 10:15:00 AM 6.06 42.908 0.042 6.8 2.34 12.42
4/21/2022 10:30:00 AM 6.13 43.034 0.042 6.82 2.34 12.41
4/21/2022 10:45:00 AM 6.24 43.232 0.042 6.81 2.26 12.41
4/21/2022 11:00:00 AM 6.35 43.43 0.042 6.82 2.33 12.39
4/21/2022 11:15:00 AM 6.46 43.628 0.042 6.82 2.42 12.36
4/21/2022 11:30:00 AM 6.54 43.772 0.042 6.83 2.49 12.31
4/21/2022 11:45:00 AM 6.62 43.916 0.042 6.83 2.41 12.28
4/21/2022 12:00:00 PM 6.75 44.15 0.042 6.83 2.24 12.25
4/21/2022 12:15:00 PM 6.85 44.33 0.042 6.83 2.31 12.21
4/21/2022 12:30:00 PM 6.91 44.438 0.042 6.83 2.39 12.18
4/21/2022 12:45:00 PM 7.05 44.69 0.042 6.83 2.52 12.16
4/21/2022 1:00:00 PM 7.18 44.924 0.042 6.83 2.42 12.11
4/21/2022 1:15:00 PM 7.31 45.158 0.042 6.84 2.34 12.1
4/21/2022 1:30:00 PM 7.46 45.428 0.042 6.84 2.3 12.06
4/21/2022 1:45:00 PM 7.57 45.626 0.042 6.84 2.23 12.02
4/21/2022 2:00:00 PM 7.63 45.734 0.041 6.84 2.28 11.96
4/21/2022 2:15:00 PM 7.71 45.878 0.041 6.84 2.27 11.94
4/21/2022 2:30:00 PM 7.78 46.004 0.041 6.84 2.24 11.9
4/21/2022 2:45:00 PM 7.85 46.13 0.041 6.84 2.23 11.88
4/21/2022 3:00:00 PM 7.89 46.202 0.041 6.84 2.26 11.85
4/21/2022 3:15:00 PM 7.9 46.22 0.041 6.83 2.23 11.8
4/21/2022 3:30:00 PM 7.9 46.22 0.041 6.82 2.31 11.75
4/21/2022 3:45:00 PM 7.89 46.202 0.041 6.81 2.27 11.73
4/21/2022 4:00:00 PM 7.88 46.184 0.041 6.8 2.23 11.71
4/21/2022 4:15:00 PM 7.87 46.166 0.041 6.79 2.21 11.7
4/21/2022 4:30:00 PM 7.85 46.13 0.04 6.79 2.28 11.69
4/21/2022 4:45:00 PM 7.83 46.094 0.04 6.78 2.3 11.68
4/21/2022 5:00:00 PM 7.8 46.04 0.04 6.77 2.42 11.67
4/21/2022 5:15:00 PM 7.77 45.986 0.04 6.77 2.4 11.67
4/21/2022 5:30:00 PM 7.75 45.95 0.039 6.75 2.45 11.68
4/21/2022 5:45:00 PM 7.73 45.914 0.039 6.75 2.47 11.68
4/21/2022 6:00:00 PM 7.7 45.86 0.039 6.75 2.44 11.69
4/21/2022 6:15:00 PM 7.67 45.806 0.039 6.74 2.52 11.68
4/21/2022 6:30:00 PM 7.65 45.77 0.038 6.73 2.57 11.69
4/21/2022 6:45:00 PM 7.63 45.734 0.038 6.72 2.53 11.69
4/21/2022 7:00:00 PM 7.6 45.68 0.038 6.71 2.65 11.69
4/21/2022 7:15:00 PM 7.58 45.644 0.038 6.71 2.66 11.7
4/21/2022 7:30:00 PM 7.56 45.608 0.037 6.7 2.77 11.69
4/21/2022 7:45:00 PM 7.53 45.554 0.037 6.7 2.79 11.69
4/21/2022 8:00:00 PM 7.51 45.518 0.037 6.69 2.77 11.69
4/21/2022 8:15:00 PM 7.49 45.482 0.037 6.68 3.02 11.69
4/21/2022 8:30:00 PM 7.46 45.428 0.037 6.68 3.2 11.69
4/21/2022 8:45:00 PM 7.43 45.374 0.037 6.68 3.15 11.7
4/21/2022 9:00:00 PM 7.39 45.302 0.036 6.65 3.24 11.72
4/21/2022 9:15:00 PM 7.36 45.248 0.036 6.66 3.23 11.73
4/21/2022 9:30:00 PM 7.32 45.176 0.036 6.65 3.46 11.74
4/21/2022 9:45:00 PM 7.27 45.086 0.036 6.65 3.44 11.75
4/21/2022 10:00:00 PM 7.22 44.996 0.036 6.65 3.39 11.76
4/21/2022 10:15:00 PM 7.17 44.906 0.036 6.64 3.51 11.78
4/21/2022 10:30:00 PM 7.11 44.798 0.036 6.64 3.6 11.8
4/21/2022 10:45:00 PM 7.05 44.69 0.036 6.64 3.41 11.82
4/21/2022 11:00:00 PM 6.99 44.582 0.035 6.64 3.52 11.84
4/21/2022 11:15:00 PM 6.94 44.492 0.035 6.63 3.44 11.86
4/21/2022 11:30:00 PM 6.89 44.402 0.035 6.63 3.49 11.87
4/21/2022 11:45:00 PM 6.85 44.33 0.035 6.63 3.51 11.89
4/22/2022 12:00:00 AM 6.81 44.258 0.035 6.62 3.42 11.9
4/22/2022 12:15:00 AM 6.76 44.168 0.035 6.62 3.34 11.91
4/22/2022 12:30:00 AM 6.71 44.078 0.035 6.62 3.37 11.93
4/22/2022 12:45:00 AM 6.66 43.988 0.035 6.61 3.27 11.93
4/22/2022 1:00:00 AM 6.61 43.898 0.035 6.61 3.4 11.95
4/22/2022 1:15:00 AM 6.56 43.808 0.035 6.61 3.18 11.96
4/22/2022 1:30:00 AM 6.52 43.736 0.035 6.61 3.25 11.98
4/22/2022 1:45:00 AM 6.48 43.664 0.035 6.61 3.43 12
4/22/2022 2:00:00 AM 6.43 43.574 0.035 6.61 3.23 12.02
4/22/2022 2:15:00 AM 6.39 43.502 0.035 6.61 3.18 12.02
4/22/2022 2:30:00 AM 6.35 43.43 0.035 6.61 3.07 12.05
4/22/2022 2:45:00 AM 6.31 43.358 0.035 6.61 3.23 12.06
4/22/2022 3:00:00 AM 6.27 43.286 0.035 6.61 3.14 12.07
4/22/2022 3:15:00 AM 6.24 43.232 0.035 6.61 3.09 12.08
4/22/2022 3:30:00 AM 6.21 43.178 0.035 6.6 3.17 12.09
4/22/2022 3:45:00 AM 6.18 43.124 0.035 6.61 2.97 12.1
4/22/2022 4:00:00 AM 6.15 43.07 0.035 6.61 3.02 12.11
4/22/2022 4:15:00 AM 6.11 42.998 0.035 6.6 3 12.12
4/22/2022 4:30:00 AM 6.07 42.926 0.035 6.6 3.02 12.13
4/22/2022 4:45:00 AM 6.02 42.836 0.035 6.6 3.02 12.14
4/22/2022 5:00:00 AM 5.98 42.764 0.035 6.61 2.99 12.15
4/22/2022 5:15:00 AM 5.94 42.692 0.035 6.6 3.06 12.17
4/22/2022 5:30:00 AM 5.91 42.638 0.035 6.6 2.88 12.18
4/22/2022 5:45:00 AM 5.88 42.584 0.035 6.6 2.93 12.19
4/22/2022 6:00:00 AM 5.86 42.548 0.035 6.61 3.04 12.21
4/22/2022 6:15:00 AM 5.83 42.494 0.035 6.6 2.88 12.22
4/22/2022 6:30:00 AM 5.81 42.458 0.035 6.61 2.89 12.24
4/22/2022 6:45:00 AM 5.8 42.44 0.035 6.62 2.9 12.27
4/22/2022 7:00:00 AM 5.79 42.422 0.035 6.63 2.89 12.3
4/22/2022 7:15:00 AM 5.8 42.44 0.035 6.62 2.83 12.32
4/22/2022 7:30:00 AM 5.81 42.458 0.035 6.63 2.74 12.35
4/22/2022 7:45:00 AM 5.81 42.458 0.035 6.66 2.77 12.37
4/22/2022 8:00:00 AM 5.82 42.476 0.035 6.65 2.84 12.39
4/22/2022 8:15:00 AM 5.85 42.53 0.035 6.65 2.69 12.41
4/22/2022 8:30:00 AM 5.89 42.602 0.035 6.66 2.79 12.41
4/22/2022 8:45:00 AM 5.94 42.692 0.035 6.67 2.57 12.41
4/22/2022 9:00:00 AM 6.01 42.818 0.035 6.67 2.6 12.41
4/22/2022 9:15:00 AM 6.1 42.98 0.035 6.68 2.58 12.41
4/22/2022 9:30:00 AM 6.2 43.16 0.035 6.68 2.62 12.41
4/22/2022 9:45:00 AM 6.3 43.34 0.035 6.68 2.62 12.4
4/22/2022 10:00:00 AM 6.43 43.574 0.035 6.69 2.61 12.38
4/22/2022 10:15:00 AM 6.59 43.862 0.035 6.7 2.56 12.33
4/22/2022 10:30:00 AM 6.76 44.168 0.035 6.71 2.61 12.3
4/22/2022 10:45:00 AM 6.94 44.492 0.035 6.71 2.55 12.26
4/22/2022 11:00:00 AM 7.14 44.852 0.035 6.7 2.55 12.22
4/22/2022 11:15:00 AM 7.34 45.212 0.035 6.71 2.55 12.18
4/22/2022 11:30:00 AM 7.53 45.554 0.035 6.71 2.45 12.13
4/22/2022 11:45:00 AM 7.72 45.896 0.035 6.72 2.49 12.08
4/22/2022 12:00:00 PM 7.92 46.256 0.034 6.72 2.61 12.02
4/22/2022 12:15:00 PM 8.12 46.616 0.035 6.73 2.38 11.98
4/22/2022 12:30:00 PM 8.32 46.976 0.034 6.73 2.46 11.93
4/22/2022 12:45:00 PM 8.52 47.336 0.034 6.74 2.54 11.86
4/22/2022 1:00:00 PM 8.71 47.678 0.034 6.73 2.53 11.81
4/22/2022 1:15:00 PM 8.91 48.038 0.034 6.74 2.56 11.77
4/22/2022 1:30:00 PM 9.1 48.38 0.034 6.74 2.51 11.7
4/22/2022 1:45:00 PM 9.3 48.74 0.034 6.73 2.53 11.65
4/22/2022 2:00:00 PM 9.47 49.046 0.034 6.75 2.53 11.6
4/22/2022 2:15:00 PM 9.65 49.37 0.034 6.74 2.39 11.54
4/22/2022 2:30:00 PM 9.81 49.658 0.034 6.75 2.56 11.5
4/22/2022 2:45:00 PM 9.96 49.928 0.034 6.74 2.44 11.44
4/22/2022 3:00:00 PM 10.1 50.18 0.034 6.76 2.53 11.4
4/22/2022 3:15:00 PM 10.23 50.414 0.034 6.74 2.55 11.36
4/22/2022 3:30:00 PM 10.33 50.594 0.034 6.75 2.51 11.3
4/22/2022 3:45:00 PM 10.43 50.774 0.034 6.75 2.61 11.26
4/22/2022 4:00:00 PM 10.51 50.918 0.034 6.75 2.6 11.24
4/22/2022 4:15:00 PM 10.56 51.008 0.034 6.75 2.45 11.2
4/22/2022 4:30:00 PM 10.6 51.08 0.034 6.75 2.52 11.18
4/22/2022 4:45:00 PM 10.61 51.098 0.034 6.75 2.52 11.16
4/22/2022 5:00:00 PM 10.59 51.062 0.034 6.76 2.61 11.15
4/22/2022 5:15:00 PM 10.56 51.008 0.034 6.72 2.52 11.14
4/22/2022 5:30:00 PM 10.52 50.936 0.034 6.75 2.62 11.13
4/22/2022 5:45:00 PM 10.47 50.846 0.034 6.74 2.57 11.13
4/22/2022 6:00:00 PM 10.39 50.702 0.034 6.72 2.68 11.12
4/22/2022 6:15:00 PM 10.31 50.558 0.034 6.71 2.67 11.11
4/22/2022 6:30:00 PM 10.22 50.396 0.034 6.72 2.58 11.12
4/22/2022 6:45:00 PM 10.12 50.216 0.033 6.68 2.78 11.13
4/22/2022 7:00:00 PM 10.02 50.036 0.033 6.71 2.76 11.14
4/22/2022 7:15:00 PM 9.92 49.856 0.033 6.68 2.73 11.14
4/22/2022 7:30:00 PM 9.8 49.64 0.033 6.66 2.74 11.15
4/22/2022 7:45:00 PM 9.69 49.442 0.033 6.66 2.73 11.14
4/22/2022 8:00:00 PM 9.58 49.244 0.033 6.65 2.81 11.16
4/22/2022 8:15:00 PM 9.46 49.028 0.033 6.64 2.81 11.17
4/22/2022 8:30:00 PM 9.35 48.83 0.033 6.61 2.91 11.18
4/22/2022 8:45:00 PM 9.24 48.632 0.033 6.62 2.88 11.21
4/22/2022 9:00:00 PM 9.13 48.434 0.033 6.61 2.83 11.23
4/22/2022 9:15:00 PM 9.03 48.254 0.033 6.61 2.83 11.26
4/22/2022 9:30:00 PM 8.92 48.056 0.033 6.61 2.79 11.29
4/22/2022 9:45:00 PM 8.81 47.858 0.033 6.61 2.81 11.33
4/22/2022 10:00:00 PM 8.72 47.696 0.033 6.6 2.94 11.35
4/22/2022 10:15:00 PM 8.61 47.498 0.033 6.61 2.94 11.38
4/22/2022 10:30:00 PM 8.52 47.336 0.033 6.59 2.89 11.4
4/22/2022 10:45:00 PM 8.42 47.156 0.033 6.58 2.9 11.43
4/22/2022 11:00:00 PM 8.33 46.994 0.033 6.6 2.82 11.46
4/22/2022 11:15:00 PM 8.25 46.85 0.033 6.58 2.85 11.49
4/22/2022 11:30:00 PM 8.17 46.706 0.033 6.58 2.8 11.52
4/22/2022 11:45:00 PM 8.09 46.562 0.033 6.59 2.83 11.54
4/23/2022 12:00:00 AM 8.01 46.418 0.033 6.58 2.91 11.57
4/23/2022 12:15:00 AM 7.94 46.292 0.033 6.57 2.82 11.58
4/23/2022 12:30:00 AM 7.87 46.166 0.033 6.58 2.91 11.6
4/23/2022 12:45:00 AM 7.81 46.058 0.033 6.58 2.98 11.61
4/23/2022 1:00:00 AM 7.76 45.968 0.033 6.56 2.8 11.64
4/23/2022 1:15:00 AM 7.7 45.86 0.033 6.57 2.84 11.66
4/23/2022 1:30:00 AM 7.65 45.77 0.033 6.58 2.72 11.68
4/23/2022 1:45:00 AM 7.61 45.698 0.033 6.59 2.92 11.69
4/23/2022 2:00:00 AM 7.57 45.626 0.033 6.57 2.87 11.69
4/23/2022 2:15:00 AM 7.53 45.554 0.033 6.57 2.73 11.71
4/23/2022 2:30:00 AM 7.5 45.5 0.033 6.56 2.83 11.71
4/23/2022 2:45:00 AM 7.47 45.446 0.033 6.57 2.77 11.73
4/23/2022 3:00:00 AM 7.44 45.392 0.033 6.57 2.74 11.74
4/23/2022 3:15:00 AM 7.41 45.338 0.033 6.58 2.77 11.73
4/23/2022 3:30:00 AM 7.38 45.284 0.033 6.58 2.85 11.75
4/23/2022 3:45:00 AM 7.35 45.23 0.033 6.56 2.73 11.76
4/23/2022 4:00:00 AM 7.32 45.176 0.033 6.57 2.66 11.76
4/23/2022 4:15:00 AM 7.3 45.14 0.033 6.57 2.6 11.76
4/23/2022 4:30:00 AM 7.27 45.086 0.033 6.57 2.64 11.77
4/23/2022 4:45:00 AM 7.24 45.032 0.033 6.56 2.68 11.79
4/23/2022 5:00:00 AM 7.22 44.996 0.033 6.57 2.63 11.78
4/23/2022 5:15:00 AM 7.19 44.942 0.033 6.58 2.58 11.8
4/23/2022 5:30:00 AM 7.17 44.906 0.033 6.55 2.66 11.81
4/23/2022 5:45:00 AM 7.14 44.852 0.033 6.57 2.66 11.82
4/23/2022 6:00:00 AM 7.12 44.816 0.033 6.57 2.72 11.83
4/23/2022 6:15:00 AM 7.1 44.78 0.033 6.57 2.65 11.84
4/23/2022 6:30:00 AM 7.08 44.744 0.033 6.57 2.6 11.85
4/23/2022 6:45:00 AM 7.06 44.708 0.033 6.57 2.66 11.87
4/23/2022 7:00:00 AM 7.05 44.69 0.033 6.57 2.71 11.88
4/23/2022 7:15:00 AM 7.03 44.654 0.033 6.57 2.71 11.9
4/23/2022 7:30:00 AM 7.02 44.636 0.033 6.59 2.6 11.92
4/23/2022 7:45:00 AM 7.01 44.618 0.033 6.59 2.57 11.95
4/23/2022 8:00:00 AM 7.01 44.618 0.033 6.6 2.61 11.97
4/23/2022 8:15:00 AM 7.02 44.636 0.033 6.6 2.64 12.01
4/23/2022 8:30:00 AM 7.04 44.672 0.033 6.62 2.58 12.05
4/23/2022 8:45:00 AM 7.06 44.708 0.033 6.65 2.54 12.07
4/23/2022 9:00:00 AM 7.11 44.798 0.033 6.63 2.45 12.08
4/23/2022 9:15:00 AM 7.16 44.888 0.033 6.64 2.54 12.08
4/23/2022 9:30:00 AM 7.21 44.978 0.033 6.66 2.5 12.08
4/23/2022 9:45:00 AM 7.25 45.05 0.033 6.67 2.55 12.07
4/23/2022 10:00:00 AM 7.28 45.104 0.033 6.67 2.64 12.05
4/23/2022 10:15:00 AM 7.34 45.212 0.033 6.69 2.6 12.05
4/23/2022 10:30:00 AM 7.39 45.302 0.033 6.69 2.56 12.05
4/23/2022 10:45:00 AM 7.44 45.392 0.033 6.69 2.5 12.05
4/23/2022 11:00:00 AM 7.52 45.536 0.033 6.69 2.38 12.03
4/23/2022 11:15:00 AM 7.64 45.752 0.033 6.7 2.44 12.02
4/23/2022 11:30:00 AM 7.77 45.986 0.033 6.7 2.4 12
4/23/2022 11:45:00 AM 7.89 46.202 0.033 6.71 2.52 11.97
4/23/2022 12:00:00 PM 8.06 46.508 0.033 6.71 2.52 11.94
4/23/2022 12:15:00 PM 8.21 46.778 0.033 6.71 2.75 11.89
4/23/2022 12:30:00 PM 8.34 47.012 0.033 6.72 2.41 11.86
4/23/2022 12:45:00 PM 8.54 47.372 0.033 6.72 2.41 11.8
4/23/2022 1:00:00 PM 8.62 47.516 0.033 6.73 2.33 11.77
4/23/2022 1:15:00 PM 8.89 48.002 0.033 6.73 2.37 11.73
4/23/2022 1:30:00 PM 9.1 48.38 0.033 6.73 2.31 11.66
4/23/2022 1:45:00 PM 9.27 48.686 0.033 6.73 2.36 11.62
4/23/2022 2:00:00 PM 9.63 49.334 0.033 6.73 2.26 11.56
4/23/2022 2:15:00 PM 9.8 49.64 0.033 6.74 2.29 11.48
4/23/2022 2:30:00 PM 9.77 49.586 0.033 6.75 2.34 11.41
4/23/2022 2:45:00 PM 9.77 49.586 0.033 6.73 2.27 11.38
4/23/2022 3:00:00 PM 9.72 49.496 0.033 6.74 2.38 11.38
4/23/2022 3:15:00 PM 9.69 49.442 0.033 6.74 2.32 11.37
4/23/2022 3:30:00 PM 9.75 49.55 0.033 6.74 2.4 11.36
4/23/2022 3:45:00 PM 9.83 49.694 0.033 6.75 2.37 11.32
4/23/2022 4:00:00 PM 9.85 49.73 0.033 6.73 2.36 11.25
4/23/2022 4:15:00 PM 9.86 49.748 0.033 6.72 2.37 11.22
4/23/2022 4:30:00 PM 9.85 49.73 0.033 6.71 2.32 11.21
4/23/2022 4:45:00 PM 9.81 49.658 0.033 6.72 2.4 11.21
4/23/2022 5:00:00 PM 9.77 49.586 0.033 6.72 2.32 11.23
4/23/2022 5:15:00 PM 9.71 49.478 0.033 6.7 2.38 11.23
4/23/2022 5:30:00 PM 9.67 49.406 0.033 6.71 2.38 11.24
4/23/2022 5:45:00 PM 9.66 49.388 0.034 6.7 2.42 11.27
4/23/2022 6:00:00 PM 9.62 49.316 0.034 6.7 2.33 11.27
4/23/2022 6:15:00 PM 9.58 49.244 0.033 6.71 2.38 11.27
4/23/2022 6:30:00 PM 9.54 49.172 0.034 6.7 2.34 11.27
4/23/2022 6:45:00 PM 9.5 49.1 0.034 6.7 2.42 11.27
4/23/2022 7:00:00 PM 9.45 49.01 0.034 6.69 2.36 11.26
4/23/2022 7:15:00 PM 9.4 48.92 0.034 6.68 2.34 11.24
4/23/2022 7:30:00 PM 9.36 48.848 0.034 6.68 2.35 11.21
4/23/2022 7:45:00 PM 9.31 48.758 0.034 6.67 2.41 11.2
4/23/2022 8:00:00 PM 9.25 48.65 0.034 6.65 2.45 11.18
4/23/2022 8:15:00 PM 9.19 48.542 0.034 6.64 2.34 11.17
4/23/2022 8:30:00 PM 9.14 48.452 0.034 6.64 2.34 11.17
4/23/2022 8:45:00 PM 9.08 48.344 0.034 6.62 2.38 11.18
4/23/2022 9:00:00 PM 9.04 48.272 0.034 6.61 2.43 11.19
4/23/2022 9:15:00 PM 8.99 48.182 0.034 6.61 2.41 11.21
4/23/2022 9:30:00 PM 8.94 48.092 0.034 6.6 2.45 11.22
4/23/2022 9:45:00 PM 8.9 48.02 0.034 6.6 2.45 11.24
4/23/2022 10:00:00 PM 8.84 47.912 0.034 6.6 2.36 11.25
4/23/2022 10:15:00 PM 8.78 47.804 0.034 6.59 2.4 11.26
4/23/2022 10:30:00 PM 8.72 47.696 0.034 6.59 2.39 11.28
4/23/2022 10:45:00 PM 8.66 47.588 0.034 6.59 2.36 11.29
4/23/2022 11:00:00 PM 8.6 47.48 0.034 6.59 2.4 11.31
4/23/2022 11:15:00 PM 8.54 47.372 0.034 6.59 2.33 11.33
4/23/2022 11:30:00 PM 8.48 47.264 0.034 6.59 2.33 11.34
4/23/2022 11:45:00 PM 8.42 47.156 0.034 6.59 2.36 11.36
4/24/2022 12:00:00 AM 8.36 47.048 0.034 6.6 2.38 11.38
4/24/2022 12:15:00 AM 8.31 46.958 0.034 6.58 2.35 11.4
4/24/2022 12:30:00 AM 8.25 46.85 0.034 6.59 2.32 11.41
4/24/2022 12:45:00 AM 8.2 46.76 0.034 6.59 2.34 11.42
4/24/2022 1:00:00 AM 8.15 46.67 0.034 6.6 2.34 11.44
4/24/2022 1:15:00 AM 8.1 46.58 0.034 6.6 2.29 11.44
4/24/2022 1:30:00 AM 8.04 46.472 0.034 6.59 2.33 11.46
4/24/2022 1:45:00 AM 7.99 46.382 0.034 6.59 2.36 11.47
4/24/2022 2:00:00 AM 7.95 46.31 0.034 6.58 2.33 11.48
4/24/2022 2:15:00 AM 7.9 46.22 0.034 6.6 2.34 11.49
4/24/2022 2:30:00 AM 7.85 46.13 0.034 6.59 2.31 11.5
4/24/2022 2:45:00 AM 7.8 46.04 0.034 6.59 2.28 11.52
4/24/2022 3:00:00 AM 7.76 45.968 0.034 6.58 2.28 11.53
4/24/2022 3:15:00 AM 7.71 45.878 0.034 6.58 2.24 11.55
4/24/2022 3:30:00 AM 7.67 45.806 0.034 6.58 2.25 11.57
4/24/2022 3:45:00 AM 7.62 45.716 0.035 6.58 2.26 11.58
4/24/2022 4:00:00 AM 7.58 45.644 0.035 6.58 2.28 11.59
4/24/2022 4:15:00 AM 7.54 45.572 0.035 6.59 2.27 11.6
4/24/2022 4:30:00 AM 7.5 45.5 0.035 6.58 2.3 11.62
4/24/2022 4:45:00 AM 7.45 45.41 0.035 6.58 2.36 11.62
4/24/2022 5:00:00 AM 7.41 45.338 0.035 6.58 2.42 11.63
4/24/2022 5:15:00 AM 7.37 45.266 0.035 6.58 2.3 11.65
4/24/2022 5:30:00 AM 7.33 45.194 0.035 6.58 2.39 11.65
4/24/2022 5:45:00 AM 7.29 45.122 0.035 6.59 2.26 11.66
4/24/2022 6:00:00 AM 7.25 45.05 0.035 6.59 2.34 11.67
4/24/2022 6:15:00 AM 7.21 44.978 0.035 6.59 2.22 11.69
4/24/2022 6:30:00 AM 7.18 44.924 0.035 6.59 2.35 11.71
4/24/2022 6:45:00 AM 7.16 44.888 0.035 6.6 2.28 11.75
4/24/2022 7:00:00 AM 7.15 44.87 0.035 6.62 2.26 11.79
4/24/2022 7:15:00 AM 7.13 44.834 0.035 6.62 2.19 11.84
4/24/2022 7:30:00 AM 7.13 44.834 0.035 6.64 2.31 11.88
4/24/2022 7:45:00 AM 7.14 44.852 0.035 6.64 2.23 11.91
4/24/2022 8:00:00 AM 7.16 44.888 0.035 6.65 2.28 11.94
4/24/2022 8:15:00 AM 7.21 44.978 0.035 6.66 2.19 11.96
4/24/2022 8:30:00 AM 7.27 45.086 0.035 6.68 2.19 11.97
4/24/2022 8:45:00 AM 7.35 45.23 0.035 6.68 2.12 11.98
4/24/2022 9:00:00 AM 7.43 45.374 0.035 6.7 2.09 11.98
4/24/2022 9:15:00 AM 7.5 45.5 0.035 6.7 2.15 11.97
4/24/2022 9:30:00 AM 7.61 45.698 0.035 6.7 2.15 11.95
4/24/2022 9:45:00 AM 7.74 45.932 0.035 6.71 2.17 11.93
4/24/2022 10:00:00 AM 7.91 46.238 0.035 6.72 2.16 11.9
4/24/2022 10:15:00 AM 8.02 46.436 0.035 6.72 2.16 11.87
4/24/2022 10:30:00 AM 8.21 46.778 0.035 6.72 2.15 11.84
4/24/2022 10:45:00 AM 8.46 47.228 0.035 6.73 2.05 11.78
4/24/2022 11:00:00 AM 8.68 47.624 0.035 6.73 2.12 11.73
4/24/2022 11:15:00 AM 8.89 48.002 0.035 6.74 2.1 11.69
4/24/2022 11:30:00 AM 9.12 48.416 0.035 6.74 2.12 11.63
4/24/2022 11:45:00 AM 9.37 48.866 0.035 6.74 2.06 11.58
4/24/2022 12:00:00 PM 9.62 49.316 0.035 6.76 2.01 11.51
4/24/2022 12:15:00 PM 9.89 49.802 0.035 6.76 2.12 11.45
4/24/2022 12:30:00 PM 10.13 50.234 0.035 6.75 2.03 11.39
4/24/2022 12:45:00 PM 10.38 50.684 0.035 6.76 2.04 11.32
4/24/2022 1:00:00 PM 10.62 51.116 0.035 6.77 2 11.27
4/24/2022 1:15:00 PM 10.85 51.53 0.035 6.77 2.02 11.21
4/24/2022 1:30:00 PM 11.08 51.944 0.035 6.77 2.08 11.15
4/24/2022 1:45:00 PM 11.3 52.34 0.035 6.77 1.95 11.1
4/24/2022 2:00:00 PM 11.51 52.718 0.035 6.78 2.03 11.04
4/24/2022 2:15:00 PM 11.72 53.096 0.035 6.79 1.96 10.97
4/24/2022 2:30:00 PM 11.9 53.42 0.035 6.79 1.99 10.93
4/24/2022 2:45:00 PM 12.09 53.762 0.035 6.79 1.97 10.88
4/24/2022 3:00:00 PM 12.27 54.086 0.035 6.8 2.04 10.81
4/24/2022 3:15:00 PM 12.43 54.374 0.035 6.79 2.1 10.77
4/24/2022 3:30:00 PM 12.57 54.626 0.035 6.8 2.07 10.73
4/24/2022 3:45:00 PM 12.7 54.86 0.035 6.8 2.04 10.68
4/24/2022 4:00:00 PM 12.81 55.058 0.035 6.79 2.09 10.62
4/24/2022 4:15:00 PM 12.91 55.238 0.035 6.8 2.01 10.59
4/24/2022 4:30:00 PM 12.98 55.364 0.035 6.79 2.14 10.56
4/24/2022 4:45:00 PM 13.03 55.454 0.035 6.79 2.03 10.53
4/24/2022 5:00:00 PM 13.06 55.508 0.035 6.8 2.06 10.5
4/24/2022 5:15:00 PM 13.08 55.544 0.035 6.77 2.12 10.48
4/24/2022 5:30:00 PM 13.08 55.544 0.035 6.79 2.09 10.46
4/24/2022 5:45:00 PM 13.07 55.526 0.035 6.78 2 10.43
4/24/2022 6:00:00 PM 13.05 55.49 0.035 6.78 2.02 10.41
4/24/2022 6:15:00 PM 13.02 55.436 0.035 6.78 2.04 10.39
4/24/2022 6:30:00 PM 12.97 55.346 0.035 6.77 2.07 10.37
4/24/2022 6:45:00 PM 12.91 55.238 0.035 6.75 2.04 10.35
4/24/2022 7:00:00 PM 12.84 55.112 0.035 6.75 2.11 10.34
4/24/2022 7:15:00 PM 12.75 54.95 0.035 6.73 2.09 10.33
4/24/2022 7:30:00 PM 12.65 54.77 0.035 6.74 2.06 10.33
4/24/2022 7:45:00 PM 12.55 54.59 0.035 6.72 2.19 10.31
4/24/2022 8:00:00 PM 12.43 54.374 0.035 6.7 2.11 10.31
4/24/2022 8:15:00 PM 12.32 54.176 0.036 6.69 2.29 10.31
4/24/2022 8:30:00 PM 12.2 53.96 0.036 6.69 2.14 10.31
4/24/2022 8:45:00 PM 12.08 53.744 0.036 6.67 2.19 10.34
4/24/2022 9:00:00 PM 11.98 53.564 0.036 6.69 2.15 10.37
4/24/2022 9:15:00 PM 11.87 53.366 0.036 6.64 2.29 10.39
4/24/2022 9:30:00 PM 11.76 53.168 0.036 6.67 2.27 10.41
4/24/2022 9:45:00 PM 11.66 52.988 0.036 6.67 2.16 10.43
4/24/2022 10:00:00 PM 11.57 52.826 0.036 6.66 2.16 10.46
4/24/2022 10:15:00 PM 11.47 52.646 0.036 6.66 2.2 10.49
4/24/2022 10:30:00 PM 11.37 52.466 0.036 6.67 2.21 10.52
4/24/2022 10:45:00 PM 11.28 52.304 0.036 6.65 2.12 10.54
4/24/2022 11:00:00 PM 11.18 52.124 0.036 6.67 2.2 10.56
4/24/2022 11:15:00 PM 11.09 51.962 0.036 6.66 2.23 10.59
4/24/2022 11:30:00 PM 10.99 51.782 0.036 6.66 2.19 10.6
4/24/2022 11:45:00 PM 10.9 51.62 0.036 6.65 2.14 10.63
4/25/2022 12:00:00 AM 10.82 51.476 0.036 6.65 2.19 10.66
4/25/2022 12:15:00 AM 10.73 51.314 0.036 6.66 2.24 10.68
4/25/2022 12:30:00 AM 10.66 51.188 0.036 6.65 2.16 10.7
4/25/2022 12:45:00 AM 10.58 51.044 0.036 6.65 2.17 10.72
4/25/2022 1:00:00 AM 10.5 50.9 0.036 6.64 2.11 10.74
4/25/2022 1:15:00 AM 10.42 50.756 0.036 6.66 2.21 10.75
4/25/2022 1:30:00 AM 10.35 50.63 0.036 6.65 2.23 10.77
4/25/2022 1:45:00 AM 10.28 50.504 0.036 6.65 2.07 10.79
4/25/2022 2:00:00 AM 10.21 50.378 0.036 6.65 2.21 10.81
4/25/2022 2:15:00 AM 10.14 50.252 0.036 6.66 2.24 10.84
4/25/2022 2:30:00 AM 10.07 50.126 0.036 6.64 2.08 10.85
4/25/2022 2:45:00 AM 10.01 50.018 0.036 6.65 2.11 10.86
4/25/2022 3:00:00 AM 9.95 49.91 0.036 6.65 2.22 10.87
4/25/2022 3:15:00 AM 9.89 49.802 0.036 6.65 2.28 10.89
4/25/2022 3:30:00 AM 9.84 49.712 0.036 6.63 2.11 10.91
4/25/2022 3:45:00 AM 9.79 49.622 0.036 6.64 2.24 10.92
4/25/2022 4:00:00 AM 9.74 49.532 0.036 6.65 2.2 10.93
4/25/2022 4:15:00 AM 9.69 49.442 0.036 6.63 2.2 10.94
4/25/2022 4:30:00 AM 9.65 49.37 0.036 6.65 2.08 10.96
4/25/2022 4:45:00 AM 9.6 49.28 0.036 6.64 2.23 10.98
4/25/2022 5:00:00 AM 9.55 49.19 0.036 6.64 2.19 11
4/25/2022 5:15:00 AM 9.5 49.1 0.036 6.64 2.22 11.01
4/25/2022 5:30:00 AM 9.45 49.01 0.036 6.64 2.11 11.02
4/25/2022 5:45:00 AM 9.41 48.938 0.036 6.66 2.19 11.04
4/25/2022 6:00:00 AM 9.38 48.884 0.036 6.64 2.08 11.05
4/25/2022 6:15:00 AM 9.35 48.83 0.036 6.64 2.17 11.06
4/25/2022 6:30:00 AM 9.32 48.776 0.036 6.65 2.13 11.09
4/25/2022 6:45:00 AM 9.31 48.758 0.036 6.66 2.21 11.11
4/25/2022 7:00:00 AM 9.29 48.722 0.036 6.66 2.12 11.14
4/25/2022 7:15:00 AM 9.29 48.722 0.036 6.68 2.16 11.19
4/25/2022 7:30:00 AM 9.28 48.704 0.036 6.69 2.29 11.23
4/25/2022 7:45:00 AM 9.29 48.722 0.036 6.7 2.17 11.28
4/25/2022 8:00:00 AM 9.3 48.74 0.036 6.71 2.19 11.32
4/25/2022 8:15:00 AM 9.32 48.776 0.036 6.74 2.12 11.35
4/25/2022 8:30:00 AM 9.34 48.812 0.036 6.74 2.15 11.37
4/25/2022 8:45:00 AM 9.37 48.866 0.036 6.75 2.12 11.39
4/25/2022 9:00:00 AM 9.41 48.938 0.036 6.76 2.12 11.4
4/25/2022 9:15:00 AM 9.46 49.028 0.036 6.77 2.01 11.42
4/25/2022 9:30:00 AM 9.51 49.118 0.036 6.78 2.11 11.42
4/25/2022 9:45:00 AM 9.57 49.226 0.036 6.77 2.04 11.42
4/25/2022 10:00:00 AM 9.64 49.352 0.036 6.8 2.04 11.41
4/25/2022 10:15:00 AM 9.72 49.496 0.036 6.8 2.04 11.39
4/25/2022 10:30:00 AM 9.8 49.64 0.036 6.79 2.03 11.39
4/25/2022 10:45:00 AM 9.89 49.802 0.036 6.81 2.07 11.38
4/25/2022 11:00:00 AM 10.02 50.036 0.036 6.81 1.95 11.37
4/25/2022 11:15:00 AM 10.18 50.324 0.036 6.8 2.01 11.34
4/25/2022 11:30:00 AM 10.36 50.648 0.036 6.82 1.96 11.3
4/25/2022 11:45:00 AM 10.58 51.044 0.036 6.81 2.04 11.27
4/25/2022 12:00:00 PM 10.79 51.422 0.036 6.82 1.97 11.23
4/25/2022 12:15:00 PM 11.03 51.854 0.036 6.83 1.98 11.16
4/25/2022 12:30:00 PM 11.3 52.34 0.036 6.83 2.02 11.11
4/25/2022 12:45:00 PM 11.58 52.844 0.036 6.83 1.94 11.04
4/25/2022 1:00:00 PM 11.85 53.33 0.036 6.83 1.97 10.98
4/25/2022 1:15:00 PM 12.09 53.762 0.036 6.85 1.99 10.93
4/25/2022 1:30:00 PM 12.3 54.14 0.036 6.82 1.95 10.87
4/25/2022 1:45:00 PM 12.5 54.5 0.036 6.84 1.94 10.83
4/25/2022 2:00:00 PM 12.6 54.68 0.036 6.85 2.03 10.78
4/25/2022 2:15:00 PM 12.62 54.716 0.036 6.85 1.94 10.76
4/25/2022 2:30:00 PM 12.7 54.86 0.036 6.85 1.86 10.74
4/25/2022 2:45:00 PM 12.78 55.004 0.036 6.84 1.92 10.71
4/25/2022 3:00:00 PM 13.04 55.472 0.036 6.85 1.89 10.67
4/25/2022 3:15:00 PM 13.26 55.868 0.036 6.85 1.81 10.61
4/25/2022 3:30:00 PM 13.41 56.138 0.036 6.85 1.92 10.56
4/25/2022 3:45:00 PM 13.49 56.282 0.036 6.85 1.84 10.52
4/25/2022 4:00:00 PM 13.52 56.336 0.036 6.86 1.81 10.49
4/25/2022 4:15:00 PM 13.59 56.462 0.036 6.85 2 10.47
4/25/2022 4:30:00 PM 13.58 56.444 0.036 6.85 1.91 10.44
4/25/2022 4:45:00 PM 13.58 56.444 0.036 6.85 1.97 10.44
4/25/2022 5:00:00 PM 13.59 56.462 0.036 6.85 1.8 10.43
4/25/2022 5:15:00 PM 13.55 56.39 0.036 6.85 1.9 10.4
4/25/2022 5:30:00 PM 13.51 56.318 0.036 6.84 1.87 10.4
4/25/2022 5:45:00 PM 13.5 56.3 0.036 6.84 1.9 10.39
4/25/2022 6:00:00 PM 13.46 56.228 0.036 6.84 1.94 10.38
4/25/2022 6:15:00 PM 13.38 56.084 0.036 6.82 1.92 10.37
4/25/2022 6:30:00 PM 13.29 55.922 0.037 6.82 1.94 10.33
4/25/2022 6:45:00 PM 13.22 55.796 0.037 6.8 1.89 10.3
4/25/2022 7:00:00 PM 13.14 55.652 0.037 6.8 1.98 10.29
4/25/2022 7:15:00 PM 13.06 55.508 0.037 6.78 1.9 10.27
4/25/2022 7:30:00 PM 12.95 55.31 0.037 6.78 1.95 10.24
4/25/2022 7:45:00 PM 12.84 55.112 0.037 6.73 2.01 10.22
4/25/2022 8:00:00 PM 12.72 54.896 0.037 6.76 2.22 10.23
4/25/2022 8:15:00 PM 12.6 54.68 0.037 6.68 1.91 10.24
4/25/2022 8:30:00 PM 12.49 54.482 0.037 6.72 2.07 10.25
4/25/2022 8:45:00 PM 12.37 54.266 0.037 6.71 1.95 10.25
4/25/2022 9:00:00 PM 12.26 54.068 0.037 6.72 2.03 10.27
4/25/2022 9:15:00 PM 12.15 53.87 0.037 6.71 1.96 10.31
4/25/2022 9:30:00 PM 12.05 53.69 0.037 6.71 2.12 10.33
4/25/2022 9:45:00 PM 11.96 53.528 0.037 6.7 2 10.35
4/25/2022 10:00:00 PM 11.87 53.366 0.037 6.7 2.04 10.38
4/25/2022 10:15:00 PM 11.79 53.222 0.037 6.7 2.03 10.39
4/25/2022 10:30:00 PM 11.7 53.06 0.037 6.7 1.99 10.41
4/25/2022 10:45:00 PM 11.62 52.916 0.037 6.71 2.03 10.43
4/25/2022 11:00:00 PM 11.54 52.772 0.037 6.7 2.13 10.45
4/25/2022 11:15:00 PM 11.47 52.646 0.037 6.7 2.02 10.48
4/25/2022 11:30:00 PM 11.4 52.52 0.037 6.69 2.17 10.49
4/25/2022 11:45:00 PM 11.32 52.376 0.037 6.7 2.08 10.51
4/26/2022 12:00:00 AM 11.25 52.25 0.037 6.7 2.05 10.53
4/26/2022 12:15:00 AM 11.18 52.124 0.037 6.69 2.07 10.54
4/26/2022 12:30:00 AM 11.11 51.998 0.037 6.7 2.1 10.56
4/26/2022 12:45:00 AM 11.05 51.89 0.037 6.68 2.01 10.57
4/26/2022 1:00:00 AM 10.99 51.782 0.037 6.69 2.06 10.58
4/26/2022 1:15:00 AM 10.94 51.692 0.037 6.7 1.97 10.6
4/26/2022 1:30:00 AM 10.89 51.602 0.037 6.69 2.08 10.62
4/26/2022 1:45:00 AM 10.83 51.494 0.037 6.68 2.01 10.63
4/26/2022 2:00:00 AM 10.78 51.404 0.037 6.69 2 10.64
4/26/2022 2:15:00 AM 10.73 51.314 0.037 6.69 2.03 10.66
4/26/2022 2:30:00 AM 10.69 51.242 0.037 6.68 2.03 10.67
4/26/2022 2:45:00 AM 10.64 51.152 0.038 6.68 2.04 10.68
4/26/2022 3:00:00 AM 10.6 51.08 0.037 6.68 2.13 10.7
4/26/2022 3:15:00 AM 10.55 50.99 0.037 6.68 2.12 10.7
4/26/2022 3:30:00 AM 10.51 50.918 0.037 6.68 1.95 10.71
4/26/2022 3:45:00 AM 10.47 50.846 0.038 6.68 2.07 10.72
4/26/2022 4:00:00 AM 10.43 50.774 0.037 6.68 2.07 10.73
4/26/2022 4:15:00 AM 10.39 50.702 0.037 6.69 2.05 10.74
4/26/2022 4:30:00 AM 10.36 50.648 0.038 6.67 2.12 10.74
4/26/2022 4:45:00 AM 10.33 50.594 0.037 6.68 2.06 10.75
4/26/2022 5:00:00 AM 10.29 50.522 0.038 6.67 2 10.76
4/26/2022 5:15:00 AM 10.26 50.468 0.038 6.68 2 10.77
4/26/2022 5:30:00 AM 10.23 50.414 0.038 6.69 2.07 10.79
4/26/2022 5:45:00 AM 10.2 50.36 0.038 6.66 2.08 10.8
4/26/2022 6:00:00 AM 10.18 50.324 0.038 6.68 2.08 10.79
4/26/2022 6:15:00 AM 10.15 50.27 0.038 6.67 2.02 10.81
4/26/2022 6:30:00 AM 10.13 50.234 0.038 6.67 2 10.83
4/26/2022 6:45:00 AM 10.11 50.198 0.038 6.67 2.09 10.83
4/26/2022 7:00:00 AM 10.08 50.144 0.038 6.68 2 10.85
4/26/2022 7:15:00 AM 10.06 50.108 0.038 6.69 2.02 10.88
4/26/2022 7:30:00 AM 10.05 50.09 0.038 6.68 1.96 10.88
4/26/2022 7:45:00 AM 10.03 50.054 0.038 6.7 2 10.92
4/26/2022 8:00:00 AM 10.02 50.036 0.038 6.69 2.07 10.92
4/26/2022 8:15:00 AM 10 50 0.038 6.7 2.04 10.94
4/26/2022 8:30:00 AM 9.99 49.982 0.038 6.72 2.1 10.96
4/26/2022 8:45:00 AM 9.98 49.964 0.038 6.7 2.11 10.99
4/26/2022 9:00:00 AM 9.97 49.946 0.038 6.71 1.96 11
4/26/2022 9:15:00 AM 9.97 49.946 0.038 6.72 1.97 11.05
4/26/2022 9:30:00 AM 9.97 49.946 0.038 6.73 2.05 11.06
4/26/2022 9:45:00 AM 9.98 49.964 0.038 6.75 2.02 11.1
4/26/2022 10:00:00 AM 9.99 49.982 0.038 6.74 2.11 11.13
4/26/2022 10:15:00 AM 10.02 50.036 0.037 6.76 2.09 11.15
4/26/2022 10:30:00 AM 10.04 50.072 0.038 6.78 2.11 11.16
4/26/2022 10:45:00 AM 10.06 50.108 0.038 6.78 2.16 11.17
4/26/2022 11:00:00 AM 10.11 50.198 0.037 6.79 2.29 11.21
4/26/2022 11:15:00 AM 10.16 50.288 0.037 6.8 2.26 11.21
4/26/2022 11:30:00 AM 10.22 50.396 0.038 6.81 2.19 11.2
4/26/2022 11:45:00 AM 10.25 50.45 0.038 6.82 2.15 11.19
4/26/2022 12:00:00 PM 10.27 50.486 0.038 6.8 2.11 11.16
4/26/2022 12:15:00 PM 10.29 50.522 0.038 6.81 2.18 11.14
4/26/2022 12:30:00 PM 10.33 50.594 0.038 6.81 2.27 11.14
4/26/2022 12:45:00 PM 10.34 50.612 0.038 6.81 2.37 11.1
4/26/2022 1:00:00 PM 10.35 50.63 0.038 6.81 2.35 11.1
4/26/2022 1:15:00 PM 10.39 50.702 0.038 6.82 2.36 11.11
4/26/2022 1:30:00 PM 10.44 50.792 0.038 6.83 2.27 11.12
4/26/2022 1:45:00 PM 10.47 50.846 0.038 6.83 2.26 11.12
4/26/2022 2:00:00 PM 10.5 50.9 0.038 6.84 2.22 11.11
4/26/2022 2:15:00 PM 10.54 50.972 0.038 6.84 2.25 11.11
4/26/2022 2:30:00 PM 10.62 51.116 0.038 6.87 2.19 11.11
4/26/2022 2:45:00 PM 10.7 51.26 0.038 6.86 2.2 11.1
4/26/2022 3:00:00 PM 10.78 51.404 0.038 6.86 2.23 11.09
4/26/2022 3:15:00 PM 10.85 51.53 0.038 6.87 2.17 11.08
4/26/2022 3:30:00 PM 10.89 51.602 0.038 6.86 2.17 11.04
4/26/2022 3:45:00 PM 10.92 51.656 0.038 6.86 2.12 10.96
4/26/2022 4:00:00 PM 10.92 51.656 0.039 6.84 2.13 10.92
4/26/2022 4:15:00 PM 10.92 51.656 0.039 6.84 2.09 10.89
4/26/2022 4:30:00 PM 10.92 51.656 0.039 6.84 2.26 10.88
4/26/2022 4:45:00 PM 10.91 51.638 0.039 6.82 2.1 10.89
4/26/2022 5:00:00 PM 10.87 51.566 0.039 6.82 2.08 10.86
4/26/2022 5:15:00 PM 10.84 51.512 0.039 6.81 2 10.85
4/26/2022 5:30:00 PM 10.82 51.476 0.039 6.81 2.03 10.82
4/26/2022 5:45:00 PM 10.8 51.44 0.039 6.8 2.03 10.8
4/26/2022 6:00:00 PM 10.79 51.422 0.039 6.79 2.08 10.81
4/26/2022 6:15:00 PM 10.77 51.386 0.039 6.79 2.04 10.79
4/26/2022 6:30:00 PM 10.75 51.35 0.039 6.77 2.04 10.78
4/26/2022 6:45:00 PM 10.72 51.296 0.039 6.79 2.05 10.77
4/26/2022 7:00:00 PM 10.71 51.278 0.039 6.76 2.11 10.76
4/26/2022 7:15:00 PM 10.68 51.224 0.039 6.77 2.06 10.73
4/26/2022 7:30:00 PM 10.65 51.17 0.039 6.75 2.04 10.73
4/26/2022 7:45:00 PM 10.62 51.116 0.04 6.75 2.07 10.71
4/26/2022 8:00:00 PM 10.59 51.062 0.04 6.75 2.1 10.71
4/26/2022 8:15:00 PM 10.56 51.008 0.04 6.74 2.27 10.7
4/26/2022 8:30:00 PM 10.52 50.936 0.04 6.75 2.33 10.7
4/26/2022 8:45:00 PM 10.48 50.864 0.04 6.74 2.25 10.7
4/26/2022 9:00:00 PM 10.44 50.792 0.04 6.73 2.33 10.71
4/26/2022 9:15:00 PM -99999.99 -179968 -99999.99 -99999.99 -99999.99 -99999.99
4/26/2022 9:30:00 PM 10.34 50.612 0.04 6.75 2.25 10.73
4/26/2022 9:45:00 PM 10.3 50.54 0.04 6.75 2.18 10.74
4/26/2022 10:00:00 PM 10.25 50.45 0.04 6.74 2.23 10.76
4/26/2022 10:15:00 PM 10.19 50.342 0.04 6.74 2.16 10.79
4/26/2022 10:30:00 PM 10.14 50.252 0.04 6.74 2.16 10.79
4/26/2022 10:45:00 PM 10.08 50.144 0.04 6.74 2.19 10.81
4/26/2022 11:00:00 PM 10.03 50.054 0.04 6.75 2.18 10.83
4/26/2022 11:15:00 PM 9.98 49.964 0.04 6.74 2.15 10.85
4/26/2022 11:30:00 PM 9.92 49.856 0.04 6.75 2.15 10.86
4/26/2022 11:45:00 PM 9.87 49.766 0.04 6.75 2.16 10.87
4/27/2022 12:00:00 AM 9.8 49.64 0.04 6.73 2.19 10.87
4/27/2022 12:15:00 AM 9.75 49.55 0.04 6.75 2.31 10.89
4/27/2022 12:30:00 AM 9.7 49.46 0.04 6.72 2.09 10.91
4/27/2022 12:45:00 AM 9.65 49.37 0.04 6.72 2.21 10.92
4/27/2022 1:00:00 AM 9.59 49.262 0.04 6.73 2.16 10.94
4/27/2022 1:15:00 AM 9.53 49.154 0.04 6.72 2.09 10.96
4/27/2022 1:30:00 AM 9.47 49.046 0.04 6.72 2.1 10.97
4/27/2022 1:45:00 AM 9.42 48.956 0.04 6.74 2.06 10.99
4/27/2022 2:00:00 AM 9.34 48.812 0.04 6.74 2.14 11.01
4/27/2022 2:15:00 AM 9.27 48.686 0.04 6.7 2.13 11.02
4/27/2022 2:30:00 AM 9.2 48.56 0.04 6.73 2.1 11.04
4/27/2022 2:45:00 AM 9.13 48.434 0.04 6.7 2.09 11.05
4/27/2022 3:00:00 AM 9.05 48.29 0.04 6.7 2.17 11.07
4/27/2022 3:15:00 AM 8.98 48.164 0.04 6.72 2.05 11.09
4/27/2022 3:30:00 AM 8.92 48.056 0.04 6.71 2.11 11.12
4/27/2022 3:45:00 AM 8.87 47.966 0.04 6.71 2.01 11.14
4/27/2022 4:00:00 AM 8.81 47.858 0.04 6.72 2.13 11.15
4/27/2022 4:15:00 AM 8.74 47.732 0.04 6.73 2.12 11.17
4/27/2022 4:30:00 AM 8.68 47.624 0.04 6.68 2.08 11.18
4/27/2022 4:45:00 AM 8.6 47.48 0.04 6.71 2.09 11.2
4/27/2022 5:00:00 AM 8.53 47.354 0.04 6.71 2.02 11.21
4/27/2022 5:15:00 AM 8.46 47.228 0.04 6.7 2.03 11.22
4/27/2022 5:30:00 AM 8.39 47.102 0.04 6.71 2.02 11.25
4/27/2022 5:45:00 AM 8.31 46.958 0.04 6.69 1.96 11.27
4/27/2022 6:00:00 AM 8.24 46.832 0.04 6.7 2.05 11.29
4/27/2022 6:15:00 AM 8.17 46.706 0.04 6.7 2 11.32
4/27/2022 6:30:00 AM 8.1 46.58 0.04 6.7 2.02 11.37
4/27/2022 6:45:00 AM 8.03 46.454 0.04 6.71 2.04 11.41
4/27/2022 7:00:00 AM 7.97 46.346 0.04 6.72 2.04 11.47
4/27/2022 7:15:00 AM 7.92 46.256 0.039 6.72 2.01 11.51
4/27/2022 7:30:00 AM 7.87 46.166 0.039 6.75 2.11 11.56
4/27/2022 7:45:00 AM 7.84 46.112 0.039 6.75 2.02 11.61
4/27/2022 8:00:00 AM 7.82 46.076 0.039 6.77 2.01 11.66
4/27/2022 8:15:00 AM 7.83 46.094 0.039 6.79 2.02 11.69
4/27/2022 8:30:00 AM 7.84 46.112 0.039 6.77 2.04 11.72
4/27/2022 8:45:00 AM 7.9 46.22 0.039 6.79 1.97 11.75
4/27/2022 9:00:00 AM 7.93 46.274 0.039 6.8 1.96 11.78
4/27/2022 9:15:00 AM 7.92 46.256 0.039 6.81 1.98 11.76
4/27/2022 9:30:00 AM 7.99 46.382 0.039 6.83 1.93 11.77
4/27/2022 9:45:00 AM 8.01 46.418 0.039 6.84 1.91 11.78
4/27/2022 10:00:00 AM 8.06 46.508 0.039 6.81 1.91 11.77
4/27/2022 10:15:00 AM 8.06 46.508 0.039 6.84 1.95 11.77
4/27/2022 10:30:00 AM 8.03 46.454 0.039 6.83 1.9 11.77
4/27/2022 10:45:00 AM 8.05 46.49 0.039 6.84 1.96 11.78
4/27/2022 11:00:00 AM 8.07 46.526 0.039 6.86 1.89 11.77
4/27/2022 11:15:00 AM 8.04 46.472 0.039 6.84 1.91 11.77
4/27/2022 11:30:00 AM 8.01 46.418 0.039 6.83 1.88 11.78
4/27/2022 11:45:00 AM 8.05 46.49 0.039 6.84 1.84 11.79
4/27/2022 12:00:00 PM 8.08 46.544 0.039 6.86 1.91 11.79
4/27/2022 12:15:00 PM 8.35 47.03 0.039 6.85 1.81 11.79
4/27/2022 12:30:00 PM 8.32 46.976 0.039 6.86 1.88 11.75
4/27/2022 12:45:00 PM 8.39 47.102 0.039 6.85 1.89 11.74
4/27/2022 1:00:00 PM 8.43 47.174 0.039 6.87 1.82 11.71
4/27/2022 1:15:00 PM 8.38 47.084 0.039 6.85 1.9 11.63
4/27/2022 1:30:00 PM 8.35 47.03 0.039 6.83 1.81 11.61
4/27/2022 1:45:00 PM 8.33 46.994 0.039 6.83 1.83 11.62
4/27/2022 2:00:00 PM 8.3 46.94 0.039 6.82 1.85 11.6
4/27/2022 2:15:00 PM 8.24 46.832 0.039 6.82 1.87 11.61
4/27/2022 2:30:00 PM 8.2 46.76 0.039 6.82 1.84 11.65
4/27/2022 2:45:00 PM 8.17 46.706 0.039 6.83 1.86 11.67
4/27/2022 3:00:00 PM 8.19 46.742 0.039 6.83 1.81 11.7
4/27/2022 3:15:00 PM 8.17 46.706 0.039 6.85 1.83 11.7
4/27/2022 3:30:00 PM 8.14 46.652 0.039 6.83 1.87 11.69
4/27/2022 3:45:00 PM 8.09 46.562 0.039 6.85 1.89 11.67
4/27/2022 4:00:00 PM 8.09 46.562 0.039 6.83 1.95 11.71
4/27/2022 4:15:00 PM 8.07 46.526 0.04 6.83 1.95 11.68
4/27/2022 4:30:00 PM 8.03 46.454 0.04 6.83 1.9 11.68
4/27/2022 4:45:00 PM 8.01 46.418 0.04 6.82 1.85 11.72
4/27/2022 5:00:00 PM 7.96 46.328 0.04 6.83 1.97 11.69
4/27/2022 5:15:00 PM 7.96 46.328 0.04 6.83 1.83 11.73
4/27/2022 5:30:00 PM 7.94 46.292 0.04 6.83 1.85 11.72
4/27/2022 5:45:00 PM 7.9 46.22 0.04 6.81 1.88 11.69
4/27/2022 6:00:00 PM 7.87 46.166 0.04 6.82 2.01 11.69
4/27/2022 6:15:00 PM 7.84 46.112 0.04 6.81 1.83 11.66
4/27/2022 6:30:00 PM 7.8 46.04 0.04 6.81 1.88 11.65
4/27/2022 6:45:00 PM 7.75 45.95 0.04 6.79 1.82 11.63
4/27/2022 7:00:00 PM 7.68 45.824 0.04 6.78 1.91 11.62
4/27/2022 7:15:00 PM 7.63 45.734 0.04 6.77 1.91 11.62
4/27/2022 7:30:00 PM 7.57 45.626 0.04 6.78 1.86 11.61
4/27/2022 7:45:00 PM 7.52 45.536 0.04 6.77 1.86 11.6
4/27/2022 8:00:00 PM 7.45 45.41 0.04 6.76 1.89 11.59
4/27/2022 8:15:00 PM 7.39 45.302 0.04 6.75 1.82 11.6
4/27/2022 8:30:00 PM 7.32 45.176 0.04 6.74 1.91 11.6
4/27/2022 8:45:00 PM 7.25 45.05 0.04 6.74 1.89 11.61
4/27/2022 9:00:00 PM 7.19 44.942 0.04 6.73 1.93 11.63
4/27/2022 9:15:00 PM 7.12 44.816 0.04 6.73 1.81 11.65
4/27/2022 9:30:00 PM 7.05 44.69 0.04 6.74 1.95 11.68
4/27/2022 9:45:00 PM 6.99 44.582 0.04 6.73 1.85 11.69
4/27/2022 10:00:00 PM 6.93 44.474 0.04 6.73 1.89 11.71
4/27/2022 10:15:00 PM 6.87 44.366 0.04 6.72 1.96 11.73
4/27/2022 10:30:00 PM 6.81 44.258 0.04 6.72 1.96 11.75
4/27/2022 10:45:00 PM 6.76 44.168 0.04 6.72 1.93 11.76
4/27/2022 11:00:00 PM 6.71 44.078 0.04 6.73 1.85 11.78
4/27/2022 11:15:00 PM 6.66 43.988 0.04 6.72 1.89 11.79
4/27/2022 11:30:00 PM 6.61 43.898 0.04 6.72 1.91 11.81
4/27/2022 11:45:00 PM 6.56 43.808 0.04 6.72 1.78 11.83
4/28/2022 12:00:00 AM 6.51 43.718 0.04 6.72 1.87 11.85
4/28/2022 12:15:00 AM 6.44 43.592 0.041 6.72 1.89 11.87
4/28/2022 12:30:00 AM 6.39 43.502 0.04 6.72 1.85 11.89
4/28/2022 12:45:00 AM 6.35 43.43 0.041 6.71 1.91 11.9
4/28/2022 1:00:00 AM 6.31 43.358 0.04 6.72 1.81 11.91
4/28/2022 1:15:00 AM 6.26 43.268 0.04 6.72 1.85 11.93
4/28/2022 1:30:00 AM 6.21 43.178 0.041 6.72 1.89 11.95
4/28/2022 1:45:00 AM 6.16 43.088 0.041 6.71 1.87 11.95
4/28/2022 2:00:00 AM 6.12 43.016 0.041 6.71 1.87 11.97
4/28/2022 2:15:00 AM 6.07 42.926 0.041 6.71 1.91 11.98
4/28/2022 2:30:00 AM 6.03 42.854 0.04 6.72 1.96 11.99
4/28/2022 2:45:00 AM 5.99 42.782 0.041 6.71 1.92 12
4/28/2022 3:00:00 AM 5.95 42.71 0.04 6.72 2.05 12.01
4/28/2022 3:15:00 AM 5.9 42.62 0.041 6.71 1.93 12.03
4/28/2022 3:30:00 AM 5.87 42.566 0.04 6.71 1.95 12.05
4/28/2022 3:45:00 AM 5.83 42.494 0.04 6.71 1.99 12.06
4/28/2022 4:00:00 AM 5.79 42.422 0.04 6.71 1.83 12.08
4/28/2022 4:15:00 AM 5.75 42.35 0.04 6.71 1.87 12.1
4/28/2022 4:30:00 AM 5.71 42.278 0.04 6.71 1.82 12.11
4/28/2022 4:45:00 AM 5.67 42.206 0.04 6.71 1.82 12.13
4/28/2022 5:00:00 AM 5.64 42.152 0.04 6.72 1.85 12.13
4/28/2022 5:15:00 AM 5.62 42.116 0.04 6.7 1.81 12.14
4/28/2022 5:30:00 AM 5.59 42.062 0.04 6.71 1.88 12.16
4/28/2022 5:45:00 AM 5.56 42.008 0.041 6.7 1.79 12.16
4/28/2022 6:00:00 AM 5.53 41.954 0.04 6.71 1.85 12.17
4/28/2022 6:15:00 AM 5.49 41.882 0.04 6.71 1.86 12.19
4/28/2022 6:30:00 AM 5.46 41.828 0.04 6.71 1.79 12.21
4/28/2022 6:45:00 AM 5.44 41.792 0.04 6.71 1.79 12.23
4/28/2022 7:00:00 AM 5.42 41.756 0.04 6.73 1.73 12.28
4/28/2022 7:15:00 AM 5.4 41.72 0.04 6.75 1.86 12.32
4/28/2022 7:30:00 AM 5.39 41.702 0.04 6.74 1.75 12.37
4/28/2022 7:45:00 AM 5.38 41.684 0.04 6.76 1.79 12.42
4/28/2022 8:00:00 AM 5.38 41.684 0.04 6.77 1.85 12.47
4/28/2022 8:15:00 AM 5.39 41.702 0.04 6.78 1.86 12.51
4/28/2022 8:30:00 AM 5.39 41.702 0.04 6.79 1.81 12.54
4/28/2022 8:45:00 AM 5.47 41.846 0.04 6.8 1.78 12.56
4/28/2022 9:00:00 AM 5.5 41.9 0.04 6.8 1.83 12.56
4/28/2022 9:15:00 AM 5.54 41.972 0.04 6.81 1.76 12.58
4/28/2022 9:30:00 AM 5.64 42.152 0.04 6.8 1.74 12.57
4/28/2022 9:45:00 AM 5.74 42.332 0.04 6.81 1.8 12.55
4/28/2022 10:00:00 AM 5.84 42.512 0.04 6.81 1.69 12.52
4/28/2022 10:15:00 AM 6.04 42.872 0.04 6.81 1.74 12.48
4/28/2022 10:30:00 AM 6.27 43.286 0.04 6.81 1.8 12.44
4/28/2022 10:45:00 AM 6.48 43.664 0.04 6.82 1.77 12.39
4/28/2022 11:00:00 AM 6.67 44.006 0.04 6.83 1.74 12.33
4/28/2022 11:15:00 AM 6.9 44.42 0.04 6.82 1.76 12.29
4/28/2022 11:30:00 AM 7.16 44.888 0.04 6.83 1.69 12.21
4/28/2022 11:45:00 AM 7.4 45.32 0.04 6.83 1.71 12.15
4/28/2022 12:00:00 PM 7.64 45.752 0.04 6.84 1.72 12.1
4/28/2022 12:15:00 PM 7.89 46.202 0.04 6.84 1.66 12.02
4/28/2022 12:30:00 PM 8.13 46.634 0.04 6.84 1.73 11.97
4/28/2022 12:45:00 PM 8.35 47.03 0.04 6.85 1.7 11.91
4/28/2022 1:00:00 PM 8.59 47.462 0.04 6.85 1.68 11.83
4/28/2022 1:15:00 PM 8.79 47.822 0.04 6.85 1.69 11.78
4/28/2022 1:30:00 PM 8.97 48.146 0.04 6.86 1.75 11.73
4/28/2022 1:45:00 PM 9.13 48.434 0.04 6.86 1.7 11.68
4/28/2022 2:00:00 PM 9.29 48.722 0.04 6.85 1.75 11.64
4/28/2022 2:15:00 PM 9.44 48.992 0.04 6.86 1.78 11.59
4/28/2022 2:30:00 PM 9.59 49.262 0.04 6.86 1.76 11.55
4/28/2022 2:45:00 PM 9.73 49.514 0.04 6.86 1.77 11.49
4/28/2022 3:00:00 PM 9.81 49.658 0.04 6.86 1.67 11.45
4/28/2022 3:15:00 PM 9.91 49.838 0.04 6.87 1.69 11.43
4/28/2022 3:30:00 PM 9.98 49.964 0.04 6.88 1.77 11.39
4/28/2022 3:45:00 PM 10.05 50.09 0.04 6.85 1.76 11.36
4/28/2022 4:00:00 PM 10.08 50.144 0.04 6.87 1.77 11.33
4/28/2022 4:15:00 PM 10.09 50.162 0.04 6.87 1.68 11.31
4/28/2022 4:30:00 PM 10.09 50.162 0.04 6.87 1.67 11.29
4/28/2022 4:45:00 PM 10.07 50.126 0.04 6.88 1.74 11.26
4/28/2022 5:00:00 PM 10.04 50.072 0.04 6.87 1.75 11.24
4/28/2022 5:15:00 PM 9.97 49.946 0.04 6.87 1.72 11.24
4/28/2022 5:30:00 PM 9.9 49.82 0.04 6.86 1.66 11.23
4/28/2022 5:45:00 PM 9.81 49.658 0.04 6.86 1.76 11.23
4/28/2022 6:00:00 PM 9.73 49.514 0.04 6.85 1.72 11.22
4/28/2022 6:15:00 PM 9.65 49.37 0.04 6.86 1.77 11.22
4/28/2022 6:30:00 PM 9.54 49.172 0.04 6.86 1.91 11.23
4/28/2022 6:45:00 PM 9.45 49.01 0.04 6.83 2.12 11.22
4/28/2022 7:00:00 PM 9.32 48.776 0.04 6.84 2.15 11.22
4/28/2022 7:15:00 PM 9.18 48.524 0.04 6.8 1.96 11.22
4/28/2022 7:30:00 PM 9.09 48.362 0.04 6.81 1.9 11.22
4/28/2022 7:45:00 PM 8.98 48.164 0.04 6.79 1.74 11.23
4/28/2022 8:00:00 PM 8.84 47.912 0.041 6.79 1.87 11.23
4/28/2022 8:15:00 PM 8.7 47.66 0.041 6.78 1.78 11.23
4/28/2022 8:30:00 PM 8.59 47.462 0.041 6.77 1.85 11.24
4/28/2022 8:45:00 PM 8.45 47.21 0.041 6.76 1.77 11.25
4/28/2022 9:00:00 PM 8.33 46.994 0.041 6.76 1.8 11.29
4/28/2022 9:15:00 PM 8.2 46.76 0.041 6.74 1.74 11.33
4/28/2022 9:30:00 PM 8.09 46.562 0.041 6.76 1.85 11.35
4/28/2022 9:45:00 PM 7.97 46.346 0.041 6.74 1.8 11.39
4/28/2022 10:00:00 PM 7.86 46.148 0.041 6.72 1.85 11.41
4/28/2022 10:15:00 PM 7.75 45.95 0.041 6.73 1.75 11.45
4/28/2022 10:30:00 PM 7.63 45.734 0.041 6.74 1.86 11.49
4/28/2022 10:45:00 PM 7.52 45.536 0.041 6.72 1.78 11.52
4/28/2022 11:00:00 PM 7.41 45.338 0.041 6.73 1.84 11.56
4/28/2022 11:15:00 PM 7.31 45.158 0.041 6.74 1.89 11.58
4/28/2022 11:30:00 PM 7.21 44.978 0.041 6.73 1.82 11.61
4/28/2022 11:45:00 PM 7.11 44.798 0.041 6.73 1.76 11.64
4/29/2022 12:00:00 AM 7.02 44.636 0.041 6.7 1.75 11.68
4/29/2022 12:15:00 AM 6.92 44.456 0.041 6.73 1.82 11.71
4/29/2022 12:30:00 AM 6.82 44.276 0.041 6.72 1.87 11.73
4/29/2022 12:45:00 AM 6.72 44.096 0.041 6.71 1.8 11.77
4/29/2022 1:00:00 AM 6.62 43.916 0.041 6.71 1.87 11.79
4/29/2022 1:15:00 AM 6.53 43.754 0.041 6.71 1.91 11.82
4/29/2022 1:30:00 AM 6.44 43.592 0.041 6.7 1.92 11.86
4/29/2022 1:45:00 AM 6.35 43.43 0.041 6.7 1.79 11.89
4/29/2022 2:00:00 AM 6.26 43.268 0.041 6.72 1.76 11.92
4/29/2022 2:15:00 AM 6.18 43.124 0.041 6.71 1.78 11.94
4/29/2022 2:30:00 AM 6.1 42.98 0.041 6.7 1.87 11.97
4/29/2022 2:45:00 AM 6.03 42.854 0.041 6.71 1.79 11.98
4/29/2022 3:00:00 AM 5.96 42.728 0.041 6.7 1.84 12.01
4/29/2022 3:15:00 AM 5.9 42.62 0.041 6.7 1.79 12.03
4/29/2022 3:30:00 AM 5.84 42.512 0.041 6.71 1.77 12.06
4/29/2022 3:45:00 AM 5.78 42.404 0.041 6.7 1.8 12.08
4/29/2022 4:00:00 AM 5.73 42.314 0.041 6.7 1.76 12.11
4/29/2022 4:15:00 AM 5.67 42.206 0.041 6.71 1.73 12.13
4/29/2022 4:30:00 AM 5.62 42.116 0.041 6.7 1.78 12.15
4/29/2022 4:45:00 AM 5.57 42.026 0.041 6.7 1.79 12.17
4/29/2022 5:00:00 AM 5.51 41.918 0.041 6.71 1.76 12.19
4/29/2022 5:15:00 AM 5.46 41.828 0.041 6.7 1.8 12.2
4/29/2022 5:30:00 AM 5.4 41.72 0.041 6.7 1.86 12.21
4/29/2022 5:45:00 AM 5.36 41.648 0.041 6.71 1.75 12.23
4/29/2022 6:00:00 AM 5.31 41.558 0.041 6.7 1.7 12.24
4/29/2022 6:15:00 AM 5.26 41.468 0.041 6.7 1.75 12.27
4/29/2022 6:30:00 AM 5.22 41.396 0.041 6.71 1.75 12.31
4/29/2022 6:45:00 AM 5.19 41.342 0.041 6.72 1.74 12.37
4/29/2022 7:00:00 AM 5.15 41.27 0.041 6.73 1.74 12.42
4/29/2022 7:15:00 AM 5.14 41.252 0.041 6.73 1.72 12.47
4/29/2022 7:30:00 AM 5.11 41.198 0.041 6.74 1.75 12.52
4/29/2022 7:45:00 AM 5.11 41.198 0.041 6.76 1.75 12.56
4/29/2022 8:00:00 AM 5.11 41.198 0.041 6.76 1.76 12.59
4/29/2022 8:15:00 AM 5.15 41.27 0.04 6.79 1.76 12.62
4/29/2022 8:30:00 AM 5.21 41.378 0.04 6.78 1.74 12.63
4/29/2022 8:45:00 AM 5.25 41.45 0.04 6.8 1.72 12.64
4/29/2022 9:00:00 AM 5.31 41.558 0.041 6.78 1.78 12.64
4/29/2022 9:15:00 AM 5.4 41.72 0.04 6.8 1.68 12.63
4/29/2022 9:30:00 AM 5.51 41.918 0.04 6.79 1.73 12.63
4/29/2022 9:45:00 AM 5.67 42.206 0.04 6.8 1.73 12.62
4/29/2022 10:00:00 AM 5.83 42.494 0.04 6.81 1.65 12.58
4/29/2022 10:15:00 AM 6.01 42.818 0.04 6.81 1.68 12.54
4/29/2022 10:30:00 AM 6.22 43.196 0.04 6.82 1.65 12.49
4/29/2022 10:45:00 AM 6.45 43.61 0.04 6.82 1.64 12.44
4/29/2022 11:00:00 AM 6.7 44.06 0.04 6.83 1.61 12.38
4/29/2022 11:15:00 AM 6.98 44.564 0.04 6.84 1.55 12.31
4/29/2022 11:30:00 AM 7.26 45.068 0.04 6.82 1.62 12.22
4/29/2022 11:45:00 AM 7.55 45.59 0.04 6.85 1.86 12.17
4/29/2022 12:00:00 PM 7.82 46.076 0.04 6.84 1.6 12.08
4/29/2022 12:15:00 PM 8.12 46.616 0.04 6.85 1.57 12.01
4/29/2022 12:30:00 PM 8.39 47.102 0.04 6.85 1.54 11.94
4/29/2022 12:45:00 PM 8.66 47.588 0.04 6.85 1.59 11.86
4/29/2022 1:00:00 PM 8.9 48.02 0.04 6.86 1.57 11.8
4/29/2022 1:15:00 PM 9.13 48.434 0.04 6.86 1.57 11.72
4/29/2022 1:30:00 PM 9.36 48.848 0.04 6.87 1.66 11.68
4/29/2022 1:45:00 PM 9.56 49.208 0.04 6.86 1.48 11.62
4/29/2022 2:00:00 PM 9.73 49.514 0.04 6.87 1.58 11.55
4/29/2022 2:15:00 PM 9.91 49.838 0.04 6.87 1.49 11.5
4/29/2022 2:30:00 PM 10.06 50.108 0.04 6.88 1.61 11.45
4/29/2022 2:45:00 PM 10.21 50.378 0.04 6.87 1.64 11.42
4/29/2022 3:00:00 PM 10.33 50.594 0.04 6.89 1.7 11.37
4/29/2022 3:15:00 PM 10.44 50.792 0.04 6.88 1.61 11.31
4/29/2022 3:30:00 PM 10.53 50.954 0.04 6.88 1.67 11.28
4/29/2022 3:45:00 PM 10.61 51.098 0.04 6.88 1.58 11.25
4/29/2022 4:00:00 PM 10.67 51.206 0.04 6.89 1.6 11.21
4/29/2022 4:15:00 PM 10.7 51.26 0.04 6.88 1.58 11.19
4/29/2022 4:30:00 PM 10.7 51.26 0.04 6.88 1.55 11.16
4/29/2022 4:45:00 PM 10.68 51.224 0.04 6.88 1.57 11.14
4/29/2022 5:00:00 PM 10.68 51.224 0.04 6.9 1.6 11.12
4/29/2022 5:15:00 PM 10.64 51.152 0.04 6.88 1.6 11.11
4/29/2022 5:30:00 PM 10.58 51.044 0.04 6.89 1.59 11.09
4/29/2022 5:45:00 PM 10.51 50.918 0.04 6.87 1.58 11.08
4/29/2022 6:00:00 PM 10.44 50.792 0.04 6.87 1.56 11.07
4/29/2022 6:15:00 PM 10.36 50.648 0.04 6.87 1.65 11.06
4/29/2022 6:30:00 PM 10.29 50.522 0.04 6.86 1.57 11.05
4/29/2022 6:45:00 PM 10.18 50.324 0.04 6.84 1.6 11.06
4/29/2022 7:00:00 PM 10.08 50.144 0.04 6.84 1.57 11.05
4/29/2022 7:15:00 PM 9.98 49.964 0.04 6.83 1.59 11.03
4/29/2022 7:30:00 PM 9.89 49.802 0.041 6.82 1.65 11.01
4/29/2022 7:45:00 PM 9.79 49.622 0.041 6.81 1.69 11.01
4/29/2022 8:00:00 PM 9.68 49.424 0.041 6.81 1.67 10.99
4/29/2022 8:15:00 PM 9.56 49.208 0.041 6.81 1.85 11
4/29/2022 8:30:00 PM 9.44 48.992 0.041 6.78 1.64 11
4/29/2022 8:45:00 PM 9.31 48.758 0.041 6.77 1.65 11.02
4/29/2022 9:00:00 PM 9.17 48.506 0.041 6.77 1.64 11.04
4/29/2022 9:15:00 PM 9.02 48.236 0.041 6.77 1.7 11.08
4/29/2022 9:30:00 PM 8.91 48.038 0.041 6.77 1.71 11.12
4/29/2022 9:45:00 PM 8.78 47.804 0.041 6.74 1.78 11.16
4/29/2022 10:00:00 PM 8.65 47.57 0.041 6.77 1.79 11.19
4/29/2022 10:15:00 PM 8.54 47.372 0.041 6.75 1.73 11.22
4/29/2022 10:30:00 PM 8.44 47.192 0.041 6.75 1.71 11.25
4/29/2022 10:45:00 PM 8.34 47.012 0.041 6.75 1.77 11.29
4/29/2022 11:00:00 PM 8.23 46.814 0.041 6.75 1.71 11.32
4/29/2022 11:15:00 PM 8.14 46.652 0.041 6.75 1.8 11.35
4/29/2022 11:30:00 PM 8.05 46.49 0.041 6.74 1.68 11.37
4/29/2022 11:45:00 PM 7.95 46.31 0.041 6.73 1.75 11.39
4/30/2022 12:00:00 AM 7.86 46.148 0.041 6.73 1.81 11.42
4/30/2022 12:15:00 AM 7.75 45.95 0.041 6.73 1.77 11.45
4/30/2022 12:30:00 AM 7.65 45.77 0.041 6.73 1.73 11.5
4/30/2022 12:45:00 AM 7.54 45.572 0.041 6.74 1.69 11.52
4/30/2022 1:00:00 AM 7.43 45.374 0.041 6.72 1.72 11.55
4/30/2022 1:15:00 AM 7.33 45.194 0.041 6.72 1.75 11.58
4/30/2022 1:30:00 AM 7.23 45.014 0.041 6.73 1.72 11.6
4/30/2022 1:45:00 AM 7.13 44.834 0.042 6.72 1.75 11.64
4/30/2022 2:00:00 AM 7.03 44.654 0.041 6.71 1.72 11.68
4/30/2022 2:15:00 AM 6.93 44.474 0.042 6.72 1.74 11.71
4/30/2022 2:30:00 AM 6.83 44.294 0.042 6.71 1.62 11.73
4/30/2022 2:45:00 AM 6.73 44.114 0.042 6.72 1.67 11.76
4/30/2022 3:00:00 AM 6.63 43.934 0.042 6.71 1.73 11.79
4/30/2022 3:15:00 AM 6.55 43.79 0.042 6.72 1.67 11.82
4/30/2022 3:30:00 AM 6.46 43.628 0.041 6.71 1.76 11.85
4/30/2022 3:45:00 AM 6.37 43.466 0.042 6.71 1.7 11.88
4/30/2022 4:00:00 AM 6.29 43.322 0.042 6.71 1.69 11.91
4/30/2022 4:15:00 AM 6.21 43.178 0.041 6.71 1.73 11.93
4/30/2022 4:30:00 AM 6.12 43.016 0.041 6.7 1.64 11.96
4/30/2022 4:45:00 AM 6.04 42.872 0.041 6.7 1.67 11.98
4/30/2022 5:00:00 AM 5.96 42.728 0.041 6.7 1.77 12
4/30/2022 5:15:00 AM 5.88 42.584 0.041 6.71 1.71 12.03
4/30/2022 5:30:00 AM 5.81 42.458 0.041 6.7 1.64 12.06
4/30/2022 5:45:00 AM 5.74 42.332 0.042 6.7 1.71 12.09
4/30/2022 6:00:00 AM 5.67 42.206 0.042 6.7 1.65 12.12
4/30/2022 6:15:00 AM 5.6 42.08 0.042 6.7 1.72 12.16
4/30/2022 6:30:00 AM 5.54 41.972 0.042 6.71 1.73 12.21
4/30/2022 6:45:00 AM 5.48 41.864 0.041 6.71 1.72 12.27
4/30/2022 7:00:00 AM 5.44 41.792 0.041 6.71 1.65 12.33
4/30/2022 7:15:00 AM 5.4 41.72 0.041 6.74 1.7 12.37
4/30/2022 7:30:00 AM 5.37 41.666 0.041 6.74 1.67 12.42
4/30/2022 7:45:00 AM 5.36 41.648 0.041 6.76 1.65 12.47
4/30/2022 8:00:00 AM 5.37 41.666 0.041 6.78 1.69 12.51
4/30/2022 8:15:00 AM 5.4 41.72 0.041 6.76 1.68 12.53
4/30/2022 8:30:00 AM 5.46 41.828 0.041 6.79 1.66 12.56
4/30/2022 8:45:00 AM 5.52 41.936 0.041 6.79 1.7 12.57
4/30/2022 9:00:00 AM 5.61 42.098 0.041 6.8 1.64 12.58
4/30/2022 9:15:00 AM 5.72 42.296 0.041 6.8 1.61 12.57
4/30/2022 9:30:00 AM 5.86 42.548 0.041 6.8 1.59 12.54
4/30/2022 9:45:00 AM 6.03 42.854 0.041 6.82 1.66 12.51
4/30/2022 10:00:00 AM 6.23 43.214 0.041 6.84 1.71 12.48
4/30/2022 10:15:00 AM 6.46 43.628 0.041 6.8 1.57 12.43
4/30/2022 10:30:00 AM 6.69 44.042 0.041 6.84 1.57 12.37
4/30/2022 10:45:00 AM 6.95 44.51 0.041 6.84 1.53 12.32
4/30/2022 11:00:00 AM 7.24 45.032 0.041 6.84 1.59 12.23
4/30/2022 11:15:00 AM 7.54 45.572 0.041 6.84 1.62 12.17
4/30/2022 11:30:00 AM 7.85 46.13 0.041 6.85 1.61 12.08
4/30/2022 11:45:00 AM 8.16 46.688 0.041 6.86 1.56 12.01
4/30/2022 12:00:00 PM 8.49 47.282 0.041 6.87 1.48 11.92
4/30/2022 12:15:00 PM 8.8 47.84 0.041 6.87 1.51 11.85
4/30/2022 12:30:00 PM 9.11 48.398 0.041 6.88 1.49 11.76
4/30/2022 12:45:00 PM 9.4 48.92 0.041 6.89 1.51 11.69
4/30/2022 1:00:00 PM 9.68 49.424 0.041 6.86 1.47 11.62
4/30/2022 1:15:00 PM 9.93 49.874 0.041 6.89 1.49 11.54
4/30/2022 1:30:00 PM 10.17 50.306 0.041 6.89 1.47 11.5
4/30/2022 1:45:00 PM 10.41 50.738 0.041 6.89 1.5 11.42
4/30/2022 2:00:00 PM 10.62 51.116 0.041 6.89 1.44 11.37
4/30/2022 2:15:00 PM 10.8 51.44 0.041 6.91 1.5 11.31
4/30/2022 2:30:00 PM 10.97 51.746 0.041 6.9 1.45 11.25
4/30/2022 2:45:00 PM 11.12 52.016 0.041 6.9 1.51 11.2
4/30/2022 3:00:00 PM 11.26 52.268 0.041 6.91 1.49 11.16
4/30/2022 3:15:00 PM 11.39 52.502 0.041 6.92 1.47 11.12
4/30/2022 3:30:00 PM 11.48 52.664 0.041 6.91 1.49 11.08
4/30/2022 3:45:00 PM 11.55 52.79 0.041 6.92 1.52 11.03
4/30/2022 4:00:00 PM 11.6 52.88 0.041 6.9 1.48 10.99
4/30/2022 4:15:00 PM 11.65 52.97 0.041 6.92 1.53 10.96
4/30/2022 4:30:00 PM 11.68 53.024 0.041 6.91 1.48 10.93
4/30/2022 4:45:00 PM 11.68 53.024 0.041 6.9 1.51 10.91
4/30/2022 5:00:00 PM 11.65 52.97 0.041 6.93 1.56 10.89
4/30/2022 5:15:00 PM 11.61 52.898 0.041 6.91 1.46 10.87
4/30/2022 5:30:00 PM 11.55 52.79 0.041 6.91 1.54 10.86
4/30/2022 5:45:00 PM 11.49 52.682 0.041 6.91 1.49 10.87
4/30/2022 6:00:00 PM 11.44 52.592 0.041 6.9 1.55 10.88
4/30/2022 6:15:00 PM 11.39 52.502 0.041 6.91 1.57 10.87
4/30/2022 6:30:00 PM 11.32 52.376 0.041 6.89 1.57 10.86
4/30/2022 6:45:00 PM 11.24 52.232 0.041 6.89 1.69 10.83
4/30/2022 7:00:00 PM 11.16 52.088 0.041 6.87 1.56 10.81
4/30/2022 7:15:00 PM 11.08 51.944 0.041 6.88 1.53 10.78
4/30/2022 7:30:00 PM 11.01 51.818 0.041 6.85 1.59 10.75
4/30/2022 7:45:00 PM 10.93 51.674 0.042 6.83 1.58 10.73
4/30/2022 8:00:00 PM 10.85 51.53 0.042 6.82 1.55 10.71
4/30/2022 8:15:00 PM 10.74 51.332 0.042 6.8 1.62 10.69
4/30/2022 8:30:00 PM 10.63 51.134 0.042 6.78 1.6 10.68
4/30/2022 8:45:00 PM 10.5 50.9 0.042 6.78 1.59 10.68
4/30/2022 9:00:00 PM 10.38 50.684 0.042 6.77 1.68 10.69
4/30/2022 9:15:00 PM 10.26 50.468 0.042 6.76 1.63 10.72
4/30/2022 9:30:00 PM 10.13 50.234 0.042 6.76 1.65 10.76
4/30/2022 9:45:00 PM 10 50 0.042 6.75 1.64 10.78
4/30/2022 10:00:00 PM 9.87 49.766 0.042 6.75 1.59 10.81
4/30/2022 10:15:00 PM 9.74 49.532 0.042 6.75 1.63 10.84
4/30/2022 10:30:00 PM 9.62 49.316 0.042 6.74 1.61 10.88
4/30/2022 10:45:00 PM 9.5 49.1 0.042 6.75 1.63 10.91
4/30/2022 11:00:00 PM 9.38 48.884 0.042 6.75 1.65 10.95
4/30/2022 11:15:00 PM 9.26 48.668 0.042 6.73 1.67 10.98
4/30/2022 11:30:00 PM 9.14 48.452 0.042 6.74 1.61 11
4/30/2022 11:45:00 PM 9.04 48.272 0.042 6.74 1.69 11.04
5/1/2022 12:00:00 AM 8.92 48.056 0.042 6.74 1.67 11.08
5/1/2022 12:15:00 AM 8.82 47.876 0.042 6.73 1.66 11.1
5/1/2022 12:30:00 AM 8.72 47.696 0.043 6.73 1.68 11.13
5/1/2022 12:45:00 AM 8.62 47.516 0.043 6.74 1.65 11.16
5/1/2022 1:00:00 AM 8.52 47.336 0.043 6.73 1.64 11.18
5/1/2022 1:15:00 AM 8.41 47.138 0.043 6.73 1.68 11.22
5/1/2022 1:30:00 AM 8.32 46.976 0.043 6.74 1.73 11.26
5/1/2022 1:45:00 AM 8.21 46.778 0.043 6.74 1.78 11.29
5/1/2022 2:00:00 AM 8.1 46.58 0.043 6.72 1.65 11.31
5/1/2022 2:15:00 AM 7.99 46.382 0.043 6.75 1.69 11.35
5/1/2022 2:30:00 AM 7.88 46.184 0.043 6.72 1.63 11.38
5/1/2022 2:45:00 AM 7.79 46.022 0.043 6.73 1.77 11.41
5/1/2022 3:00:00 AM 7.69 45.842 0.043 6.74 1.78 11.45
5/1/2022 3:15:00 AM 7.59 45.662 0.043 6.72 1.66 11.48
5/1/2022 3:30:00 AM 7.49 45.482 0.043 6.73 1.65 11.5
5/1/2022 3:45:00 AM 7.39 45.302 0.043 6.74 1.72 11.53
5/1/2022 4:00:00 AM 7.3 45.14 0.042 6.71 1.71 11.55
5/1/2022 4:15:00 AM 7.21 44.978 0.042 6.72 1.65 11.58
5/1/2022 4:30:00 AM 7.12 44.816 0.042 6.72 1.69 11.61
5/1/2022 4:45:00 AM 7.03 44.654 0.042 6.71 1.65 11.65
5/1/2022 5:00:00 AM 6.96 44.528 0.042 6.72 1.66 11.67
5/1/2022 5:15:00 AM 6.87 44.366 0.042 6.72 1.65 11.69
5/1/2022 5:30:00 AM 6.79 44.222 0.042 6.71 1.72 11.72
5/1/2022 5:45:00 AM 6.72 44.096 0.042 6.71 1.71 11.74
5/1/2022 6:00:00 AM 6.64 43.952 0.042 6.73 1.67 11.76
5/1/2022 6:15:00 AM 6.57 43.826 0.042 6.71 1.71 11.8
5/1/2022 6:30:00 AM 6.5 43.7 0.042 6.72 1.68 11.86
5/1/2022 6:45:00 AM 6.44 43.592 0.042 6.74 1.64 11.94
5/1/2022 7:00:00 AM 6.39 43.502 0.042 6.73 1.65 12.01
5/1/2022 7:15:00 AM 6.35 43.43 0.042 6.76 1.61 12.08
5/1/2022 7:30:00 AM 6.32 43.376 0.042 6.76 1.61 12.14
5/1/2022 7:45:00 AM 6.31 43.358 0.042 6.77 1.67 12.19
5/1/2022 8:00:00 AM 6.32 43.376 0.042 6.79 1.65 12.23
5/1/2022 8:15:00 AM 6.36 43.448 0.042 6.81 1.85 12.26
5/1/2022 8:30:00 AM 6.41 43.538 0.042 6.8 1.66 12.28
5/1/2022 8:45:00 AM 6.48 43.664 0.042 6.81 1.54 12.28
5/1/2022 9:00:00 AM 6.58 43.844 0.042 6.82 1.65 12.27
5/1/2022 9:15:00 AM 6.69 44.042 0.042 6.84 1.61 12.27
5/1/2022 9:30:00 AM 6.81 44.258 0.042 6.83 1.68 12.24
5/1/2022 9:45:00 AM 6.99 44.582 0.042 6.85 1.58 12.23
5/1/2022 10:00:00 AM 7.19 44.942 0.042 6.85 1.64 12.18
5/1/2022 10:15:00 AM 7.43 45.374 0.042 6.85 1.63 12.15
5/1/2022 10:30:00 AM 7.68 45.824 0.042 6.87 1.58 12.08
5/1/2022 10:45:00 AM 7.95 46.31 0.042 6.86 1.55 12.03
5/1/2022 11:00:00 AM 8.23 46.814 0.041 6.88 1.54 11.97
5/1/2022 11:15:00 AM 8.56 47.408 0.041 6.87 1.53 11.88
5/1/2022 11:30:00 AM 8.88 47.984 0.041 6.89 1.47 11.81
5/1/2022 11:45:00 AM 9.21 48.578 0.041 6.88 1.55 11.72
5/1/2022 12:00:00 PM 9.5 49.1 0.041 6.9 1.48 11.65
5/1/2022 12:15:00 PM 9.81 49.658 0.041 6.91 1.49 11.58
5/1/2022 12:30:00 PM 10.15 50.27 0.041 6.92 1.47 11.51
5/1/2022 12:45:00 PM 10.47 50.846 0.041 6.91 1.51 11.42
5/1/2022 1:00:00 PM 10.76 51.368 0.041 6.92 1.45 11.35
5/1/2022 1:15:00 PM 11.03 51.854 0.041 6.92 1.5 11.28
5/1/2022 1:30:00 PM 11.23 52.214 0.041 6.93 1.46 11.23
5/1/2022 1:45:00 PM 11.37 52.466 0.041 6.94 1.54 11.17
5/1/2022 2:00:00 PM 11.41 52.538 0.041 6.92 1.42 11.12
5/1/2022 2:15:00 PM 11.45 52.61 0.041 6.94 1.47 11.1
5/1/2022 2:30:00 PM 11.48 52.664 0.041 6.94 1.5 11.08
5/1/2022 2:45:00 PM 11.49 52.682 0.041 6.95 1.49 11.05
5/1/2022 3:00:00 PM 11.52 52.736 0.041 6.95 1.46 11.04
5/1/2022 3:15:00 PM 11.58 52.844 0.041 6.95 1.53 11.03
5/1/2022 3:30:00 PM 11.56 52.808 0.041 6.96 1.48 11
5/1/2022 3:45:00 PM 11.56 52.808 0.041 6.95 1.51 10.99
5/1/2022 4:00:00 PM 11.54 52.772 0.041 6.95 1.52 10.97
5/1/2022 4:15:00 PM 11.5 52.7 0.041 6.95 1.48 10.94
5/1/2022 4:30:00 PM 11.46 52.628 0.041 6.93 1.56 10.89
5/1/2022 4:45:00 PM 11.42 52.556 0.041 6.92 1.51 10.86
5/1/2022 5:00:00 PM 11.39 52.502 0.042 6.91 1.52 10.85
5/1/2022 5:15:00 PM 11.36 52.448 0.042 6.89 1.6 10.82
5/1/2022 5:30:00 PM 11.33 52.394 0.042 6.89 1.57 10.82
5/1/2022 5:45:00 PM 11.28 52.304 0.042 6.87 1.53 10.8
5/1/2022 6:00:00 PM 11.24 52.232 0.042 6.88 1.54 10.77
5/1/2022 6:15:00 PM 11.2 52.16 0.042 6.87 1.51 10.76
5/1/2022 6:30:00 PM 11.17 52.106 0.042 6.86 1.57 10.75
5/1/2022 6:45:00 PM 11.13 52.034 0.042 6.85 1.56 10.76
5/1/2022 7:00:00 PM 11.09 51.962 0.042 6.85 1.56 10.72
5/1/2022 7:15:00 PM 11.03 51.854 0.042 6.83 1.58 10.7
5/1/2022 7:30:00 PM 10.97 51.746 0.042 6.82 1.57 10.67
5/1/2022 7:45:00 PM 10.92 51.656 0.042 6.82 1.57 10.65
5/1/2022 8:00:00 PM 10.86 51.548 0.042 6.8 1.56 10.63
5/1/2022 8:15:00 PM 10.8 51.44 0.043 6.8 1.54 10.62
5/1/2022 8:30:00 PM 10.75 51.35 0.043 6.81 1.63 10.62
5/1/2022 8:45:00 PM 10.69 51.242 0.043 6.76 1.55 10.62
5/1/2022 9:00:00 PM 10.64 51.152 0.043 6.78 1.64 10.62
5/1/2022 9:15:00 PM 10.58 51.044 0.043 6.77 1.62 10.63
5/1/2022 9:30:00 PM 10.53 50.954 0.043 6.78 1.66 10.64
5/1/2022 9:45:00 PM 10.47 50.846 0.043 6.76 1.68 10.65
5/1/2022 10:00:00 PM 10.42 50.756 0.043 6.76 1.64 10.66
5/1/2022 10:15:00 PM 10.37 50.666 0.043 6.77 1.63 10.67
5/1/2022 10:30:00 PM 10.32 50.576 0.043 6.77 1.62 10.68
5/1/2022 10:45:00 PM 10.28 50.504 0.043 6.73 1.72 10.7
5/1/2022 11:00:00 PM 10.23 50.414 0.043 6.75 1.58 10.72
5/1/2022 11:15:00 PM 10.19 50.342 0.043 6.75 2.03 10.74
5/1/2022 11:30:00 PM 10.14 50.252 0.043 6.76 1.62 10.74
5/1/2022 11:45:00 PM 10.1 50.18 0.043 6.75 1.69 10.75
5/2/2022 12:00:00 AM 10.06 50.108 0.043 6.75 1.62 10.76
5/2/2022 12:15:00 AM 10.02 50.036 0.043 6.76 1.61 10.77
5/2/2022 12:30:00 AM 9.98 49.964 0.043 6.74 1.62 10.78
5/2/2022 12:45:00 AM 9.94 49.892 0.043 6.76 1.63 10.8
5/2/2022 1:00:00 AM 9.9 49.82 0.043 6.75 1.62 10.8
5/2/2022 1:15:00 AM 9.87 49.766 0.043 6.75 1.67 10.81
5/2/2022 1:30:00 AM 9.83 49.694 0.043 6.77 1.64 10.83
5/2/2022 1:45:00 AM 9.8 49.64 0.043 6.75 1.63 10.82
5/2/2022 2:00:00 AM 9.77 49.586 0.043 6.75 1.68 10.83
5/2/2022 2:15:00 AM 9.74 49.532 0.043 6.76 1.71 10.85
5/2/2022 2:30:00 AM 9.71 49.478 0.043 6.74 1.79 10.85
5/2/2022 2:45:00 AM 9.68 49.424 0.043 6.77 1.75 10.85
5/2/2022 3:00:00 AM 9.65 49.37 0.043 6.77 1.74 10.88
5/2/2022 3:15:00 AM 9.61 49.298 0.043 6.77 1.74 10.88
5/2/2022 3:30:00 AM 9.58 49.244 0.043 6.77 1.75 10.88
5/2/2022 3:45:00 AM 9.56 49.208 0.043 6.74 1.88 10.9
5/2/2022 4:00:00 AM 9.53 49.154 0.043 6.74 1.7 10.9
5/2/2022 4:15:00 AM 9.5 49.1 0.043 6.74 1.71 10.91
5/2/2022 4:30:00 AM 9.47 49.046 0.043 6.74 1.69 10.92
5/2/2022 4:45:00 AM 9.45 49.01 0.043 6.73 1.74 10.93
5/2/2022 5:00:00 AM 9.42 48.956 0.043 6.73 1.89 10.94
5/2/2022 5:15:00 AM 9.4 48.92 0.043 6.74 1.82 10.94
5/2/2022 5:30:00 AM 9.38 48.884 0.043 6.73 2.07 10.95
5/2/2022 5:45:00 AM 9.36 48.848 0.043 6.74 2.07 10.95
5/2/2022 6:00:00 AM 9.34 48.812 0.043 6.74 2.16 10.96
5/2/2022 6:15:00 AM 9.32 48.776 0.043 6.74 2.08 10.97
5/2/2022 6:30:00 AM 9.3 48.74 0.043 6.74 2.02 10.99
5/2/2022 6:45:00 AM 9.29 48.722 0.043 6.76 1.93 11.01
5/2/2022 7:00:00 AM 9.28 48.704 0.043 6.75 1.85 11.05
5/2/2022 7:15:00 AM 9.27 48.686 0.043 6.75 1.76 11.08
5/2/2022 7:30:00 AM 9.27 48.686 0.043 6.77 1.76 11.14
5/2/2022 7:45:00 AM 9.27 48.686 0.043 6.78 1.73 11.17
5/2/2022 8:00:00 AM 9.27 48.686 0.043 6.79 1.72 11.22
5/2/2022 8:15:00 AM 9.29 48.722 0.043 6.82 1.74 11.27
5/2/2022 8:30:00 AM 9.29 48.722 0.043 6.81 1.76 11.28
5/2/2022 8:45:00 AM 9.3 48.74 0.043 6.83 1.73 11.29
5/2/2022 9:00:00 AM 9.33 48.794 0.043 6.85 1.69 11.34
5/2/2022 9:15:00 AM 9.37 48.866 0.043 6.84 1.67 11.37
5/2/2022 9:30:00 AM 9.42 48.956 0.043 6.88 1.71 11.4
5/2/2022 9:45:00 AM 9.45 49.01 0.043 6.88 1.71 11.41
5/2/2022 10:00:00 AM 9.49 49.082 0.043 6.88 1.65 11.41
5/2/2022 10:15:00 AM 9.54 49.172 0.043 6.89 1.69 11.42
5/2/2022 10:30:00 AM 9.55 49.19 0.043 6.89 1.67 11.4
5/2/2022 10:45:00 AM 9.62 49.316 0.042 6.9 1.66 11.43
5/2/2022 11:00:00 AM 9.68 49.424 0.043 6.91 1.6 11.41
5/2/2022 11:15:00 AM 9.71 49.478 0.042 6.92 1.65 11.39
5/2/2022 11:30:00 AM 9.76 49.568 0.042 6.91 1.62 11.39
5/2/2022 11:45:00 AM 9.78 49.604 0.042 6.91 1.63 11.36
5/2/2022 12:00:00 PM 9.79 49.622 0.042 6.93 1.62 11.34
5/2/2022 12:15:00 PM 9.81 49.658 0.042 6.91 1.63 11.34
5/2/2022 12:30:00 PM 9.84 49.712 0.042 6.9 1.64 11.31
5/2/2022 12:45:00 PM 9.88 49.784 0.042 6.91 1.64 11.31
5/2/2022 1:00:00 PM 9.94 49.892 0.042 6.93 1.59 11.33
5/2/2022 1:15:00 PM 9.98 49.964 0.042 6.92 1.69 11.33
5/2/2022 1:30:00 PM 10.03 50.054 0.042 6.93 1.6 11.31
5/2/2022 1:45:00 PM 10.14 50.252 0.042 6.96 1.59 11.35
5/2/2022 2:00:00 PM 10.38 50.684 0.042 6.93 1.51 11.33
5/2/2022 2:15:00 PM 10.64 51.152 0.042 6.96 1.57 11.3
5/2/2022 2:30:00 PM 10.92 51.656 0.042 6.95 1.58 11.23
5/2/2022 2:45:00 PM 10.97 51.746 0.042 6.94 1.51 11.12
5/2/2022 3:00:00 PM 11.01 51.818 0.042 6.94 1.53 11.05
5/2/2022 3:15:00 PM 11.04 51.872 0.042 6.93 1.59 11.04
5/2/2022 3:30:00 PM 11.03 51.854 0.042 6.93 1.54 10.99
5/2/2022 3:45:00 PM 11.02 51.836 0.042 6.91 1.69 10.92
5/2/2022 4:00:00 PM 11 51.8 0.042 6.92 1.58 10.95
5/2/2022 4:15:00 PM 11.01 51.818 0.042 6.93 1.54 11.02
5/2/2022 4:30:00 PM 11.05 51.89 0.042 6.94 1.59 11.06
5/2/2022 4:45:00 PM 11.08 51.944 0.043 6.94 1.61 11.05
5/2/2022 5:00:00 PM 11.12 52.016 0.043 6.94 1.52 11.05
5/2/2022 5:15:00 PM 11.16 52.088 0.043 6.94 1.55 11.02
5/2/2022 5:30:00 PM 11.15 52.07 0.043 6.93 1.53 10.95
5/2/2022 5:45:00 PM 11.15 52.07 0.043 6.92 1.63 10.93
5/2/2022 6:00:00 PM 11.16 52.088 0.043 6.92 1.55 10.9
5/2/2022 6:15:00 PM 11.18 52.124 0.043 6.92 1.62 10.89
5/2/2022 6:30:00 PM 11.21 52.178 0.043 6.91 1.64 10.88
5/2/2022 6:45:00 PM 11.21 52.178 0.043 6.91 1.55 10.83
5/2/2022 7:00:00 PM 11.18 52.124 0.043 6.89 1.51 10.79
5/2/2022 7:15:00 PM 11.15 52.07 0.043 6.87 1.56 10.76
5/2/2022 7:30:00 PM 11.15 52.07 0.043 6.84 1.58 10.7
5/2/2022 7:45:00 PM 11.15 52.07 0.043 6.84 1.56 10.65
5/2/2022 8:00:00 PM 11.15 52.07 0.043 6.84 1.59 10.61
5/2/2022 8:15:00 PM 11.13 52.034 0.043 6.84 1.63 10.58
5/2/2022 8:30:00 PM 11.09 51.962 0.044 6.8 1.59 10.56
5/2/2022 8:45:00 PM 11.06 51.908 0.044 6.8 1.66 10.54
5/2/2022 9:00:00 PM 11.04 51.872 0.044 6.82 1.64 10.53
5/2/2022 9:15:00 PM 11.02 51.836 0.044 6.78 1.6 10.53
5/2/2022 9:30:00 PM 10.99 51.782 0.044 6.8 1.73 10.53
5/2/2022 9:45:00 PM 10.95 51.71 0.044 6.8 1.73 10.54
5/2/2022 10:00:00 PM 10.91 51.638 0.044 6.77 1.82 10.55
5/2/2022 10:15:00 PM 10.87 51.566 0.044 6.78 1.67 10.56
5/2/2022 10:30:00 PM 10.82 51.476 0.044 6.78 1.71 10.58
5/2/2022 10:45:00 PM 10.76 51.368 0.044 6.78 1.57 10.6
5/2/2022 11:00:00 PM 10.71 51.278 0.044 6.76 1.65 10.61
5/2/2022 11:15:00 PM 10.66 51.188 0.044 6.78 1.69 10.62
5/2/2022 11:30:00 PM 10.61 51.098 0.044 6.76 1.73 10.64
5/2/2022 11:45:00 PM 10.54 50.972 0.044 6.76 1.64 10.65
5/3/2022 12:00:00 AM 10.48 50.864 0.044 6.76 1.69 10.66
5/3/2022 12:15:00 AM 10.41 50.738 0.044 6.76 1.69 10.67
5/3/2022 12:30:00 AM 10.34 50.612 0.044 6.74 1.66 10.69
5/3/2022 12:45:00 AM 10.27 50.486 0.044 6.74 1.69 10.71
5/3/2022 1:00:00 AM 10.2 50.36 0.044 6.76 1.72 10.73
5/3/2022 1:15:00 AM 10.12 50.216 0.044 6.76 1.66 10.75
5/3/2022 1:30:00 AM 10.05 50.09 0.044 6.73 1.63 10.77
5/3/2022 1:45:00 AM 9.97 49.946 0.044 6.74 1.68 10.79
5/3/2022 2:00:00 AM 9.89 49.802 0.044 6.73 1.66 10.82
5/3/2022 2:15:00 AM 9.82 49.676 0.044 6.74 1.68 10.83
5/3/2022 2:30:00 AM 9.74 49.532 0.044 6.74 1.72 10.84
5/3/2022 2:45:00 AM 9.67 49.406 0.044 6.73 1.72 10.87
5/3/2022 3:00:00 AM 9.6 49.28 0.044 6.73 1.66 10.89
5/3/2022 3:15:00 AM 9.52 49.136 0.044 6.75 1.62 10.92
5/3/2022 3:30:00 AM 9.45 49.01 0.044 6.73 1.73 10.94
5/3/2022 3:45:00 AM 9.37 48.866 0.044 6.74 1.72 10.96
5/3/2022 4:00:00 AM 9.31 48.758 0.044 6.73 1.69 10.97
5/3/2022 4:15:00 AM 9.24 48.632 0.044 6.73 1.69 10.99
5/3/2022 4:30:00 AM 9.17 48.506 0.044 6.75 1.7 11.01
5/3/2022 4:45:00 AM 9.12 48.416 0.044 6.73 1.73 11.02
5/3/2022 5:00:00 AM 9.06 48.308 0.044 6.72 1.66 11.04
5/3/2022 5:15:00 AM 9 48.2 0.044 6.73 1.66 11.06
5/3/2022 5:30:00 AM 8.94 48.092 0.044 6.74 1.65 11.09
5/3/2022 5:45:00 AM 8.9 48.02 0.044 6.74 1.74 11.09
5/3/2022 6:00:00 AM 8.86 47.948 0.044 6.72 1.68 11.12
5/3/2022 6:15:00 AM 8.82 47.876 0.044 6.74 1.65 11.15
5/3/2022 6:30:00 AM 8.79 47.822 0.044 6.74 1.72 11.19
5/3/2022 6:45:00 AM 8.76 47.768 0.044 6.76 1.72 11.25
5/3/2022 7:00:00 AM 8.74 47.732 0.044 6.76 1.63 11.33
5/3/2022 7:15:00 AM 8.72 47.696 0.044 6.8 1.71 11.41
5/3/2022 7:30:00 AM 8.71 47.678 0.044 6.81 1.63 11.47
5/3/2022 7:45:00 AM 8.7 47.66 0.044 6.83 1.79 11.52
5/3/2022 8:00:00 AM 8.7 47.66 0.044 6.84 1.68 11.58
5/3/2022 8:15:00 AM 8.73 47.714 0.044 6.85 1.68 11.61
5/3/2022 8:30:00 AM 8.78 47.804 0.043 6.86 1.63 11.64
5/3/2022 8:45:00 AM 8.86 47.948 0.043 6.89 1.66 11.66
5/3/2022 9:00:00 AM 8.94 48.092 0.043 6.88 1.72 11.66
5/3/2022 9:15:00 AM 9.04 48.272 0.043 6.92 1.69 11.66
5/3/2022 9:30:00 AM 9.15 48.47 0.043 6.9 1.67 11.65
5/3/2022 9:45:00 AM 9.32 48.776 0.043 6.91 1.74 11.66
5/3/2022 10:00:00 AM 9.52 49.136 0.043 6.93 1.67 11.63
5/3/2022 10:15:00 AM 9.72 49.496 0.043 6.93 1.62 11.58
5/3/2022 10:30:00 AM 9.97 49.946 0.043 6.95 1.59 11.54
5/3/2022 10:45:00 AM 10.19 50.342 0.043 6.96 1.61 11.5
5/3/2022 11:00:00 AM 10.39 50.702 0.043 6.96 1.6 11.44
5/3/2022 11:15:00 AM 10.63 51.134 0.043 6.97 1.56 11.4
5/3/2022 11:30:00 AM 10.9 51.62 0.043 6.97 1.51 11.34
5/3/2022 11:45:00 AM 11.2 52.16 0.043 6.99 1.57 11.28
5/3/2022 12:00:00 PM 11.52 52.736 0.043 6.97 1.49 11.21
5/3/2022 12:15:00 PM 11.86 53.348 0.043 7 1.56 11.14
5/3/2022 12:30:00 PM 12.14 53.852 0.043 6.99 1.54 11.08
5/3/2022 12:45:00 PM 12.43 54.374 0.043 7.01 1.56 11.02
5/3/2022 1:00:00 PM 12.69 54.842 0.043 7 1.54 10.96
5/3/2022 1:15:00 PM 12.81 55.058 0.043 7.02 1.49 10.91
5/3/2022 1:30:00 PM 12.96 55.328 0.043 7.01 1.49 10.85
5/3/2022 1:45:00 PM 13.03 55.454 0.043 7.03 1.53 10.82
5/3/2022 2:00:00 PM 13.17 55.706 0.043 7.01 1.54 10.78
5/3/2022 2:15:00 PM 13.25 55.85 0.043 7.02 1.54 10.76
5/3/2022 2:30:00 PM 13.26 55.868 0.043 7.02 1.61 10.73
5/3/2022 2:45:00 PM 13.24 55.832 0.043 7.02 1.55 10.71
5/3/2022 3:00:00 PM 13.26 55.868 0.043 7.03 1.55 10.71
5/3/2022 3:15:00 PM 13.32 55.976 0.043 7.05 1.48 10.71
5/3/2022 3:30:00 PM 13.41 56.138 0.043 7.02 1.66 10.68
5/3/2022 3:45:00 PM 13.43 56.174 0.043 7.02 1.45 10.64
5/3/2022 4:00:00 PM 13.45 56.21 0.043 7.02 1.5 10.61
5/3/2022 4:15:00 PM 13.44 56.192 0.043 7.02 1.51 10.6
5/3/2022 4:30:00 PM 13.4 56.12 0.043 7.03 1.53 10.58
5/3/2022 4:45:00 PM 13.38 56.084 0.043 7.01 1.49 10.57
5/3/2022 5:00:00 PM 13.36 56.048 0.043 6.99 1.56 10.55
5/3/2022 5:15:00 PM 13.36 56.048 0.043 7 1.47 10.54
5/3/2022 5:30:00 PM 13.33 55.994 0.043 7.01 1.59 10.52
5/3/2022 5:45:00 PM 13.3 55.94 0.043 6.96 1.49 10.51
5/3/2022 6:00:00 PM 13.28 55.904 0.043 6.98 1.51 10.51
5/3/2022 6:15:00 PM 13.25 55.85 0.043 6.97 1.48 10.51
5/3/2022 6:30:00 PM 13.22 55.796 0.043 6.97 1.58 10.47
5/3/2022 6:45:00 PM 13.19 55.742 0.044 6.97 1.48 10.42
5/3/2022 7:00:00 PM 13.15 55.67 0.044 6.94 1.55 10.39
5/3/2022 7:15:00 PM 13.08 55.544 0.044 6.92 1.55 10.31
5/3/2022 7:30:00 PM 13.02 55.436 0.044 6.92 1.55 10.25
5/3/2022 7:45:00 PM 12.95 55.31 0.044 6.88 1.52 10.2
5/3/2022 8:00:00 PM 12.89 55.202 0.044 6.86 1.59 10.15
5/3/2022 8:15:00 PM 12.82 55.076 0.044 6.84 1.5 10.12
5/3/2022 8:30:00 PM 12.75 54.95 0.044 6.83 1.6 10.09
5/3/2022 8:45:00 PM 12.68 54.824 0.044 6.84 1.58 10.09
5/3/2022 9:00:00 PM 12.61 54.698 0.045 6.8 1.52 10.09
5/3/2022 9:15:00 PM 12.55 54.59 0.045 6.82 1.56 10.1
5/3/2022 9:30:00 PM 12.49 54.482 0.045 6.83 1.61 10.1
5/3/2022 9:45:00 PM 12.42 54.356 0.045 6.81 1.55 10.11
5/3/2022 10:00:00 PM 12.36 54.248 0.045 6.79 1.62 10.14
5/3/2022 10:15:00 PM 12.29 54.122 0.045 6.8 1.6 10.14
5/3/2022 10:30:00 PM 12.24 54.032 0.045 6.8 1.6 10.16
5/3/2022 10:45:00 PM 12.19 53.942 0.045 6.81 1.59 10.17
5/3/2022 11:00:00 PM 12.13 53.834 0.045 6.79 1.67 10.2
5/3/2022 11:15:00 PM 12.08 53.744 0.045 6.8 1.8 10.21
5/3/2022 11:30:00 PM 12.03 53.654 0.045 6.79 1.61 10.23
5/3/2022 11:45:00 PM 11.97 53.546 0.045 6.78 1.58 10.24
5/4/2022 12:00:00 AM 11.91 53.438 0.045 6.79 1.65 10.26
5/4/2022 12:15:00 AM 11.85 53.33 0.045 6.79 1.66 10.28
5/4/2022 12:30:00 AM 11.8 53.24 0.045 6.8 1.63 10.28
5/4/2022 12:45:00 AM 11.74 53.132 0.045 6.79 1.7 10.3
5/4/2022 1:00:00 AM 11.68 53.024 0.045 6.79 1.7 10.31
5/4/2022 1:15:00 AM 11.61 52.898 0.045 6.79 1.7 10.32
5/4/2022 1:30:00 AM 11.55 52.79 0.045 6.79 1.74 10.33
5/4/2022 1:45:00 AM 11.49 52.682 0.045 6.78 1.73 10.36
5/4/2022 2:00:00 AM 11.43 52.574 0.045 6.81 1.69 10.37
5/4/2022 2:15:00 AM 11.38 52.484 0.045 6.77 1.76 10.38
5/4/2022 2:30:00 AM 11.32 52.376 0.045 6.79 1.73 10.39
5/4/2022 2:45:00 AM 11.27 52.286 0.045 6.79 1.78 10.4
5/4/2022 3:00:00 AM 11.21 52.178 0.045 6.8 1.74 10.41
5/4/2022 3:15:00 AM 11.16 52.088 0.045 6.78 1.74 10.42
5/4/2022 3:30:00 AM 11.12 52.016 0.045 6.78 1.79 10.43
5/4/2022 3:45:00 AM 11.07 51.926 0.045 6.79 1.87 10.44
5/4/2022 4:00:00 AM 11.02 51.836 0.045 6.8 1.9 10.46
5/4/2022 4:15:00 AM 10.98 51.764 0.045 6.79 2.11 10.47
5/4/2022 4:30:00 AM 10.94 51.692 0.045 6.79 2.21 10.48
5/4/2022 4:45:00 AM 10.89 51.602 0.045 6.79 2.27 10.5
5/4/2022 5:00:00 AM 10.85 51.53 0.045 6.79 2.29 10.51
5/4/2022 5:15:00 AM 10.81 51.458 0.046 6.8 2.11 10.52
5/4/2022 5:30:00 AM 10.76 51.368 0.046 6.8 2.15 10.54
5/4/2022 5:45:00 AM 10.73 51.314 0.046 6.79 2.21 10.54
5/4/2022 6:00:00 AM 10.69 51.242 0.046 6.81 2.36 10.56
5/4/2022 6:15:00 AM 10.65 51.17 0.046 6.82 2.2 10.57
5/4/2022 6:30:00 AM 10.61 51.098 0.046 6.81 2.18 10.59
5/4/2022 6:45:00 AM 10.58 51.044 0.046 6.8 2.1 10.61
5/4/2022 7:00:00 AM 10.55 50.99 0.046 6.82 1.94 10.65
5/4/2022 7:15:00 AM 10.53 50.954 0.046 6.81 2.02 10.66
5/4/2022 7:30:00 AM 10.5 50.9 0.046 6.84 1.97 10.71
5/4/2022 7:45:00 AM 10.48 50.864 0.046 6.83 1.98 10.75
5/4/2022 8:00:00 AM 10.47 50.846 0.045 6.84 1.91 10.8
5/4/2022 8:15:00 AM 10.46 50.828 0.045 6.86 1.94 10.83
5/4/2022 8:30:00 AM 10.45 50.81 0.045 6.86 1.86 10.86
5/4/2022 8:45:00 AM 10.44 50.792 0.045 6.87 1.84 10.89
5/4/2022 9:00:00 AM 10.44 50.792 0.045 6.9 1.84 10.94
5/4/2022 9:15:00 AM 10.46 50.828 0.045 6.89 1.91 11
5/4/2022 9:30:00 AM 10.47 50.846 0.045 6.91 2.07 11.02
5/4/2022 9:45:00 AM 10.48 50.864 0.045 6.91 1.88 11.03
5/4/2022 10:00:00 AM 10.5 50.9 0.045 6.94 1.72 11.06
5/4/2022 10:15:00 AM 10.54 50.972 0.045 6.94 1.91 11.09
5/4/2022 10:30:00 AM 10.58 51.044 0.045 6.94 1.74 11.1
5/4/2022 10:45:00 AM 10.65 51.17 0.045 6.97 1.8 11.13
5/4/2022 11:00:00 AM 10.73 51.314 0.045 6.98 1.78 11.14
5/4/2022 11:15:00 AM 10.78 51.404 0.045 6.98 1.74 11.13
5/4/2022 11:30:00 AM 10.84 51.512 0.045 6.99 1.66 11.12
5/4/2022 11:45:00 AM 10.89 51.602 0.045 6.99 1.82 11.09
5/4/2022 12:00:00 PM 10.92 51.656 0.045 6.99 1.68 11.07
5/4/2022 12:15:00 PM 10.96 51.728 0.045 6.98 1.72 11.07
5/4/2022 12:30:00 PM 11.03 51.854 0.045 7.02 1.67 11.08
5/4/2022 12:45:00 PM 11.09 51.962 0.045 7.02 1.71 11.09
5/4/2022 1:00:00 PM 11.15 52.07 0.045 7.02 1.66 11.09
5/4/2022 1:15:00 PM 11.2 52.16 0.045 7.02 1.71 11.09
5/4/2022 1:30:00 PM 11.25 52.25 0.045 7.03 1.63 11.06
5/4/2022 1:45:00 PM 11.33 52.394 0.045 7.01 1.71 11.04
5/4/2022 2:00:00 PM 11.4 52.52 0.045 7.03 1.66 11.02
5/4/2022 2:15:00 PM 11.47 52.646 0.045 7.02 1.71 11
5/4/2022 2:30:00 PM 11.59 52.862 0.045 7.03 1.72 11
5/4/2022 2:45:00 PM 11.67 53.006 0.045 7.04 1.63 10.99
5/4/2022 3:00:00 PM 11.75 53.15 0.045 7.03 1.7 10.98
5/4/2022 3:15:00 PM 11.91 53.438 0.045 7.05 1.64 10.97
5/4/2022 3:30:00 PM 12.03 53.654 0.045 7.05 1.66 10.95
5/4/2022 3:45:00 PM 12.23 54.014 0.045 7.06 1.65 10.91
5/4/2022 4:00:00 PM 12.24 54.032 0.045 7.03 1.68 10.84
5/4/2022 4:15:00 PM 12.32 54.176 0.045 7.05 1.74 10.83
5/4/2022 4:30:00 PM 12.34 54.212 0.044 7.02 1.7 10.77
5/4/2022 4:45:00 PM 12.31 54.158 0.045 6.99 1.82 10.65
5/4/2022 5:00:00 PM 12.3 54.14 0.045 6.98 1.84 10.66
5/4/2022 5:15:00 PM 12.26 54.068 0.045 7 1.79 10.64
5/4/2022 5:30:00 PM 12.25 54.05 0.045 6.95 1.95 10.6
5/4/2022 5:45:00 PM 12.26 54.068 0.045 6.96 1.71 10.63
5/4/2022 6:00:00 PM 12.24 54.032 0.045 6.96 1.72 10.61
5/4/2022 6:15:00 PM 12.19 53.942 0.045 6.94 1.66 10.51
5/4/2022 6:30:00 PM 12.15 53.87 0.045 6.91 1.7 10.47
5/4/2022 6:45:00 PM 12.11 53.798 0.045 6.92 1.72 10.46
5/4/2022 7:00:00 PM 12.08 53.744 0.045 6.89 1.68 10.45
5/4/2022 7:15:00 PM 12.06 53.708 0.045 6.91 1.67 10.46
5/4/2022 7:30:00 PM 12.04 53.672 0.045 6.88 1.64 10.48
5/4/2022 7:45:00 PM 12.01 53.618 0.045 6.9 1.63 10.46
5/4/2022 8:00:00 PM 11.98 53.564 0.045 6.87 1.61 10.43
5/4/2022 8:15:00 PM 11.94 53.492 0.045 6.87 1.65 10.39
5/4/2022 8:30:00 PM 11.91 53.438 0.045 6.85 1.63 10.36
5/4/2022 8:45:00 PM 11.87 53.366 0.045 6.84 1.61 10.33
5/4/2022 9:00:00 PM 11.84 53.312 0.045 6.84 1.68 10.33
5/4/2022 9:15:00 PM 11.8 53.24 0.046 6.84 1.7 10.32
5/4/2022 9:30:00 PM 11.77 53.186 0.046 6.85 1.62 10.33
5/4/2022 9:45:00 PM 11.73 53.114 0.046 6.82 1.72 10.33
5/4/2022 10:00:00 PM 11.7 53.06 0.046 6.82 1.65 10.33
5/4/2022 10:15:00 PM 11.66 52.988 0.046 6.82 1.74 10.33
5/4/2022 10:30:00 PM 11.63 52.934 0.046 6.83 1.63 10.35
5/4/2022 10:45:00 PM 11.59 52.862 0.046 6.82 1.73 10.36
5/4/2022 11:00:00 PM 11.56 52.808 0.046 6.84 1.66 10.37
5/4/2022 11:15:00 PM 11.52 52.736 0.046 6.81 1.72 10.38
5/4/2022 11:30:00 PM 11.48 52.664 0.046 6.81 1.71 10.4
5/4/2022 11:45:00 PM 11.45 52.61 0.046 6.81 1.85 10.41
5/5/2022 12:00:00 AM 11.41 52.538 0.046 6.81 1.7 10.42
5/5/2022 12:15:00 AM 11.38 52.484 0.046 6.83 1.79 10.44
5/5/2022 12:30:00 AM 11.34 52.412 0.046 6.8 1.73 10.45
5/5/2022 12:45:00 AM 11.3 52.34 0.046 6.81 1.67 10.45
5/5/2022 1:00:00 AM 11.26 52.268 0.046 6.82 1.72 10.47
5/5/2022 1:15:00 AM 11.22 52.196 0.046 6.81 1.75 10.48
5/5/2022 1:30:00 AM 11.18 52.124 0.045 6.82 1.68 10.49
5/5/2022 1:45:00 AM 11.14 52.052 0.045 6.82 1.67 10.5
5/5/2022 2:00:00 AM 11.1 51.98 0.045 6.82 1.71 10.51
5/5/2022 2:15:00 AM 11.07 51.926 0.045 6.78 1.68 10.52
5/5/2022 2:30:00 AM 11.03 51.854 0.045 6.8 1.78 10.53
5/5/2022 2:45:00 AM 11 51.8 0.045 6.8 1.73 10.53
5/5/2022 3:00:00 AM 10.96 51.728 0.045 6.8 1.66 10.54
5/5/2022 3:15:00 AM 10.93 51.674 0.045 6.81 1.79 10.55
5/5/2022 3:30:00 AM 10.88 51.584 0.045 6.81 1.72 10.56
5/5/2022 3:45:00 AM 10.82 51.476 0.045 6.8 1.68 10.58
5/5/2022 4:00:00 AM 10.76 51.368 0.045 6.79 1.73 10.6
5/5/2022 4:15:00 AM 10.7 51.26 0.045 6.79 1.72 10.61
5/5/2022 4:30:00 AM 10.66 51.188 0.045 6.8 1.71 10.62
5/5/2022 4:45:00 AM 10.61 51.098 0.045 6.79 1.75 10.63
5/5/2022 5:00:00 AM 10.56 51.008 0.045 6.82 1.76 10.65
5/5/2022 5:15:00 AM 10.5 50.9 0.045 6.79 1.71 10.65
5/5/2022 5:30:00 AM 10.44 50.792 0.045 6.8 1.75 10.67
5/5/2022 5:45:00 AM 10.38 50.684 0.045 6.79 1.75 10.68
5/5/2022 6:00:00 AM 10.32 50.576 0.045 6.78 1.71 10.71
5/5/2022 6:15:00 AM 10.26 50.468 0.045 6.79 1.83 10.74
5/5/2022 6:30:00 AM 10.2 50.36 0.045 6.82 1.77 10.82
5/5/2022 6:45:00 AM 10.15 50.27 0.045 6.8 1.84 10.88
5/5/2022 7:00:00 AM 10.1 50.18 0.044 6.83 1.73 10.95
5/5/2022 7:15:00 AM 10.06 50.108 0.044 6.81 1.68 11
5/5/2022 7:30:00 AM 10.03 50.054 0.044 6.84 1.75 11.06
5/5/2022 7:45:00 AM 10.02 50.036 0.044 6.86 1.69 11.12
5/5/2022 8:00:00 AM 10.03 50.054 0.044 6.88 1.76 11.16
5/5/2022 8:15:00 AM 10.07 50.126 0.044 6.88 1.68 11.21
5/5/2022 8:30:00 AM 10.12 50.216 0.044 6.9 1.68 11.24
5/5/2022 8:45:00 AM 10.18 50.324 0.044 6.92 1.66 11.26
5/5/2022 9:00:00 AM 10.24 50.432 0.044 6.9 1.75 11.27
5/5/2022 9:15:00 AM 10.33 50.594 0.044 6.94 1.74 11.27
5/5/2022 9:30:00 AM 10.44 50.792 0.044 6.94 1.71 11.29
5/5/2022 9:45:00 AM 10.59 51.062 0.044 6.94 1.66 11.29
5/5/2022 10:00:00 AM 10.75 51.35 0.044 6.98 1.66 11.28
5/5/2022 10:15:00 AM 10.91 51.638 0.044 6.98 1.7 11.26
5/5/2022 10:30:00 AM 11.1 51.98 0.043 6.98 1.65 11.23
5/5/2022 10:45:00 AM 11.31 52.358 0.043 7 1.64 11.21
5/5/2022 11:00:00 AM 11.53 52.754 0.043 7.01 1.64 11.17
5/5/2022 11:15:00 AM 11.79 53.222 0.043 6.99 1.61 11.12
5/5/2022 11:30:00 AM 12.07 53.726 0.043 7.01 1.61 11.07
5/5/2022 11:45:00 AM 12.33 54.194 0.043 7.02 1.52 11.01
5/5/2022 12:00:00 PM 12.61 54.698 0.043 7.03 1.65 10.96
5/5/2022 12:15:00 PM 12.87 55.166 0.043 7.02 1.58 10.9
5/5/2022 12:30:00 PM 13.1 55.58 0.044 7.04 1.48 10.86
5/5/2022 12:45:00 PM 13.31 55.958 0.043 7.05 1.5 10.81
5/5/2022 1:00:00 PM 13.47 56.246 0.043 7.04 1.55 10.77
5/5/2022 1:15:00 PM 13.63 56.534 0.044 7.05 1.5 10.73
5/5/2022 1:30:00 PM 13.79 56.822 0.043 7.06 1.51 10.7
5/5/2022 1:45:00 PM 13.9 57.02 0.043 7.06 1.54 10.67
5/5/2022 2:00:00 PM 13.96 57.128 0.043 7.07 1.56 10.64
5/5/2022 2:15:00 PM 14.01 57.218 0.043 7.08 1.47 10.62
5/5/2022 2:30:00 PM 14.04 57.272 0.043 7.06 1.54 10.6
5/5/2022 2:45:00 PM 14.18 57.524 0.043 7.07 1.47 10.58
5/5/2022 3:00:00 PM 14.32 57.776 0.043 7.07 1.53 10.57
5/5/2022 3:15:00 PM 14.39 57.902 0.043 7.07 1.49 10.52
5/5/2022 3:30:00 PM 14.43 57.974 0.043 7.08 1.47 10.5
5/5/2022 3:45:00 PM 14.53 58.154 0.043 7.08 1.52 10.48
5/5/2022 4:00:00 PM 14.53 58.154 0.043 7.07 1.48 10.43
5/5/2022 4:15:00 PM 14.5 58.1 0.043 7.07 1.44 10.39
5/5/2022 4:30:00 PM 14.55 58.19 0.043 7.05 1.49 10.39
5/5/2022 4:45:00 PM 14.54 58.172 0.043 7.07 1.53 10.39
5/5/2022 5:00:00 PM 14.5 58.1 0.043 7.06 1.49 10.36
5/5/2022 5:15:00 PM 14.51 58.118 0.044 7.07 1.49 10.33
5/5/2022 5:30:00 PM 14.44 57.992 0.044 7.03 1.48 10.29
5/5/2022 5:45:00 PM 14.39 57.902 0.044 7.02 1.48 10.28
5/5/2022 6:00:00 PM 14.3 57.74 0.044 7.02 1.5 10.27
5/5/2022 6:15:00 PM 14.21 57.578 0.044 7.01 1.53 10.22
5/5/2022 6:30:00 PM 14.15 57.47 0.044 7 1.49 10.22
5/5/2022 6:45:00 PM 14.08 57.344 0.044 6.98 1.56 10.2
5/5/2022 7:00:00 PM 14.03 57.254 0.044 6.97 1.51 10.16
5/5/2022 7:15:00 PM 13.96 57.128 0.044 6.94 1.51 10.14
5/5/2022 7:30:00 PM 13.88 56.984 0.044 6.92 1.45 10.1
5/5/2022 7:45:00 PM 13.8 56.84 0.044 6.92 1.59 10.05
5/5/2022 8:00:00 PM 13.71 56.678 0.044 6.87 1.51 10
5/5/2022 8:15:00 PM 13.62 56.516 0.045 6.88 1.57 9.95
5/5/2022 8:30:00 PM 13.54 56.372 0.045 6.84 1.53 9.92
5/5/2022 8:45:00 PM 13.45 56.21 0.045 6.84 1.59 9.91
5/5/2022 9:00:00 PM 13.37 56.066 0.045 6.81 1.59 9.91
5/5/2022 9:15:00 PM 13.28 55.904 0.045 6.8 1.69 9.92
5/5/2022 9:30:00 PM 13.18 55.724 0.045 6.8 1.53 9.94
5/5/2022 9:45:00 PM 13.09 55.562 0.045 6.79 1.61 9.95
5/5/2022 10:00:00 PM 12.99 55.382 0.045 6.78 1.56 9.97
5/5/2022 10:15:00 PM 12.9 55.22 0.045 6.79 1.58 9.98
5/5/2022 10:30:00 PM 12.81 55.058 0.045 6.78 1.59 10.01
5/5/2022 10:45:00 PM 12.73 54.914 0.045 6.78 1.62 10.03
5/5/2022 11:00:00 PM 12.64 54.752 0.045 6.78 1.59 10.04
5/5/2022 11:15:00 PM 12.56 54.608 0.045 6.78 1.58 10.07
5/5/2022 11:30:00 PM 12.48 54.464 0.045 6.78 1.64 10.09
5/5/2022 11:45:00 PM 12.4 54.32 0.046 6.78 1.6 10.11
5/6/2022 12:00:00 AM 12.32 54.176 0.046 6.79 1.66 10.12
5/6/2022 12:15:00 AM 12.24 54.032 0.045 6.74 1.6 10.13
5/6/2022 12:30:00 AM 12.17 53.906 0.045 6.77 1.65 10.15
5/6/2022 12:45:00 AM 12.1 53.78 0.045 6.76 1.66 10.17
5/6/2022 1:00:00 AM 12.03 53.654 0.046 6.78 1.69 10.19
5/6/2022 1:15:00 AM 11.97 53.546 0.046 6.76 1.67 10.2
5/6/2022 1:30:00 AM 11.91 53.438 0.046 6.76 1.64 10.23
5/6/2022 1:45:00 AM 11.84 53.312 0.046 6.77 1.67 10.24
5/6/2022 2:00:00 AM 11.78 53.204 0.046 6.77 1.7 10.26
5/6/2022 2:15:00 AM 11.72 53.096 0.046 6.78 1.71 10.26
5/6/2022 2:30:00 AM 11.66 52.988 0.046 6.76 1.62 10.28
5/6/2022 2:45:00 AM 11.6 52.88 0.046 6.75 1.69 10.29
5/6/2022 3:00:00 AM 11.54 52.772 0.046 6.77 1.61 10.32
5/6/2022 3:15:00 AM 11.48 52.664 0.046 6.76 1.64 10.33
5/6/2022 3:30:00 AM 11.43 52.574 0.046 6.77 1.63 10.34
5/6/2022 3:45:00 AM 11.37 52.466 0.046 6.74 1.72 10.36
5/6/2022 4:00:00 AM 11.32 52.376 0.046 6.77 1.64 10.37
5/6/2022 4:15:00 AM 11.27 52.286 0.045 6.76 1.59 10.38
5/6/2022 4:30:00 AM 11.22 52.196 0.045 6.77 1.66 10.4
5/6/2022 4:45:00 AM 11.17 52.106 0.045 6.75 1.62 10.4
5/6/2022 5:00:00 AM 11.13 52.034 0.045 6.75 1.67 10.42
5/6/2022 5:15:00 AM 11.08 51.944 0.045 6.75 1.65 10.42
5/6/2022 5:30:00 AM 11.04 51.872 0.045 6.77 1.76 10.43
5/6/2022 5:45:00 AM 10.99 51.782 0.045 6.75 1.74 10.44
5/6/2022 6:00:00 AM 10.95 51.71 0.045 6.77 1.62 10.46
5/6/2022 6:15:00 AM 10.91 51.638 0.045 6.76 1.67 10.48
5/6/2022 6:30:00 AM 10.87 51.566 0.045 6.77 1.76 10.51
5/6/2022 6:45:00 AM 10.83 51.494 0.045 6.76 1.71 10.53
5/6/2022 7:00:00 AM 10.8 51.44 0.045 6.79 1.63 10.57
5/6/2022 7:15:00 AM 10.77 51.386 0.045 6.77 1.7 10.59
5/6/2022 7:30:00 AM 10.74 51.332 0.045 6.8 1.61 10.63
5/6/2022 7:45:00 AM 10.71 51.278 0.045 6.8 1.7 10.68
5/6/2022 8:00:00 AM 10.69 51.242 0.045 6.83 1.73 10.73
5/6/2022 8:15:00 AM 10.67 51.206 0.045 6.81 1.64 10.78
5/6/2022 8:30:00 AM 10.66 51.188 0.045 6.85 1.64 10.83
5/6/2022 8:45:00 AM 10.66 51.188 0.045 6.85 1.61 10.89
5/6/2022 9:00:00 AM 10.66 51.188 0.045 6.9 1.68 10.96
5/6/2022 9:15:00 AM 10.67 51.206 0.045 6.88 1.72 10.99
5/6/2022 9:30:00 AM 10.67 51.206 0.045 6.92 1.64 11.01
5/6/2022 9:45:00 AM 10.67 51.206 0.045 6.89 1.69 11.01
5/6/2022 10:00:00 AM 10.67 51.206 0.045 6.93 1.7 11.03
5/6/2022 10:15:00 AM 10.67 51.206 0.045 6.91 1.71 11.02
5/6/2022 10:30:00 AM 10.66 51.188 0.045 6.92 1.71 10.98
5/6/2022 10:45:00 AM 10.67 51.206 0.045 6.94 1.81 11.01
5/6/2022 11:00:00 AM 10.67 51.206 0.045 6.93 1.96 11.03
5/6/2022 11:15:00 AM 10.68 51.224 0.045 6.95 1.95 11.03
5/6/2022 11:30:00 AM 10.7 51.26 0.045 6.94 1.99 11.05
5/6/2022 11:45:00 AM 10.7 51.26 0.045 6.97 2.09 11.05
5/6/2022 12:00:00 PM 10.71 51.278 0.045 6.93 1.96 11.05
5/6/2022 12:15:00 PM 10.72 51.296 0.045 6.96 2.02 11.04
5/6/2022 12:30:00 PM 10.73 51.314 0.045 6.95 1.98 11.04
5/6/2022 12:45:00 PM 10.75 51.35 0.045 6.99 1.95 11.05
5/6/2022 1:00:00 PM 10.77 51.386 0.045 6.97 1.96 11.05
5/6/2022 1:15:00 PM 10.77 51.386 0.045 6.97 1.95 11.02
5/6/2022 1:30:00 PM 10.79 51.422 0.045 6.98 1.95 11
5/6/2022 1:45:00 PM 10.8 51.44 0.046 6.97 3.76 11.02
5/6/2022 2:00:00 PM 10.82 51.476 0.046 6.99 2.2 11.02
5/6/2022 2:15:00 PM 10.84 51.512 0.046 6.98 2.31 11.01
5/6/2022 2:30:00 PM 10.86 51.548 0.046 6.99 2.38 11
5/6/2022 2:45:00 PM 10.87 51.566 0.046 7 2.55 11
5/6/2022 3:00:00 PM 10.89 51.602 0.047 7 2.72 11
5/6/2022 3:15:00 PM 10.92 51.656 0.047 7.03 2.91 10.99
5/6/2022 3:30:00 PM 10.94 51.692 0.048 7.01 3.13 10.96
5/6/2022 3:45:00 PM 10.96 51.728 0.048 7.04 3.68 10.95
5/6/2022 4:00:00 PM 10.97 51.746 0.049 7.04 4.19 10.93
5/6/2022 4:15:00 PM 10.99 51.782 0.05 7.04 4.78 10.91
5/6/2022 4:30:00 PM 10.99 51.782 0.05 7.04 5.4 10.87
5/6/2022 4:45:00 PM 10.99 51.782 0.051 7.03 6.21 10.81
5/6/2022 5:00:00 PM 10.99 51.782 0.051 7.04 6.77 10.8
5/6/2022 5:15:00 PM 11 51.8 0.052 7.04 6.95 10.8
5/6/2022 5:30:00 PM 11 51.8 0.052 7.04 7.03 10.77
5/6/2022 5:45:00 PM 11 51.8 0.052 7.03 7.23 10.77
5/6/2022 6:00:00 PM 10.99 51.782 0.052 7.04 7.54 10.75
5/6/2022 6:15:00 PM 10.98 51.764 0.052 7.01 7.31 10.72
5/6/2022 6:30:00 PM 10.96 51.728 0.052 7.01 7.62 10.68
5/6/2022 6:45:00 PM 10.94 51.692 0.052 6.99 7.97 10.65
5/6/2022 7:00:00 PM 10.92 51.656 0.052 7 7.66 10.64
5/6/2022 7:15:00 PM 10.89 51.602 0.052 6.97 7.39 10.64
5/6/2022 7:30:00 PM 10.85 51.53 0.051 6.97 7.79 10.64
5/6/2022 7:45:00 PM 10.82 51.476 0.051 6.96 7.67 10.64
5/6/2022 8:00:00 PM 10.78 51.404 0.051 6.96 7.44 10.64
5/6/2022 8:15:00 PM 10.74 51.332 0.05 6.96 7.22 10.64
5/6/2022 8:30:00 PM 10.7 51.26 0.05 6.94 7.35 10.65
5/6/2022 8:45:00 PM 10.66 51.188 0.049 6.94 7.73 10.66
5/6/2022 9:00:00 PM 10.62 51.116 0.049 6.93 7.19 10.66
5/6/2022 9:15:00 PM 10.58 51.044 0.048 6.92 7.3 10.68
5/6/2022 9:30:00 PM 10.54 50.972 0.048 6.92 6.92 10.69
5/6/2022 9:45:00 PM 10.51 50.918 0.047 6.91 6.79 10.7
5/6/2022 10:00:00 PM 10.47 50.846 0.047 6.91 6.69 10.71
5/6/2022 10:15:00 PM 10.44 50.792 0.046 6.92 6.68 10.72
5/6/2022 10:30:00 PM 10.41 50.738 0.046 6.87 6.42 10.72
5/6/2022 10:45:00 PM 10.38 50.684 0.046 6.89 6.45 10.73
5/6/2022 11:00:00 PM 10.35 50.63 0.046 6.89 6.53 10.75
5/6/2022 11:15:00 PM 10.33 50.594 0.046 6.88 6.79 10.75
5/6/2022 11:30:00 PM 10.3 50.54 0.045 6.88 6.45 10.75
5/6/2022 11:45:00 PM 10.27 50.486 0.045 6.91 6.35 10.77
5/7/2022 12:00:00 AM 10.25 50.45 0.045 6.86 6.56 10.78
5/7/2022 12:15:00 AM 10.23 50.414 0.045 6.89 6.87 10.79
5/7/2022 12:30:00 AM 10.21 50.378 0.045 6.9 6.92 10.78
5/7/2022 12:45:00 AM 10.19 50.342 0.046 6.89 7.2 10.8
5/7/2022 1:00:00 AM 10.17 50.306 0.046 6.88 7.09 10.79
5/7/2022 1:15:00 AM 10.15 50.27 0.046 6.9 7.21 10.8
5/7/2022 1:30:00 AM 10.13 50.234 0.046 6.9 7.85 10.8
5/7/2022 1:45:00 AM 10.11 50.198 0.045 6.88 7.04 10.81
5/7/2022 2:00:00 AM 10.09 50.162 0.045 6.87 7.04 10.82
5/7/2022 2:15:00 AM 10.07 50.126 0.045 6.89 6.85 10.83
5/7/2022 2:30:00 AM 10.05 50.09 0.045 6.88 7.09 10.83
5/7/2022 2:45:00 AM 10.03 50.054 0.044 6.87 6.57 10.83
5/7/2022 3:00:00 AM 10.01 50.018 0.044 6.87 6.19 10.84
5/7/2022 3:15:00 AM 9.99 49.982 0.044 6.88 6.31 10.84
5/7/2022 3:30:00 AM 9.96 49.928 0.043 6.85 6.15 10.85
5/7/2022 3:45:00 AM 9.94 49.892 0.043 6.86 5.94 10.85
5/7/2022 4:00:00 AM 9.91 49.838 0.043 6.85 5.72 10.86
5/7/2022 4:15:00 AM 9.88 49.784 0.042 6.84 5.57 10.85
5/7/2022 4:30:00 AM 9.85 49.73 0.042 6.85 5.66 10.87
5/7/2022 4:45:00 AM 9.83 49.694 0.042 6.83 5.46 10.86
5/7/2022 5:00:00 AM 9.8 49.64 0.042 6.83 5.29 10.88
5/7/2022 5:15:00 AM 9.78 49.604 0.042 6.85 5.27 10.87
5/7/2022 5:30:00 AM 9.75 49.55 0.041 6.79 5.24 10.88
5/7/2022 5:45:00 AM 9.73 49.514 0.041 6.85 5.19 10.89
5/7/2022 6:00:00 AM 9.71 49.478 0.041 6.83 4.94 10.89
5/7/2022 6:15:00 AM 9.7 49.46 0.041 6.8 4.88 10.9
5/7/2022 6:30:00 AM 9.68 49.424 0.041 6.82 4.89 10.91
5/7/2022 6:45:00 AM 9.66 49.388 0.041 6.8 4.6 10.92
5/7/2022 7:00:00 AM 9.64 49.352 0.041 6.81 4.5 10.93
5/7/2022 7:15:00 AM 9.63 49.334 0.041 6.83 4.51 10.95
5/7/2022 7:30:00 AM 9.61 49.298 0.041 6.8 4.27 10.97
5/7/2022 7:45:00 AM 9.59 49.262 0.041 6.83 4.2 10.99
5/7/2022 8:00:00 AM 9.57 49.226 0.041 6.83 4.47 11
5/7/2022 8:15:00 AM 9.56 49.208 0.041 6.83 4.46 11.03
5/7/2022 8:30:00 AM 9.54 49.172 0.042 6.85 4.59 11.06
5/7/2022 8:45:00 AM 9.53 49.154 0.043 6.88 5.43 11.1
5/7/2022 9:00:00 AM 9.52 49.136 0.043 6.92 6.51 11.12
5/7/2022 9:15:00 AM 9.51 49.118 0.044 6.92 7.28 11.14
5/7/2022 9:30:00 AM 9.49 49.082 0.044 6.94 8.08 11.14
5/7/2022 9:45:00 AM 9.48 49.064 0.044 6.9 8.05 11.14
5/7/2022 10:00:00 AM 9.47 49.046 0.044 6.92 8.58 11.15
5/7/2022 10:15:00 AM 9.45 49.01 0.044 6.93 8.02 11.17<